<?xml version="1.0" encoding="UTF-8"?>
<gpx creator="StravaGPX" version="1.1" xmlns="http://www.topografix.com/GPX/1/1" xmlns:xsi="http://www.w3.org/2001/XMLSchema-instance" xsi:schemaLocation="http://www.topografix.com/GPX/1/1 http://www.topografix.com/GPX/1/1/gpx.xsd http://www.garmin.com/xmlschemas/GpxExtensions/v3 http://www.garmin.com/xmlschemas/GpxExtensionsv3.xsd http://www.garmin.com/xmlschemas/TrackPointExtension/v1 http://www.garmin.com/xmlschemas/TrackPointExtensionv1.xsd">
 <metadata>
  <time>2017-02-11T05:08:33Z</time>
 </metadata>
 <trk>
  <name>Анинские мосты</name>
  <trkseg>
   <trkpt lat="51.6951690" lon="39.2662130">
    <time>2017-02-11T05:08:33Z</time>
   </trkpt>
   <trkpt lat="51.6950450" lon="39.2661910">
    <time>2017-02-11T05:08:47Z</time>
   </trkpt>
   <trkpt lat="51.6950790" lon="39.2664150">
    <time>2017-02-11T05:08:55Z</time>
   </trkpt>
   <trkpt lat="51.6950930" lon="39.2664280">
    <time>2017-02-11T05:08:56Z</time>
   </trkpt>
   <trkpt lat="51.6951100" lon="39.2664430">
    <time>2017-02-11T05:08:57Z</time>
   </trkpt>
   <trkpt lat="51.6951300" lon="39.2664570">
    <time>2017-02-11T05:08:58Z</time>
   </trkpt>
   <trkpt lat="51.6951530" lon="39.2664700">
    <time>2017-02-11T05:08:59Z</time>
   </trkpt>
   <trkpt lat="51.6955380" lon="39.2667410">
    <time>2017-02-11T05:09:14Z</time>
   </trkpt>
   <trkpt lat="51.6958400" lon="39.2669290">
    <time>2017-02-11T05:09:24Z</time>
   </trkpt>
   <trkpt lat="51.6962510" lon="39.2672340">
    <time>2017-02-11T05:09:38Z</time>
   </trkpt>
   <trkpt lat="51.6968200" lon="39.2676430">
    <time>2017-02-11T05:09:56Z</time>
   </trkpt>
   <trkpt lat="51.6968400" lon="39.2676980">
    <time>2017-02-11T05:09:58Z</time>
   </trkpt>
   <trkpt lat="51.6968330" lon="39.2677260">
    <time>2017-02-11T05:09:59Z</time>
   </trkpt>
   <trkpt lat="51.6968180" lon="39.2677540">
    <time>2017-02-11T05:10:00Z</time>
   </trkpt>
   <trkpt lat="51.6968040" lon="39.2677910">
    <time>2017-02-11T05:10:01Z</time>
   </trkpt>
   <trkpt lat="51.6967920" lon="39.2678350">
    <time>2017-02-11T05:10:02Z</time>
   </trkpt>
   <trkpt lat="51.6966340" lon="39.2684860">
    <time>2017-02-11T05:10:14Z</time>
   </trkpt>
   <trkpt lat="51.6966060" lon="39.2690980">
    <time>2017-02-11T05:10:24Z</time>
   </trkpt>
   <trkpt lat="51.6963060" lon="39.2701960">
    <time>2017-02-11T05:10:41Z</time>
   </trkpt>
   <trkpt lat="51.6961480" lon="39.2707080">
    <time>2017-02-11T05:10:52Z</time>
   </trkpt>
   <trkpt lat="51.6961550" lon="39.2707390">
    <time>2017-02-11T05:10:53Z</time>
   </trkpt>
   <trkpt lat="51.6961680" lon="39.2707620">
    <time>2017-02-11T05:10:54Z</time>
   </trkpt>
   <trkpt lat="51.6961870" lon="39.2707820">
    <time>2017-02-11T05:10:55Z</time>
   </trkpt>
   <trkpt lat="51.6966120" lon="39.2710770">
    <time>2017-02-11T05:11:06Z</time>
   </trkpt>
   <trkpt lat="51.6972020" lon="39.2714400">
    <time>2017-02-11T05:11:19Z</time>
   </trkpt>
   <trkpt lat="51.6977390" lon="39.2717710">
    <time>2017-02-11T05:11:34Z</time>
   </trkpt>
   <trkpt lat="51.6979820" lon="39.2719360">
    <time>2017-02-11T05:11:47Z</time>
   </trkpt>
   <trkpt lat="51.6988280" lon="39.2724790">
    <time>2017-02-11T05:12:07Z</time>
   </trkpt>
   <trkpt lat="51.6996820" lon="39.2730360">
    <time>2017-02-11T05:12:27Z</time>
   </trkpt>
   <trkpt lat="51.7001140" lon="39.2733120">
    <time>2017-02-11T05:12:37Z</time>
   </trkpt>
   <trkpt lat="51.7006220" lon="39.2736660">
    <time>2017-02-11T05:12:50Z</time>
   </trkpt>
   <trkpt lat="51.7006930" lon="39.2737300">
    <time>2017-02-11T05:12:53Z</time>
   </trkpt>
   <trkpt lat="51.7006750" lon="39.2738230">
    <time>2017-02-11T05:12:58Z</time>
   </trkpt>
   <trkpt lat="51.7006150" lon="39.2740780">
    <time>2017-02-11T05:13:09Z</time>
   </trkpt>
   <trkpt lat="51.7007020" lon="39.2741950">
    <time>2017-02-11T05:13:16Z</time>
   </trkpt>
   <trkpt lat="51.7007320" lon="39.2742030">
    <time>2017-02-11T05:13:17Z</time>
   </trkpt>
   <trkpt lat="51.7007640" lon="39.2742160">
    <time>2017-02-11T05:13:18Z</time>
   </trkpt>
   <trkpt lat="51.7013990" lon="39.2746440">
    <time>2017-02-11T05:13:33Z</time>
   </trkpt>
   <trkpt lat="51.7024310" lon="39.2751790">
    <time>2017-02-11T05:13:54Z</time>
   </trkpt>
   <trkpt lat="51.7026810" lon="39.2752830">
    <time>2017-02-11T05:13:59Z</time>
   </trkpt>
   <trkpt lat="51.7027290" lon="39.2753160">
    <time>2017-02-11T05:14:00Z</time>
   </trkpt>
   <trkpt lat="51.7028140" lon="39.2753980">
    <time>2017-02-11T05:14:02Z</time>
   </trkpt>
   <trkpt lat="51.7028510" lon="39.2754550">
    <time>2017-02-11T05:14:03Z</time>
   </trkpt>
   <trkpt lat="51.7028840" lon="39.2755220">
    <time>2017-02-11T05:14:04Z</time>
   </trkpt>
   <trkpt lat="51.7029450" lon="39.2756710">
    <time>2017-02-11T05:14:06Z</time>
   </trkpt>
   <trkpt lat="51.7029670" lon="39.2757540">
    <time>2017-02-11T05:14:07Z</time>
   </trkpt>
   <trkpt lat="51.7029840" lon="39.2758390">
    <time>2017-02-11T05:14:08Z</time>
   </trkpt>
   <trkpt lat="51.7029970" lon="39.2759250">
    <time>2017-02-11T05:14:09Z</time>
   </trkpt>
   <trkpt lat="51.7030060" lon="39.2760100">
    <time>2017-02-11T05:14:10Z</time>
   </trkpt>
   <trkpt lat="51.7030100" lon="39.2760980">
    <time>2017-02-11T05:14:11Z</time>
   </trkpt>
   <trkpt lat="51.7030090" lon="39.2761870">
    <time>2017-02-11T05:14:12Z</time>
   </trkpt>
   <trkpt lat="51.7030040" lon="39.2762760">
    <time>2017-02-11T05:14:13Z</time>
   </trkpt>
   <trkpt lat="51.7029060" lon="39.2771540">
    <time>2017-02-11T05:14:22Z</time>
   </trkpt>
   <trkpt lat="51.7029020" lon="39.2772550">
    <time>2017-02-11T05:14:23Z</time>
   </trkpt>
   <trkpt lat="51.7028950" lon="39.2773560">
    <time>2017-02-11T05:14:24Z</time>
   </trkpt>
   <trkpt lat="51.7027650" lon="39.2788470">
    <time>2017-02-11T05:14:40Z</time>
   </trkpt>
   <trkpt lat="51.7026750" lon="39.2799200">
    <time>2017-02-11T05:14:54Z</time>
   </trkpt>
   <trkpt lat="51.7025870" lon="39.2809650">
    <time>2017-02-11T05:15:08Z</time>
   </trkpt>
   <trkpt lat="51.7024580" lon="39.2825440">
    <time>2017-02-11T05:15:28Z</time>
   </trkpt>
   <trkpt lat="51.7022890" lon="39.2845600">
    <time>2017-02-11T05:15:52Z</time>
   </trkpt>
   <trkpt lat="51.7021130" lon="39.2867460">
    <time>2017-02-11T05:16:18Z</time>
   </trkpt>
   <trkpt lat="51.7020280" lon="39.2884210">
    <time>2017-02-11T05:16:38Z</time>
   </trkpt>
   <trkpt lat="51.7022000" lon="39.2894540">
    <time>2017-02-11T05:16:51Z</time>
   </trkpt>
   <trkpt lat="51.7028050" lon="39.2903380">
    <time>2017-02-11T05:17:07Z</time>
   </trkpt>
   <trkpt lat="51.7037660" lon="39.2907060">
    <time>2017-02-11T05:17:26Z</time>
   </trkpt>
   <trkpt lat="51.7050840" lon="39.2910230">
    <time>2017-02-11T05:17:51Z</time>
   </trkpt>
   <trkpt lat="51.7062340" lon="39.2913040">
    <time>2017-02-11T05:18:13Z</time>
   </trkpt>
   <trkpt lat="51.7073980" lon="39.2916120">
    <time>2017-02-11T05:18:35Z</time>
   </trkpt>
   <trkpt lat="51.7087630" lon="39.2919540">
    <time>2017-02-11T05:19:00Z</time>
   </trkpt>
   <trkpt lat="51.7098890" lon="39.2922330">
    <time>2017-02-11T05:19:21Z</time>
   </trkpt>
   <trkpt lat="51.7112300" lon="39.2925680">
    <time>2017-02-11T05:19:46Z</time>
   </trkpt>
   <trkpt lat="51.7124550" lon="39.2928870">
    <time>2017-02-11T05:20:09Z</time>
   </trkpt>
   <trkpt lat="51.7136530" lon="39.2931980">
    <time>2017-02-11T05:20:32Z</time>
   </trkpt>
   <trkpt lat="51.7148240" lon="39.2934850">
    <time>2017-02-11T05:20:54Z</time>
   </trkpt>
   <trkpt lat="51.7160720" lon="39.2937980">
    <time>2017-02-11T05:21:18Z</time>
   </trkpt>
   <trkpt lat="51.7172850" lon="39.2941110">
    <time>2017-02-11T05:21:41Z</time>
   </trkpt>
   <trkpt lat="51.7183840" lon="39.2943860">
    <time>2017-02-11T05:22:02Z</time>
   </trkpt>
   <trkpt lat="51.7193010" lon="39.2946400">
    <time>2017-02-11T05:22:20Z</time>
   </trkpt>
   <trkpt lat="51.7202830" lon="39.2949020">
    <time>2017-02-11T05:22:40Z</time>
   </trkpt>
   <trkpt lat="51.7215550" lon="39.2952440">
    <time>2017-02-11T05:23:05Z</time>
   </trkpt>
   <trkpt lat="51.7228210" lon="39.2955780">
    <time>2017-02-11T05:23:30Z</time>
   </trkpt>
   <trkpt lat="51.7239380" lon="39.2958780">
    <time>2017-02-11T05:23:53Z</time>
   </trkpt>
   <trkpt lat="51.7250840" lon="39.2961670">
    <time>2017-02-11T05:24:16Z</time>
   </trkpt>
   <trkpt lat="51.7261870" lon="39.2964690">
    <time>2017-02-11T05:24:38Z</time>
   </trkpt>
   <trkpt lat="51.7274720" lon="39.2968060">
    <time>2017-02-11T05:25:04Z</time>
   </trkpt>
   <trkpt lat="51.7276310" lon="39.2968540">
    <time>2017-02-11T05:25:08Z</time>
   </trkpt>
   <trkpt lat="51.7277080" lon="39.2969040">
    <time>2017-02-11T05:25:10Z</time>
   </trkpt>
   <trkpt lat="51.7277440" lon="39.2969430">
    <time>2017-02-11T05:25:11Z</time>
   </trkpt>
   <trkpt lat="51.7277720" lon="39.2969940">
    <time>2017-02-11T05:25:12Z</time>
   </trkpt>
   <trkpt lat="51.7277920" lon="39.2970550">
    <time>2017-02-11T05:25:13Z</time>
   </trkpt>
   <trkpt lat="51.7278120" lon="39.2971970">
    <time>2017-02-11T05:25:15Z</time>
   </trkpt>
   <trkpt lat="51.7278520" lon="39.2991150">
    <time>2017-02-11T05:25:39Z</time>
   </trkpt>
   <trkpt lat="51.7277360" lon="39.3011820">
    <time>2017-02-11T05:26:05Z</time>
   </trkpt>
   <trkpt lat="51.7275290" lon="39.3032330">
    <time>2017-02-11T05:26:31Z</time>
   </trkpt>
   <trkpt lat="51.7273430" lon="39.3052250">
    <time>2017-02-11T05:26:56Z</time>
   </trkpt>
   <trkpt lat="51.7271640" lon="39.3070250">
    <time>2017-02-11T05:27:19Z</time>
   </trkpt>
   <trkpt lat="51.7269630" lon="39.3091520">
    <time>2017-02-11T05:27:46Z</time>
   </trkpt>
   <trkpt lat="51.7268390" lon="39.3105210">
    <time>2017-02-11T05:28:04Z</time>
   </trkpt>
   <trkpt lat="51.7266800" lon="39.3121970">
    <time>2017-02-11T05:28:24Z</time>
   </trkpt>
   <trkpt lat="51.7264910" lon="39.3140910">
    <time>2017-02-11T05:28:46Z</time>
   </trkpt>
   <trkpt lat="51.7263720" lon="39.3153260">
    <time>2017-02-11T05:28:59Z</time>
   </trkpt>
   <trkpt lat="51.7262650" lon="39.3163800">
    <time>2017-02-11T05:29:09Z</time>
   </trkpt>
   <trkpt lat="51.7261210" lon="39.3179770">
    <time>2017-02-11T05:29:27Z</time>
   </trkpt>
   <trkpt lat="51.7261200" lon="39.3181210">
    <time>2017-02-11T05:29:29Z</time>
   </trkpt>
   <trkpt lat="51.7261250" lon="39.3181950">
    <time>2017-02-11T05:29:30Z</time>
   </trkpt>
   <trkpt lat="51.7261400" lon="39.3182680">
    <time>2017-02-11T05:29:31Z</time>
   </trkpt>
   <trkpt lat="51.7261670" lon="39.3183340">
    <time>2017-02-11T05:29:32Z</time>
   </trkpt>
   <trkpt lat="51.7262050" lon="39.3183840">
    <time>2017-02-11T05:29:33Z</time>
   </trkpt>
   <trkpt lat="51.7262510" lon="39.3184180">
    <time>2017-02-11T05:29:34Z</time>
   </trkpt>
   <trkpt lat="51.7263020" lon="39.3184370">
    <time>2017-02-11T05:29:35Z</time>
   </trkpt>
   <trkpt lat="51.7263580" lon="39.3184470">
    <time>2017-02-11T05:29:36Z</time>
   </trkpt>
   <trkpt lat="51.7275470" lon="39.3186710">
    <time>2017-02-11T05:29:56Z</time>
   </trkpt>
   <trkpt lat="51.7286880" lon="39.3189110">
    <time>2017-02-11T05:30:16Z</time>
   </trkpt>
   <trkpt lat="51.7304450" lon="39.3192770">
    <time>2017-02-11T05:30:46Z</time>
   </trkpt>
   <trkpt lat="51.7313190" lon="39.3197300">
    <time>2017-02-11T05:31:03Z</time>
   </trkpt>
   <trkpt lat="51.7318140" lon="39.3206760">
    <time>2017-02-11T05:31:18Z</time>
   </trkpt>
   <trkpt lat="51.7318910" lon="39.3211880">
    <time>2017-02-11T05:31:24Z</time>
   </trkpt>
   <trkpt lat="51.7318900" lon="39.3212800">
    <time>2017-02-11T05:31:25Z</time>
   </trkpt>
   <trkpt lat="51.7317120" lon="39.3234570">
    <time>2017-02-11T05:31:48Z</time>
   </trkpt>
   <trkpt lat="51.7315420" lon="39.3257840">
    <time>2017-02-11T05:32:13Z</time>
   </trkpt>
   <trkpt lat="51.7313550" lon="39.3279120">
    <time>2017-02-11T05:32:36Z</time>
   </trkpt>
   <trkpt lat="51.7309260" lon="39.3290530">
    <time>2017-02-11T05:32:50Z</time>
   </trkpt>
   <trkpt lat="51.7304060" lon="39.3298220">
    <time>2017-02-11T05:33:02Z</time>
   </trkpt>
   <trkpt lat="51.7299280" lon="39.3312200">
    <time>2017-02-11T05:33:19Z</time>
   </trkpt>
   <trkpt lat="51.7296900" lon="39.3329170">
    <time>2017-02-11T05:33:38Z</time>
   </trkpt>
   <trkpt lat="51.7297920" lon="39.3350050">
    <time>2017-02-11T05:34:00Z</time>
   </trkpt>
   <trkpt lat="51.7295000" lon="39.3362730">
    <time>2017-02-11T05:34:14Z</time>
   </trkpt>
   <trkpt lat="51.7290200" lon="39.3377910">
    <time>2017-02-11T05:34:32Z</time>
   </trkpt>
   <trkpt lat="51.7291100" lon="39.3395450">
    <time>2017-02-11T05:34:51Z</time>
   </trkpt>
   <trkpt lat="51.7292180" lon="39.3414370">
    <time>2017-02-11T05:35:13Z</time>
   </trkpt>
   <trkpt lat="51.7292850" lon="39.3428940">
    <time>2017-02-11T05:35:31Z</time>
   </trkpt>
   <trkpt lat="51.7293470" lon="39.3437780">
    <time>2017-02-11T05:35:42Z</time>
   </trkpt>
   <trkpt lat="51.7293530" lon="39.3438560">
    <time>2017-02-11T05:35:43Z</time>
   </trkpt>
   <trkpt lat="51.7293590" lon="39.3439340">
    <time>2017-02-11T05:35:44Z</time>
   </trkpt>
   <trkpt lat="51.7293780" lon="39.3441760">
    <time>2017-02-11T05:35:47Z</time>
   </trkpt>
   <trkpt lat="51.7294840" lon="39.3453060">
    <time>2017-02-11T05:36:01Z</time>
   </trkpt>
   <trkpt lat="51.7295510" lon="39.3462380">
    <time>2017-02-11T05:36:12Z</time>
   </trkpt>
   <trkpt lat="51.7295550" lon="39.3463190">
    <time>2017-02-11T05:36:13Z</time>
   </trkpt>
   <trkpt lat="51.7295700" lon="39.3465660">
    <time>2017-02-11T05:36:16Z</time>
   </trkpt>
   <trkpt lat="51.7296700" lon="39.3477290">
    <time>2017-02-11T05:36:30Z</time>
   </trkpt>
   <trkpt lat="51.7296790" lon="39.3478140">
    <time>2017-02-11T05:36:31Z</time>
   </trkpt>
   <trkpt lat="51.7297790" lon="39.3482870">
    <time>2017-02-11T05:36:37Z</time>
   </trkpt>
   <trkpt lat="51.7298580" lon="39.3484960">
    <time>2017-02-11T05:36:40Z</time>
   </trkpt>
   <trkpt lat="51.7305220" lon="39.3495500">
    <time>2017-02-11T05:36:58Z</time>
   </trkpt>
   <trkpt lat="51.7314720" lon="39.3501140">
    <time>2017-02-11T05:37:17Z</time>
   </trkpt>
   <trkpt lat="51.7319420" lon="39.3501610">
    <time>2017-02-11T05:37:26Z</time>
   </trkpt>
   <trkpt lat="51.7319910" lon="39.3501860">
    <time>2017-02-11T05:37:27Z</time>
   </trkpt>
   <trkpt lat="51.7320350" lon="39.3502260">
    <time>2017-02-11T05:37:28Z</time>
   </trkpt>
   <trkpt lat="51.7320740" lon="39.3502800">
    <time>2017-02-11T05:37:29Z</time>
   </trkpt>
   <trkpt lat="51.7321050" lon="39.3503470">
    <time>2017-02-11T05:37:30Z</time>
   </trkpt>
   <trkpt lat="51.7321290" lon="39.3504200">
    <time>2017-02-11T05:37:31Z</time>
   </trkpt>
   <trkpt lat="51.7321480" lon="39.3504960">
    <time>2017-02-11T05:37:32Z</time>
   </trkpt>
   <trkpt lat="51.7323770" lon="39.3519470">
    <time>2017-02-11T05:37:50Z</time>
   </trkpt>
   <trkpt lat="51.7326140" lon="39.3535140">
    <time>2017-02-11T05:38:09Z</time>
   </trkpt>
   <trkpt lat="51.7328570" lon="39.3550950">
    <time>2017-02-11T05:38:28Z</time>
   </trkpt>
   <trkpt lat="51.7330730" lon="39.3564520">
    <time>2017-02-11T05:38:45Z</time>
   </trkpt>
   <trkpt lat="51.7332290" lon="39.3578140">
    <time>2017-02-11T05:39:02Z</time>
   </trkpt>
   <trkpt lat="51.7334880" lon="39.3589190">
    <time>2017-02-11T05:39:17Z</time>
   </trkpt>
   <trkpt lat="51.7335150" lon="39.3589640">
    <time>2017-02-11T05:39:18Z</time>
   </trkpt>
   <trkpt lat="51.7335420" lon="39.3590000">
    <time>2017-02-11T05:39:19Z</time>
   </trkpt>
   <trkpt lat="51.7335710" lon="39.3590220">
    <time>2017-02-11T05:39:20Z</time>
   </trkpt>
   <trkpt lat="51.7336050" lon="39.3590320">
    <time>2017-02-11T05:39:21Z</time>
   </trkpt>
   <trkpt lat="51.7336420" lon="39.3590300">
    <time>2017-02-11T05:39:22Z</time>
   </trkpt>
   <trkpt lat="51.7336820" lon="39.3590170">
    <time>2017-02-11T05:39:23Z</time>
   </trkpt>
   <trkpt lat="51.7337220" lon="39.3589920">
    <time>2017-02-11T05:39:24Z</time>
   </trkpt>
   <trkpt lat="51.7337620" lon="39.3589600">
    <time>2017-02-11T05:39:25Z</time>
   </trkpt>
   <trkpt lat="51.7345350" lon="39.3581400">
    <time>2017-02-11T05:39:43Z</time>
   </trkpt>
   <trkpt lat="51.7354950" lon="39.3573490">
    <time>2017-02-11T05:40:04Z</time>
   </trkpt>
   <trkpt lat="51.7364490" lon="39.3565610">
    <time>2017-02-11T05:40:25Z</time>
   </trkpt>
   <trkpt lat="51.7375950" lon="39.3555900">
    <time>2017-02-11T05:40:50Z</time>
   </trkpt>
   <trkpt lat="51.7383140" lon="39.3550220">
    <time>2017-02-11T05:41:07Z</time>
   </trkpt>
   <trkpt lat="51.7383550" lon="39.3550090">
    <time>2017-02-11T05:41:08Z</time>
   </trkpt>
   <trkpt lat="51.7383960" lon="39.3550100">
    <time>2017-02-11T05:41:09Z</time>
   </trkpt>
   <trkpt lat="51.7384330" lon="39.3550320">
    <time>2017-02-11T05:41:10Z</time>
   </trkpt>
   <trkpt lat="51.7384640" lon="39.3550740">
    <time>2017-02-11T05:41:11Z</time>
   </trkpt>
   <trkpt lat="51.7384910" lon="39.3551330">
    <time>2017-02-11T05:41:12Z</time>
   </trkpt>
   <trkpt lat="51.7385150" lon="39.3552000">
    <time>2017-02-11T05:41:13Z</time>
   </trkpt>
   <trkpt lat="51.7385370" lon="39.3552720">
    <time>2017-02-11T05:41:14Z</time>
   </trkpt>
   <trkpt lat="51.7390060" lon="39.3569330">
    <time>2017-02-11T05:41:36Z</time>
   </trkpt>
   <trkpt lat="51.7394760" lon="39.3586590">
    <time>2017-02-11T05:42:00Z</time>
   </trkpt>
   <trkpt lat="51.7398770" lon="39.3600960">
    <time>2017-02-11T05:42:20Z</time>
   </trkpt>
   <trkpt lat="51.7403080" lon="39.3616600">
    <time>2017-02-11T05:42:42Z</time>
   </trkpt>
   <trkpt lat="51.7406620" lon="39.3628760">
    <time>2017-02-11T05:42:59Z</time>
   </trkpt>
   <trkpt lat="51.7410810" lon="39.3643470">
    <time>2017-02-11T05:43:19Z</time>
   </trkpt>
   <trkpt lat="51.7414240" lon="39.3657610">
    <time>2017-02-11T05:43:38Z</time>
   </trkpt>
   <trkpt lat="51.7416390" lon="39.3671490">
    <time>2017-02-11T05:43:57Z</time>
   </trkpt>
   <trkpt lat="51.7419690" lon="39.3685860">
    <time>2017-02-11T05:44:18Z</time>
   </trkpt>
   <trkpt lat="51.7425170" lon="39.3702370">
    <time>2017-02-11T05:44:41Z</time>
   </trkpt>
   <trkpt lat="51.7430250" lon="39.3717720">
    <time>2017-02-11T05:45:01Z</time>
   </trkpt>
   <trkpt lat="51.7434090" lon="39.3729730">
    <time>2017-02-11T05:45:18Z</time>
   </trkpt>
   <trkpt lat="51.7438310" lon="39.3742070">
    <time>2017-02-11T05:45:35Z</time>
   </trkpt>
   <trkpt lat="51.7442970" lon="39.3756190">
    <time>2017-02-11T05:45:55Z</time>
   </trkpt>
   <trkpt lat="51.7447910" lon="39.3770400">
    <time>2017-02-11T05:46:15Z</time>
   </trkpt>
   <trkpt lat="51.7452530" lon="39.3784180">
    <time>2017-02-11T05:46:34Z</time>
   </trkpt>
   <trkpt lat="51.7457030" lon="39.3797780">
    <time>2017-02-11T05:46:53Z</time>
   </trkpt>
   <trkpt lat="51.7460710" lon="39.3808970">
    <time>2017-02-11T05:47:10Z</time>
   </trkpt>
   <trkpt lat="51.7462400" lon="39.3813850">
    <time>2017-02-11T05:47:22Z</time>
   </trkpt>
   <trkpt lat="51.7465540" lon="39.3822840">
    <time>2017-02-11T05:47:33Z</time>
   </trkpt>
   <trkpt lat="51.7470270" lon="39.3840520">
    <time>2017-02-11T05:47:54Z</time>
   </trkpt>
   <trkpt lat="51.7474580" lon="39.3856610">
    <time>2017-02-11T05:48:13Z</time>
   </trkpt>
   <trkpt lat="51.7477380" lon="39.3868200">
    <time>2017-02-11T05:48:27Z</time>
   </trkpt>
   <trkpt lat="51.7481290" lon="39.3882430">
    <time>2017-02-11T05:48:44Z</time>
   </trkpt>
   <trkpt lat="51.7484850" lon="39.3895120">
    <time>2017-02-11T05:49:00Z</time>
   </trkpt>
   <trkpt lat="51.7488620" lon="39.3909300">
    <time>2017-02-11T05:49:13Z</time>
   </trkpt>
   <trkpt lat="51.7492910" lon="39.3924860">
    <time>2017-02-11T05:49:28Z</time>
   </trkpt>
   <trkpt lat="51.7494260" lon="39.3929920">
    <time>2017-02-11T05:49:34Z</time>
   </trkpt>
   <trkpt lat="51.7494640" lon="39.3932610">
    <time>2017-02-11T05:49:37Z</time>
   </trkpt>
   <trkpt lat="51.7494650" lon="39.3933540">
    <time>2017-02-11T05:49:38Z</time>
   </trkpt>
   <trkpt lat="51.7494590" lon="39.3934490">
    <time>2017-02-11T05:49:39Z</time>
   </trkpt>
   <trkpt lat="51.7494480" lon="39.3935420">
    <time>2017-02-11T05:49:40Z</time>
   </trkpt>
   <trkpt lat="51.7494330" lon="39.3936370">
    <time>2017-02-11T05:49:41Z</time>
   </trkpt>
   <trkpt lat="51.7494110" lon="39.3937300">
    <time>2017-02-11T05:49:42Z</time>
   </trkpt>
   <trkpt lat="51.7493890" lon="39.3938240">
    <time>2017-02-11T05:49:43Z</time>
   </trkpt>
   <trkpt lat="51.7493310" lon="39.3942960">
    <time>2017-02-11T05:49:48Z</time>
   </trkpt>
   <trkpt lat="51.7493360" lon="39.3943900">
    <time>2017-02-11T05:49:49Z</time>
   </trkpt>
   <trkpt lat="51.7493460" lon="39.3944850">
    <time>2017-02-11T05:49:50Z</time>
   </trkpt>
   <trkpt lat="51.7493630" lon="39.3945770">
    <time>2017-02-11T05:49:51Z</time>
   </trkpt>
   <trkpt lat="51.7493850" lon="39.3946650">
    <time>2017-02-11T05:49:52Z</time>
   </trkpt>
   <trkpt lat="51.7494130" lon="39.3947520">
    <time>2017-02-11T05:49:53Z</time>
   </trkpt>
   <trkpt lat="51.7494430" lon="39.3948340">
    <time>2017-02-11T05:49:54Z</time>
   </trkpt>
   <trkpt lat="51.7501080" lon="39.3962560">
    <time>2017-02-11T05:50:14Z</time>
   </trkpt>
   <trkpt lat="51.7507930" lon="39.3978240">
    <time>2017-02-11T05:50:35Z</time>
   </trkpt>
   <trkpt lat="51.7514920" lon="39.3997260">
    <time>2017-02-11T05:50:59Z</time>
   </trkpt>
   <trkpt lat="51.7524480" lon="39.4020750">
    <time>2017-02-11T05:51:29Z</time>
   </trkpt>
   <trkpt lat="51.7531390" lon="39.4037770">
    <time>2017-02-11T05:51:51Z</time>
   </trkpt>
   <trkpt lat="51.7539750" lon="39.4059240">
    <time>2017-02-11T05:52:19Z</time>
   </trkpt>
   <trkpt lat="51.7545000" lon="39.4077780">
    <time>2017-02-11T05:52:42Z</time>
   </trkpt>
   <trkpt lat="51.7547840" lon="39.4095560">
    <time>2017-02-11T05:53:03Z</time>
   </trkpt>
   <trkpt lat="51.7551950" lon="39.4114190">
    <time>2017-02-11T05:53:27Z</time>
   </trkpt>
   <trkpt lat="51.7556730" lon="39.4134800">
    <time>2017-02-11T05:53:53Z</time>
   </trkpt>
   <trkpt lat="51.7560560" lon="39.4152890">
    <time>2017-02-11T05:54:16Z</time>
   </trkpt>
   <trkpt lat="51.7562610" lon="39.4171730">
    <time>2017-02-11T05:54:39Z</time>
   </trkpt>
   <trkpt lat="51.7562920" lon="39.4192300">
    <time>2017-02-11T05:55:03Z</time>
   </trkpt>
   <trkpt lat="51.7563790" lon="39.4211340">
    <time>2017-02-11T05:55:25Z</time>
   </trkpt>
   <trkpt lat="51.7565910" lon="39.4226510">
    <time>2017-02-11T05:55:43Z</time>
   </trkpt>
   <trkpt lat="51.7566130" lon="39.4250010">
    <time>2017-02-11T05:56:11Z</time>
   </trkpt>
   <trkpt lat="51.7564310" lon="39.4270020">
    <time>2017-02-11T05:56:34Z</time>
   </trkpt>
   <trkpt lat="51.7562390" lon="39.4291860">
    <time>2017-02-11T05:57:01Z</time>
   </trkpt>
   <trkpt lat="51.7559340" lon="39.4312310">
    <time>2017-02-11T05:57:28Z</time>
   </trkpt>
   <trkpt lat="51.7553010" lon="39.4330170">
    <time>2017-02-11T05:57:53Z</time>
   </trkpt>
   <trkpt lat="51.7545700" lon="39.4349640">
    <time>2017-02-11T05:58:20Z</time>
   </trkpt>
   <trkpt lat="51.7538300" lon="39.4365910">
    <time>2017-02-11T05:58:43Z</time>
   </trkpt>
   <trkpt lat="51.7528790" lon="39.4382690">
    <time>2017-02-11T05:59:09Z</time>
   </trkpt>
   <trkpt lat="51.7521580" lon="39.4400010">
    <time>2017-02-11T05:59:32Z</time>
   </trkpt>
   <trkpt lat="51.7520590" lon="39.4403310">
    <time>2017-02-11T05:59:36Z</time>
   </trkpt>
   <trkpt lat="51.7515720" lon="39.4425800">
    <time>2017-02-11T06:00:02Z</time>
   </trkpt>
   <trkpt lat="51.7511140" lon="39.4450050">
    <time>2017-02-11T06:00:30Z</time>
   </trkpt>
   <trkpt lat="51.7508180" lon="39.4472040">
    <time>2017-02-11T06:00:55Z</time>
   </trkpt>
   <trkpt lat="51.7506380" lon="39.4484930">
    <time>2017-02-11T06:01:10Z</time>
   </trkpt>
   <trkpt lat="51.7506150" lon="39.4485610">
    <time>2017-02-11T06:01:11Z</time>
   </trkpt>
   <trkpt lat="51.7505850" lon="39.4486210">
    <time>2017-02-11T06:01:12Z</time>
   </trkpt>
   <trkpt lat="51.7505470" lon="39.4486670">
    <time>2017-02-11T06:01:13Z</time>
   </trkpt>
   <trkpt lat="51.7505060" lon="39.4486990">
    <time>2017-02-11T06:01:14Z</time>
   </trkpt>
   <trkpt lat="51.7504640" lon="39.4487150">
    <time>2017-02-11T06:01:15Z</time>
   </trkpt>
   <trkpt lat="51.7504200" lon="39.4487190">
    <time>2017-02-11T06:01:16Z</time>
   </trkpt>
   <trkpt lat="51.7503740" lon="39.4487060">
    <time>2017-02-11T06:01:17Z</time>
   </trkpt>
   <trkpt lat="51.7503260" lon="39.4486800">
    <time>2017-02-11T06:01:18Z</time>
   </trkpt>
   <trkpt lat="51.7502760" lon="39.4486490">
    <time>2017-02-11T06:01:19Z</time>
   </trkpt>
   <trkpt lat="51.7495020" lon="39.4483140">
    <time>2017-02-11T06:01:34Z</time>
   </trkpt>
   <trkpt lat="51.7494560" lon="39.4483180">
    <time>2017-02-11T06:01:35Z</time>
   </trkpt>
   <trkpt lat="51.7494110" lon="39.4483330">
    <time>2017-02-11T06:01:36Z</time>
   </trkpt>
   <trkpt lat="51.7493670" lon="39.4483570">
    <time>2017-02-11T06:01:37Z</time>
   </trkpt>
   <trkpt lat="51.7493250" lon="39.4483920">
    <time>2017-02-11T06:01:38Z</time>
   </trkpt>
   <trkpt lat="51.7492860" lon="39.4484370">
    <time>2017-02-11T06:01:39Z</time>
   </trkpt>
   <trkpt lat="51.7492510" lon="39.4484920">
    <time>2017-02-11T06:01:40Z</time>
   </trkpt>
   <trkpt lat="51.7492210" lon="39.4485530">
    <time>2017-02-11T06:01:41Z</time>
   </trkpt>
   <trkpt lat="51.7491940" lon="39.4486200">
    <time>2017-02-11T06:01:42Z</time>
   </trkpt>
   <trkpt lat="51.7491700" lon="39.4486900">
    <time>2017-02-11T06:01:43Z</time>
   </trkpt>
   <trkpt lat="51.7489990" lon="39.4495070">
    <time>2017-02-11T06:01:54Z</time>
   </trkpt>
   <trkpt lat="51.7489870" lon="39.4495830">
    <time>2017-02-11T06:01:55Z</time>
   </trkpt>
   <trkpt lat="51.7487220" lon="39.4509650">
    <time>2017-02-11T06:02:13Z</time>
   </trkpt>
   <trkpt lat="51.7484530" lon="39.4522950">
    <time>2017-02-11T06:02:30Z</time>
   </trkpt>
   <trkpt lat="51.7481550" lon="39.4537990">
    <time>2017-02-11T06:02:49Z</time>
   </trkpt>
   <trkpt lat="51.7478850" lon="39.4551640">
    <time>2017-02-11T06:03:06Z</time>
   </trkpt>
   <trkpt lat="51.7478700" lon="39.4552450">
    <time>2017-02-11T06:03:07Z</time>
   </trkpt>
   <trkpt lat="51.7478550" lon="39.4553250">
    <time>2017-02-11T06:03:08Z</time>
   </trkpt>
   <trkpt lat="51.7476060" lon="39.4567160">
    <time>2017-02-11T06:03:25Z</time>
   </trkpt>
   <trkpt lat="51.7473330" lon="39.4582360">
    <time>2017-02-11T06:03:44Z</time>
   </trkpt>
   <trkpt lat="51.7469900" lon="39.4600220">
    <time>2017-02-11T06:04:07Z</time>
   </trkpt>
   <trkpt lat="51.7466470" lon="39.4618230">
    <time>2017-02-11T06:04:30Z</time>
   </trkpt>
   <trkpt lat="51.7463390" lon="39.4634550">
    <time>2017-02-11T06:04:46Z</time>
   </trkpt>
   <trkpt lat="51.7461050" lon="39.4644830">
    <time>2017-02-11T06:04:54Z</time>
   </trkpt>
   <trkpt lat="51.7460580" lon="39.4645880">
    <time>2017-02-11T06:04:55Z</time>
   </trkpt>
   <trkpt lat="51.7460010" lon="39.4646820">
    <time>2017-02-11T06:04:56Z</time>
   </trkpt>
   <trkpt lat="51.7459410" lon="39.4647620">
    <time>2017-02-11T06:04:57Z</time>
   </trkpt>
   <trkpt lat="51.7458760" lon="39.4648380">
    <time>2017-02-11T06:04:58Z</time>
   </trkpt>
   <trkpt lat="51.7458080" lon="39.4649090">
    <time>2017-02-11T06:04:59Z</time>
   </trkpt>
   <trkpt lat="51.7449860" lon="39.4657360">
    <time>2017-02-11T06:05:13Z</time>
   </trkpt>
   <trkpt lat="51.7438000" lon="39.4668670">
    <time>2017-02-11T06:05:38Z</time>
   </trkpt>
   <trkpt lat="51.7431360" lon="39.4676300">
    <time>2017-02-11T06:05:54Z</time>
   </trkpt>
   <trkpt lat="51.7431070" lon="39.4676890">
    <time>2017-02-11T06:05:55Z</time>
   </trkpt>
   <trkpt lat="51.7430820" lon="39.4677530">
    <time>2017-02-11T06:05:56Z</time>
   </trkpt>
   <trkpt lat="51.7430630" lon="39.4678240">
    <time>2017-02-11T06:05:57Z</time>
   </trkpt>
   <trkpt lat="51.7430520" lon="39.4678950">
    <time>2017-02-11T06:05:58Z</time>
   </trkpt>
   <trkpt lat="51.7430460" lon="39.4679680">
    <time>2017-02-11T06:05:59Z</time>
   </trkpt>
   <trkpt lat="51.7430430" lon="39.4680430">
    <time>2017-02-11T06:06:00Z</time>
   </trkpt>
   <trkpt lat="51.7430470" lon="39.4681180">
    <time>2017-02-11T06:06:01Z</time>
   </trkpt>
   <trkpt lat="51.7430540" lon="39.4681950">
    <time>2017-02-11T06:06:02Z</time>
   </trkpt>
   <trkpt lat="51.7432600" lon="39.4704390">
    <time>2017-02-11T06:06:31Z</time>
   </trkpt>
   <trkpt lat="51.7435300" lon="39.4723560">
    <time>2017-02-11T06:06:56Z</time>
   </trkpt>
   <trkpt lat="51.7433310" lon="39.4732160">
    <time>2017-02-11T06:07:08Z</time>
   </trkpt>
   <trkpt lat="51.7432950" lon="39.4732650">
    <time>2017-02-11T06:07:09Z</time>
   </trkpt>
   <trkpt lat="51.7432550" lon="39.4733100">
    <time>2017-02-11T06:07:10Z</time>
   </trkpt>
   <trkpt lat="51.7432140" lon="39.4733490">
    <time>2017-02-11T06:07:11Z</time>
   </trkpt>
   <trkpt lat="51.7431710" lon="39.4733860">
    <time>2017-02-11T06:07:12Z</time>
   </trkpt>
   <trkpt lat="51.7424820" lon="39.4737230">
    <time>2017-02-11T06:07:27Z</time>
   </trkpt>
   <trkpt lat="51.7424320" lon="39.4737230">
    <time>2017-02-11T06:07:28Z</time>
   </trkpt>
   <trkpt lat="51.7423820" lon="39.4737160">
    <time>2017-02-11T06:07:29Z</time>
   </trkpt>
   <trkpt lat="51.7423310" lon="39.4737020">
    <time>2017-02-11T06:07:30Z</time>
   </trkpt>
   <trkpt lat="51.7422830" lon="39.4736800">
    <time>2017-02-11T06:07:31Z</time>
   </trkpt>
   <trkpt lat="51.7422350" lon="39.4736530">
    <time>2017-02-11T06:07:32Z</time>
   </trkpt>
   <trkpt lat="51.7421890" lon="39.4736220">
    <time>2017-02-11T06:07:33Z</time>
   </trkpt>
   <trkpt lat="51.7415200" lon="39.4731550">
    <time>2017-02-11T06:07:48Z</time>
   </trkpt>
   <trkpt lat="51.7414740" lon="39.4731430">
    <time>2017-02-11T06:07:49Z</time>
   </trkpt>
   <trkpt lat="51.7414290" lon="39.4731420">
    <time>2017-02-11T06:07:50Z</time>
   </trkpt>
   <trkpt lat="51.7413840" lon="39.4731510">
    <time>2017-02-11T06:07:51Z</time>
   </trkpt>
   <trkpt lat="51.7413390" lon="39.4731700">
    <time>2017-02-11T06:07:52Z</time>
   </trkpt>
   <trkpt lat="51.7412950" lon="39.4732010">
    <time>2017-02-11T06:07:53Z</time>
   </trkpt>
   <trkpt lat="51.7412550" lon="39.4732420">
    <time>2017-02-11T06:07:54Z</time>
   </trkpt>
   <trkpt lat="51.7412180" lon="39.4732900">
    <time>2017-02-11T06:07:55Z</time>
   </trkpt>
   <trkpt lat="51.7411840" lon="39.4733420">
    <time>2017-02-11T06:07:56Z</time>
   </trkpt>
   <trkpt lat="51.7411520" lon="39.4733980">
    <time>2017-02-11T06:07:57Z</time>
   </trkpt>
   <trkpt lat="51.7407670" lon="39.4742990">
    <time>2017-02-11T06:08:13Z</time>
   </trkpt>
   <trkpt lat="51.7408670" lon="39.4746690">
    <time>2017-02-11T06:08:22Z</time>
   </trkpt>
   <trkpt lat="51.7408710" lon="39.4746630">
    <time>2017-02-11T06:08:24Z</time>
   </trkpt>
   <trkpt lat="51.7409230" lon="39.4746590">
    <time>2017-02-11T06:12:37Z</time>
   </trkpt>
   <trkpt lat="51.7410890" lon="39.4751070">
    <time>2017-02-11T06:12:50Z</time>
   </trkpt>
   <trkpt lat="51.7412570" lon="39.4757050">
    <time>2017-02-11T06:13:05Z</time>
   </trkpt>
   <trkpt lat="51.7412660" lon="39.4757550">
    <time>2017-02-11T06:13:11Z</time>
   </trkpt>
   <trkpt lat="51.7413150" lon="39.4757780">
    <time>2017-02-11T06:15:04Z</time>
   </trkpt>
   <trkpt lat="51.7415020" lon="39.4764080">
    <time>2017-02-11T06:15:16Z</time>
   </trkpt>
   <trkpt lat="51.7419320" lon="39.4780680">
    <time>2017-02-11T06:15:39Z</time>
   </trkpt>
   <trkpt lat="51.7424010" lon="39.4798170">
    <time>2017-02-11T06:16:02Z</time>
   </trkpt>
   <trkpt lat="51.7430870" lon="39.4809350">
    <time>2017-02-11T06:16:21Z</time>
   </trkpt>
   <trkpt lat="51.7437090" lon="39.4823150">
    <time>2017-02-11T06:16:42Z</time>
   </trkpt>
   <trkpt lat="51.7444750" lon="39.4841820">
    <time>2017-02-11T06:17:10Z</time>
   </trkpt>
   <trkpt lat="51.7451060" lon="39.4857640">
    <time>2017-02-11T06:17:34Z</time>
   </trkpt>
   <trkpt lat="51.7457390" lon="39.4873740">
    <time>2017-02-11T06:17:58Z</time>
   </trkpt>
   <trkpt lat="51.7463250" lon="39.4888320">
    <time>2017-02-11T06:18:21Z</time>
   </trkpt>
   <trkpt lat="51.7470880" lon="39.4906660">
    <time>2017-02-11T06:18:48Z</time>
   </trkpt>
   <trkpt lat="51.7478000" lon="39.4923950">
    <time>2017-02-11T06:19:14Z</time>
   </trkpt>
   <trkpt lat="51.7485270" lon="39.4942200">
    <time>2017-02-11T06:19:40Z</time>
   </trkpt>
   <trkpt lat="51.7492580" lon="39.4960070">
    <time>2017-02-11T06:20:03Z</time>
   </trkpt>
   <trkpt lat="51.7501470" lon="39.4981850">
    <time>2017-02-11T06:20:31Z</time>
   </trkpt>
   <trkpt lat="51.7510200" lon="39.5002910">
    <time>2017-02-11T06:20:58Z</time>
   </trkpt>
   <trkpt lat="51.7518270" lon="39.5023300">
    <time>2017-02-11T06:21:24Z</time>
   </trkpt>
   <trkpt lat="51.7526710" lon="39.5045020">
    <time>2017-02-11T06:21:51Z</time>
   </trkpt>
   <trkpt lat="51.7535200" lon="39.5064030">
    <time>2017-02-11T06:22:16Z</time>
   </trkpt>
   <trkpt lat="51.7543920" lon="39.5081730">
    <time>2017-02-11T06:22:40Z</time>
   </trkpt>
   <trkpt lat="51.7553570" lon="39.5101640">
    <time>2017-02-11T06:23:07Z</time>
   </trkpt>
   <trkpt lat="51.7562550" lon="39.5120240">
    <time>2017-02-11T06:23:33Z</time>
   </trkpt>
   <trkpt lat="51.7571810" lon="39.5138890">
    <time>2017-02-11T06:24:01Z</time>
   </trkpt>
   <trkpt lat="51.7580070" lon="39.5155750">
    <time>2017-02-11T06:24:27Z</time>
   </trkpt>
   <trkpt lat="51.7587780" lon="39.5171020">
    <time>2017-02-11T06:24:51Z</time>
   </trkpt>
   <trkpt lat="51.7594010" lon="39.5183480">
    <time>2017-02-11T06:25:11Z</time>
   </trkpt>
   <trkpt lat="51.7602250" lon="39.5199580">
    <time>2017-02-11T06:25:37Z</time>
   </trkpt>
   <trkpt lat="51.7610570" lon="39.5216040">
    <time>2017-02-11T06:26:03Z</time>
   </trkpt>
   <trkpt lat="51.7619280" lon="39.5233530">
    <time>2017-02-11T06:26:30Z</time>
   </trkpt>
   <trkpt lat="51.7626910" lon="39.5248040">
    <time>2017-02-11T06:26:54Z</time>
   </trkpt>
   <trkpt lat="51.7632780" lon="39.5259750">
    <time>2017-02-11T06:27:14Z</time>
   </trkpt>
   <trkpt lat="51.7640940" lon="39.5275460">
    <time>2017-02-11T06:27:39Z</time>
   </trkpt>
   <trkpt lat="51.7647590" lon="39.5287640">
    <time>2017-02-11T06:27:58Z</time>
   </trkpt>
   <trkpt lat="51.7651750" lon="39.5294820">
    <time>2017-02-11T06:28:11Z</time>
   </trkpt>
   <trkpt lat="51.7654630" lon="39.5299140">
    <time>2017-02-11T06:28:24Z</time>
   </trkpt>
   <trkpt lat="51.7654980" lon="39.5299760">
    <time>2017-02-11T06:28:25Z</time>
   </trkpt>
   <trkpt lat="51.7656070" lon="39.5301750">
    <time>2017-02-11T06:28:28Z</time>
   </trkpt>
   <trkpt lat="51.7664730" lon="39.5314830">
    <time>2017-02-11T06:28:50Z</time>
   </trkpt>
   <trkpt lat="51.7667800" lon="39.5320280">
    <time>2017-02-11T06:28:59Z</time>
   </trkpt>
   <trkpt lat="51.7668040" lon="39.5320990">
    <time>2017-02-11T06:29:00Z</time>
   </trkpt>
   <trkpt lat="51.7668210" lon="39.5321740">
    <time>2017-02-11T06:29:01Z</time>
   </trkpt>
   <trkpt lat="51.7668240" lon="39.5322540">
    <time>2017-02-11T06:29:02Z</time>
   </trkpt>
   <trkpt lat="51.7668160" lon="39.5323340">
    <time>2017-02-11T06:29:03Z</time>
   </trkpt>
   <trkpt lat="51.7667960" lon="39.5324060">
    <time>2017-02-11T06:29:04Z</time>
   </trkpt>
   <trkpt lat="51.7667680" lon="39.5324730">
    <time>2017-02-11T06:29:05Z</time>
   </trkpt>
   <trkpt lat="51.7667320" lon="39.5325320">
    <time>2017-02-11T06:29:06Z</time>
   </trkpt>
   <trkpt lat="51.7666920" lon="39.5325870">
    <time>2017-02-11T06:29:07Z</time>
   </trkpt>
   <trkpt lat="51.7658290" lon="39.5337160">
    <time>2017-02-11T06:29:26Z</time>
   </trkpt>
   <trkpt lat="51.7645750" lon="39.5352690">
    <time>2017-02-11T06:29:54Z</time>
   </trkpt>
   <trkpt lat="51.7633570" lon="39.5366460">
    <time>2017-02-11T06:30:21Z</time>
   </trkpt>
   <trkpt lat="51.7619710" lon="39.5381570">
    <time>2017-02-11T06:30:51Z</time>
   </trkpt>
   <trkpt lat="51.7612390" lon="39.5395270">
    <time>2017-02-11T06:31:11Z</time>
   </trkpt>
   <trkpt lat="51.7603720" lon="39.5415510">
    <time>2017-02-11T06:31:38Z</time>
   </trkpt>
   <trkpt lat="51.7595120" lon="39.5435560">
    <time>2017-02-11T06:32:04Z</time>
   </trkpt>
   <trkpt lat="51.7586260" lon="39.5456190">
    <time>2017-02-11T06:32:28Z</time>
   </trkpt>
   <trkpt lat="51.7576010" lon="39.5480520">
    <time>2017-02-11T06:32:56Z</time>
   </trkpt>
   <trkpt lat="51.7565240" lon="39.5505530">
    <time>2017-02-11T06:33:25Z</time>
   </trkpt>
   <trkpt lat="51.7560080" lon="39.5524110">
    <time>2017-02-11T06:33:45Z</time>
   </trkpt>
   <trkpt lat="51.7558080" lon="39.5545890">
    <time>2017-02-11T06:34:07Z</time>
   </trkpt>
   <trkpt lat="51.7556010" lon="39.5573540">
    <time>2017-02-11T06:34:35Z</time>
   </trkpt>
   <trkpt lat="51.7554030" lon="39.5599050">
    <time>2017-02-11T06:35:01Z</time>
   </trkpt>
   <trkpt lat="51.7552000" lon="39.5626990">
    <time>2017-02-11T06:35:32Z</time>
   </trkpt>
   <trkpt lat="51.7550280" lon="39.5649800">
    <time>2017-02-11T06:35:57Z</time>
   </trkpt>
   <trkpt lat="51.7548930" lon="39.5668600">
    <time>2017-02-11T06:36:18Z</time>
   </trkpt>
   <trkpt lat="51.7547100" lon="39.5692100">
    <time>2017-02-11T06:36:44Z</time>
   </trkpt>
   <trkpt lat="51.7545340" lon="39.5715520">
    <time>2017-02-11T06:37:09Z</time>
   </trkpt>
   <trkpt lat="51.7543490" lon="39.5739390">
    <time>2017-02-11T06:37:35Z</time>
   </trkpt>
   <trkpt lat="51.7541480" lon="39.5761920">
    <time>2017-02-11T06:38:00Z</time>
   </trkpt>
   <trkpt lat="51.7538040" lon="39.5782190">
    <time>2017-02-11T06:38:23Z</time>
   </trkpt>
   <trkpt lat="51.7534590" lon="39.5811080">
    <time>2017-02-11T06:38:55Z</time>
   </trkpt>
   <trkpt lat="51.7533320" lon="39.5832540">
    <time>2017-02-11T06:39:18Z</time>
   </trkpt>
   <trkpt lat="51.7534210" lon="39.5851990">
    <time>2017-02-11T06:39:38Z</time>
   </trkpt>
   <trkpt lat="51.7531970" lon="39.5869780">
    <time>2017-02-11T06:39:58Z</time>
   </trkpt>
   <trkpt lat="51.7531090" lon="39.5875630">
    <time>2017-02-11T06:40:05Z</time>
   </trkpt>
   <trkpt lat="51.7531320" lon="39.5879170">
    <time>2017-02-11T06:40:11Z</time>
   </trkpt>
   <trkpt lat="51.7531640" lon="39.5879420">
    <time>2017-02-11T06:40:12Z</time>
   </trkpt>
   <trkpt lat="51.7532010" lon="39.5879500">
    <time>2017-02-11T06:40:13Z</time>
   </trkpt>
   <trkpt lat="51.7532400" lon="39.5879500">
    <time>2017-02-11T06:40:14Z</time>
   </trkpt>
   <trkpt lat="51.7532810" lon="39.5879480">
    <time>2017-02-11T06:40:15Z</time>
   </trkpt>
   <trkpt lat="51.7540770" lon="39.5880030">
    <time>2017-02-11T06:40:33Z</time>
   </trkpt>
   <trkpt lat="51.7552520" lon="39.5881410">
    <time>2017-02-11T06:40:58Z</time>
   </trkpt>
   <trkpt lat="51.7568170" lon="39.5882690">
    <time>2017-02-11T06:41:29Z</time>
   </trkpt>
   <trkpt lat="51.7580070" lon="39.5883240">
    <time>2017-02-11T06:41:52Z</time>
   </trkpt>
   <trkpt lat="51.7591950" lon="39.5883590">
    <time>2017-02-11T06:42:14Z</time>
   </trkpt>
   <trkpt lat="51.7605780" lon="39.5884340">
    <time>2017-02-11T06:42:39Z</time>
   </trkpt>
   <trkpt lat="51.7620530" lon="39.5884940">
    <time>2017-02-11T06:43:05Z</time>
   </trkpt>
   <trkpt lat="51.7636430" lon="39.5885790">
    <time>2017-02-11T06:43:33Z</time>
   </trkpt>
   <trkpt lat="51.7649480" lon="39.5890390">
    <time>2017-02-11T06:43:57Z</time>
   </trkpt>
   <trkpt lat="51.7663410" lon="39.5897450">
    <time>2017-02-11T06:44:24Z</time>
   </trkpt>
   <trkpt lat="51.7664290" lon="39.5898380">
    <time>2017-02-11T06:44:26Z</time>
   </trkpt>
   <trkpt lat="51.7664690" lon="39.5898940">
    <time>2017-02-11T06:44:27Z</time>
   </trkpt>
   <trkpt lat="51.7665050" lon="39.5899560">
    <time>2017-02-11T06:44:28Z</time>
   </trkpt>
   <trkpt lat="51.7665360" lon="39.5900230">
    <time>2017-02-11T06:44:29Z</time>
   </trkpt>
   <trkpt lat="51.7665620" lon="39.5900960">
    <time>2017-02-11T06:44:30Z</time>
   </trkpt>
   <trkpt lat="51.7665840" lon="39.5901720">
    <time>2017-02-11T06:44:31Z</time>
   </trkpt>
   <trkpt lat="51.7666010" lon="39.5902540">
    <time>2017-02-11T06:44:32Z</time>
   </trkpt>
   <trkpt lat="51.7666140" lon="39.5903400">
    <time>2017-02-11T06:44:33Z</time>
   </trkpt>
   <trkpt lat="51.7666220" lon="39.5904280">
    <time>2017-02-11T06:44:34Z</time>
   </trkpt>
   <trkpt lat="51.7666260" lon="39.5905160">
    <time>2017-02-11T06:44:35Z</time>
   </trkpt>
   <trkpt lat="51.7666280" lon="39.5906050">
    <time>2017-02-11T06:44:36Z</time>
   </trkpt>
   <trkpt lat="51.7665680" lon="39.5925750">
    <time>2017-02-11T06:44:58Z</time>
   </trkpt>
   <trkpt lat="51.7665080" lon="39.5951650">
    <time>2017-02-11T06:45:26Z</time>
   </trkpt>
   <trkpt lat="51.7664490" lon="39.5974560">
    <time>2017-02-11T06:45:51Z</time>
   </trkpt>
   <trkpt lat="51.7664280" lon="39.5999230">
    <time>2017-02-11T06:46:18Z</time>
   </trkpt>
   <trkpt lat="51.7664700" lon="39.6020960">
    <time>2017-02-11T06:46:42Z</time>
   </trkpt>
   <trkpt lat="51.7665510" lon="39.6044310">
    <time>2017-02-11T06:47:08Z</time>
   </trkpt>
   <trkpt lat="51.7667330" lon="39.6065860">
    <time>2017-02-11T06:47:33Z</time>
   </trkpt>
   <trkpt lat="51.7670830" lon="39.6086230">
    <time>2017-02-11T06:47:59Z</time>
   </trkpt>
   <trkpt lat="51.7675450" lon="39.6103510">
    <time>2017-02-11T06:48:22Z</time>
   </trkpt>
   <trkpt lat="51.7681370" lon="39.6119440">
    <time>2017-02-11T06:48:45Z</time>
   </trkpt>
   <trkpt lat="51.7689750" lon="39.6124730">
    <time>2017-02-11T06:49:02Z</time>
   </trkpt>
   <trkpt lat="51.7700930" lon="39.6129960">
    <time>2017-02-11T06:49:24Z</time>
   </trkpt>
   <trkpt lat="51.7709480" lon="39.6134020">
    <time>2017-02-11T06:49:41Z</time>
   </trkpt>
   <trkpt lat="51.7720860" lon="39.6139570">
    <time>2017-02-11T06:50:02Z</time>
   </trkpt>
   <trkpt lat="51.7733430" lon="39.6145560">
    <time>2017-02-11T06:50:25Z</time>
   </trkpt>
   <trkpt lat="51.7747100" lon="39.6152040">
    <time>2017-02-11T06:50:50Z</time>
   </trkpt>
   <trkpt lat="51.7760140" lon="39.6158470">
    <time>2017-02-11T06:51:14Z</time>
   </trkpt>
   <trkpt lat="51.7771730" lon="39.6164020">
    <time>2017-02-11T06:51:36Z</time>
   </trkpt>
   <trkpt lat="51.7782940" lon="39.6169450">
    <time>2017-02-11T06:51:57Z</time>
   </trkpt>
   <trkpt lat="51.7796480" lon="39.6176070">
    <time>2017-02-11T06:52:22Z</time>
   </trkpt>
   <trkpt lat="51.7808690" lon="39.6182010">
    <time>2017-02-11T06:52:45Z</time>
   </trkpt>
   <trkpt lat="51.7820720" lon="39.6188010">
    <time>2017-02-11T06:53:08Z</time>
   </trkpt>
   <trkpt lat="51.7832530" lon="39.6193810">
    <time>2017-02-11T06:53:32Z</time>
   </trkpt>
   <trkpt lat="51.7846510" lon="39.6200800">
    <time>2017-02-11T06:54:01Z</time>
   </trkpt>
   <trkpt lat="51.7860480" lon="39.6207750">
    <time>2017-02-11T06:54:30Z</time>
   </trkpt>
   <trkpt lat="51.7870960" lon="39.6213160">
    <time>2017-02-11T06:54:52Z</time>
   </trkpt>
   <trkpt lat="51.7883660" lon="39.6219660">
    <time>2017-02-11T06:55:18Z</time>
   </trkpt>
   <trkpt lat="51.7897180" lon="39.6226690">
    <time>2017-02-11T06:55:46Z</time>
   </trkpt>
   <trkpt lat="51.7906680" lon="39.6231910">
    <time>2017-02-11T06:56:07Z</time>
   </trkpt>
   <trkpt lat="51.7917800" lon="39.6238100">
    <time>2017-02-11T06:56:32Z</time>
   </trkpt>
   <trkpt lat="51.7928990" lon="39.6244380">
    <time>2017-02-11T06:56:58Z</time>
   </trkpt>
   <trkpt lat="51.7939250" lon="39.6250080">
    <time>2017-02-11T06:57:21Z</time>
   </trkpt>
   <trkpt lat="51.7948980" lon="39.6255700">
    <time>2017-02-11T06:57:43Z</time>
   </trkpt>
   <trkpt lat="51.7959150" lon="39.6261650">
    <time>2017-02-11T06:58:07Z</time>
   </trkpt>
   <trkpt lat="51.7969330" lon="39.6267990">
    <time>2017-02-11T06:58:31Z</time>
   </trkpt>
   <trkpt lat="51.7979330" lon="39.6274730">
    <time>2017-02-11T06:58:55Z</time>
   </trkpt>
   <trkpt lat="51.7987140" lon="39.6280150">
    <time>2017-02-11T06:59:14Z</time>
   </trkpt>
   <trkpt lat="51.7997410" lon="39.6286750">
    <time>2017-02-11T06:59:38Z</time>
   </trkpt>
   <trkpt lat="51.8007980" lon="39.6293150">
    <time>2017-02-11T07:00:03Z</time>
   </trkpt>
   <trkpt lat="51.8016800" lon="39.6298220">
    <time>2017-02-11T07:00:24Z</time>
   </trkpt>
   <trkpt lat="51.8024750" lon="39.6302660">
    <time>2017-02-11T07:00:45Z</time>
   </trkpt>
   <trkpt lat="51.8032700" lon="39.6307120">
    <time>2017-02-11T07:01:06Z</time>
   </trkpt>
   <trkpt lat="51.8035220" lon="39.6309250">
    <time>2017-02-11T07:01:17Z</time>
   </trkpt>
   <trkpt lat="51.8035200" lon="39.6309300">
    <time>2017-02-11T07:01:19Z</time>
   </trkpt>
   <trkpt lat="51.8035820" lon="39.6308780">
    <time>2017-02-11T07:06:36Z</time>
   </trkpt>
   <trkpt lat="51.8036040" lon="39.6308860">
    <time>2017-02-11T07:06:37Z</time>
   </trkpt>
   <trkpt lat="51.8036320" lon="39.6308930">
    <time>2017-02-11T07:06:38Z</time>
   </trkpt>
   <trkpt lat="51.8041710" lon="39.6312070">
    <time>2017-02-11T07:06:51Z</time>
   </trkpt>
   <trkpt lat="51.8053140" lon="39.6319860">
    <time>2017-02-11T07:07:16Z</time>
   </trkpt>
   <trkpt lat="51.8064510" lon="39.6331350">
    <time>2017-02-11T07:07:42Z</time>
   </trkpt>
   <trkpt lat="51.8075500" lon="39.6343160">
    <time>2017-02-11T07:08:08Z</time>
   </trkpt>
   <trkpt lat="51.8085790" lon="39.6354130">
    <time>2017-02-11T07:08:34Z</time>
   </trkpt>
   <trkpt lat="51.8095170" lon="39.6362800">
    <time>2017-02-11T07:08:57Z</time>
   </trkpt>
   <trkpt lat="51.8105550" lon="39.6367780">
    <time>2017-02-11T07:09:20Z</time>
   </trkpt>
   <trkpt lat="51.8118940" lon="39.6371610">
    <time>2017-02-11T07:09:49Z</time>
   </trkpt>
   <trkpt lat="51.8127450" lon="39.6374030">
    <time>2017-02-11T07:10:10Z</time>
   </trkpt>
   <trkpt lat="51.8137280" lon="39.6377020">
    <time>2017-02-11T07:10:35Z</time>
   </trkpt>
   <trkpt lat="51.8147000" lon="39.6379940">
    <time>2017-02-11T07:10:58Z</time>
   </trkpt>
   <trkpt lat="51.8156300" lon="39.6382850">
    <time>2017-02-11T07:11:22Z</time>
   </trkpt>
   <trkpt lat="51.8166630" lon="39.6386050">
    <time>2017-02-11T07:11:46Z</time>
   </trkpt>
   <trkpt lat="51.8179270" lon="39.6390370">
    <time>2017-02-11T07:12:14Z</time>
   </trkpt>
   <trkpt lat="51.8189920" lon="39.6396270">
    <time>2017-02-11T07:12:36Z</time>
   </trkpt>
   <trkpt lat="51.8202510" lon="39.6403930">
    <time>2017-02-11T07:13:02Z</time>
   </trkpt>
   <trkpt lat="51.8213790" lon="39.6410710">
    <time>2017-02-11T07:13:25Z</time>
   </trkpt>
   <trkpt lat="51.8225260" lon="39.6417610">
    <time>2017-02-11T07:13:50Z</time>
   </trkpt>
   <trkpt lat="51.8235650" lon="39.6423860">
    <time>2017-02-11T07:14:14Z</time>
   </trkpt>
   <trkpt lat="51.8246620" lon="39.6430790">
    <time>2017-02-11T07:14:38Z</time>
   </trkpt>
   <trkpt lat="51.8259170" lon="39.6439150">
    <time>2017-02-11T07:15:05Z</time>
   </trkpt>
   <trkpt lat="51.8270210" lon="39.6446570">
    <time>2017-02-11T07:15:29Z</time>
   </trkpt>
   <trkpt lat="51.8281290" lon="39.6453970">
    <time>2017-02-11T07:15:53Z</time>
   </trkpt>
   <trkpt lat="51.8292470" lon="39.6461490">
    <time>2017-02-11T07:16:17Z</time>
   </trkpt>
   <trkpt lat="51.8304630" lon="39.6469680">
    <time>2017-02-11T07:16:42Z</time>
   </trkpt>
   <trkpt lat="51.8317830" lon="39.6478460">
    <time>2017-02-11T07:17:08Z</time>
   </trkpt>
   <trkpt lat="51.8331550" lon="39.6487520">
    <time>2017-02-11T07:17:35Z</time>
   </trkpt>
   <trkpt lat="51.8344540" lon="39.6495990">
    <time>2017-02-11T07:18:01Z</time>
   </trkpt>
   <trkpt lat="51.8356020" lon="39.6503610">
    <time>2017-02-11T07:18:24Z</time>
   </trkpt>
   <trkpt lat="51.8365350" lon="39.6509900">
    <time>2017-02-11T07:18:43Z</time>
   </trkpt>
   <trkpt lat="51.8377950" lon="39.6518220">
    <time>2017-02-11T07:19:08Z</time>
   </trkpt>
   <trkpt lat="51.8391920" lon="39.6527450">
    <time>2017-02-11T07:19:37Z</time>
   </trkpt>
   <trkpt lat="51.8404380" lon="39.6535670">
    <time>2017-02-11T07:20:04Z</time>
   </trkpt>
   <trkpt lat="51.8415920" lon="39.6543420">
    <time>2017-02-11T07:20:29Z</time>
   </trkpt>
   <trkpt lat="51.8429250" lon="39.6552290">
    <time>2017-02-11T07:20:58Z</time>
   </trkpt>
   <trkpt lat="51.8440880" lon="39.6560050">
    <time>2017-02-11T07:21:24Z</time>
   </trkpt>
   <trkpt lat="51.8452800" lon="39.6567950">
    <time>2017-02-11T07:21:50Z</time>
   </trkpt>
   <trkpt lat="51.8464360" lon="39.6575630">
    <time>2017-02-11T07:22:15Z</time>
   </trkpt>
   <trkpt lat="51.8477190" lon="39.6584220">
    <time>2017-02-11T07:22:43Z</time>
   </trkpt>
   <trkpt lat="51.8488690" lon="39.6591830">
    <time>2017-02-11T07:23:08Z</time>
   </trkpt>
   <trkpt lat="51.8502010" lon="39.6600560">
    <time>2017-02-11T07:23:37Z</time>
   </trkpt>
   <trkpt lat="51.8512550" lon="39.6608050">
    <time>2017-02-11T07:24:01Z</time>
   </trkpt>
   <trkpt lat="51.8521380" lon="39.6616840">
    <time>2017-02-11T07:24:25Z</time>
   </trkpt>
   <trkpt lat="51.8528860" lon="39.6627790">
    <time>2017-02-11T07:24:47Z</time>
   </trkpt>
   <trkpt lat="51.8536960" lon="39.6640380">
    <time>2017-02-11T07:25:12Z</time>
   </trkpt>
   <trkpt lat="51.8545230" lon="39.6653250">
    <time>2017-02-11T07:25:39Z</time>
   </trkpt>
   <trkpt lat="51.8552670" lon="39.6665150">
    <time>2017-02-11T07:26:03Z</time>
   </trkpt>
   <trkpt lat="51.8559290" lon="39.6675820">
    <time>2017-02-11T07:26:23Z</time>
   </trkpt>
   <trkpt lat="51.8568860" lon="39.6690140">
    <time>2017-02-11T07:26:51Z</time>
   </trkpt>
   <trkpt lat="51.8577420" lon="39.6700690">
    <time>2017-02-11T07:27:14Z</time>
   </trkpt>
   <trkpt lat="51.8585650" lon="39.6711310">
    <time>2017-02-11T07:27:38Z</time>
   </trkpt>
   <trkpt lat="51.8590820" lon="39.6722840">
    <time>2017-02-11T07:28:00Z</time>
   </trkpt>
   <trkpt lat="51.8594290" lon="39.6733850">
    <time>2017-02-11T07:28:21Z</time>
   </trkpt>
   <trkpt lat="51.8597960" lon="39.6736270">
    <time>2017-02-11T07:28:33Z</time>
   </trkpt>
   <trkpt lat="51.8603490" lon="39.6733050">
    <time>2017-02-11T07:28:49Z</time>
   </trkpt>
   <trkpt lat="51.8607630" lon="39.6722680">
    <time>2017-02-11T07:29:05Z</time>
   </trkpt>
   <trkpt lat="51.8614590" lon="39.6709540">
    <time>2017-02-11T07:29:27Z</time>
   </trkpt>
   <trkpt lat="51.8623580" lon="39.6699560">
    <time>2017-02-11T07:29:50Z</time>
   </trkpt>
   <trkpt lat="51.8632420" lon="39.6692320">
    <time>2017-02-11T07:30:11Z</time>
   </trkpt>
   <trkpt lat="51.8643910" lon="39.6687030">
    <time>2017-02-11T07:30:36Z</time>
   </trkpt>
   <trkpt lat="51.8654470" lon="39.6683920">
    <time>2017-02-11T07:30:58Z</time>
   </trkpt>
   <trkpt lat="51.8665000" lon="39.6681810">
    <time>2017-02-11T07:31:20Z</time>
   </trkpt>
   <trkpt lat="51.8672050" lon="39.6683240">
    <time>2017-02-11T07:31:38Z</time>
   </trkpt>
   <trkpt lat="51.8680990" lon="39.6684400">
    <time>2017-02-11T07:31:57Z</time>
   </trkpt>
   <trkpt lat="51.8686990" lon="39.6683750">
    <time>2017-02-11T07:32:08Z</time>
   </trkpt>
   <trkpt lat="51.8688600" lon="39.6683080">
    <time>2017-02-11T07:32:11Z</time>
   </trkpt>
   <trkpt lat="51.8689080" lon="39.6682720">
    <time>2017-02-11T07:32:12Z</time>
   </trkpt>
   <trkpt lat="51.8689550" lon="39.6682310">
    <time>2017-02-11T07:32:13Z</time>
   </trkpt>
   <trkpt lat="51.8695220" lon="39.6673110">
    <time>2017-02-11T07:32:29Z</time>
   </trkpt>
   <trkpt lat="51.8702260" lon="39.6660620">
    <time>2017-02-11T07:32:50Z</time>
   </trkpt>
   <trkpt lat="51.8708810" lon="39.6648250">
    <time>2017-02-11T07:33:10Z</time>
   </trkpt>
   <trkpt lat="51.8713900" lon="39.6635120">
    <time>2017-02-11T07:33:30Z</time>
   </trkpt>
   <trkpt lat="51.8718620" lon="39.6619170">
    <time>2017-02-11T07:33:53Z</time>
   </trkpt>
   <trkpt lat="51.8722030" lon="39.6606860">
    <time>2017-02-11T07:34:11Z</time>
   </trkpt>
   <trkpt lat="51.8726620" lon="39.6591420">
    <time>2017-02-11T07:34:34Z</time>
   </trkpt>
   <trkpt lat="51.8727860" lon="39.6587190">
    <time>2017-02-11T07:34:42Z</time>
   </trkpt>
   <trkpt lat="51.8727820" lon="39.6586860">
    <time>2017-02-11T07:34:43Z</time>
   </trkpt>
   <trkpt lat="51.8727730" lon="39.6586650">
    <time>2017-02-11T07:34:44Z</time>
   </trkpt>
   <trkpt lat="51.8727510" lon="39.6586500">
    <time>2017-02-11T07:34:50Z</time>
   </trkpt>
   <trkpt lat="51.8709880" lon="39.6566890">
    <time>2017-02-11T07:40:30Z</time>
   </trkpt>
   <trkpt lat="51.8709220" lon="39.6563330">
    <time>2017-02-11T07:40:54Z</time>
   </trkpt>
   <trkpt lat="51.8708530" lon="39.6562170">
    <time>2017-02-11T07:41:11Z</time>
   </trkpt>
   <trkpt lat="51.8706690" lon="39.6562830">
    <time>2017-02-11T07:41:34Z</time>
   </trkpt>
   <trkpt lat="51.8705810" lon="39.6564060">
    <time>2017-02-11T07:41:51Z</time>
   </trkpt>
   <trkpt lat="51.8705640" lon="39.6564580">
    <time>2017-02-11T07:41:57Z</time>
   </trkpt>
   <trkpt lat="51.8701440" lon="39.6572210">
    <time>2017-02-11T07:43:49Z</time>
   </trkpt>
   <trkpt lat="51.8700920" lon="39.6571950">
    <time>2017-02-11T07:43:58Z</time>
   </trkpt>
   <trkpt lat="51.8697710" lon="39.6570220">
    <time>2017-02-11T07:45:38Z</time>
   </trkpt>
   <trkpt lat="51.8695180" lon="39.6569060">
    <time>2017-02-11T07:46:03Z</time>
   </trkpt>
   <trkpt lat="51.8693920" lon="39.6568390">
    <time>2017-02-11T07:46:18Z</time>
   </trkpt>
   <trkpt lat="51.8692240" lon="39.6566580">
    <time>2017-02-11T07:46:38Z</time>
   </trkpt>
   <trkpt lat="51.8690880" lon="39.6563990">
    <time>2017-02-11T07:47:01Z</time>
   </trkpt>
   <trkpt lat="51.8689970" lon="39.6560360">
    <time>2017-02-11T07:47:27Z</time>
   </trkpt>
   <trkpt lat="51.8690500" lon="39.6558880">
    <time>2017-02-11T07:47:41Z</time>
   </trkpt>
   <trkpt lat="51.8690950" lon="39.6564460">
    <time>2017-02-11T08:12:09Z</time>
   </trkpt>
   <trkpt lat="51.8692530" lon="39.6567260">
    <time>2017-02-11T08:12:31Z</time>
   </trkpt>
   <trkpt lat="51.8694260" lon="39.6569140">
    <time>2017-02-11T08:12:53Z</time>
   </trkpt>
   <trkpt lat="51.8696460" lon="39.6569890">
    <time>2017-02-11T08:13:14Z</time>
   </trkpt>
   <trkpt lat="51.8697930" lon="39.6570540">
    <time>2017-02-11T08:13:35Z</time>
   </trkpt>
   <trkpt lat="51.8700190" lon="39.6571610">
    <time>2017-02-11T08:30:00Z</time>
   </trkpt>
   <trkpt lat="51.8702300" lon="39.6573110">
    <time>2017-02-11T08:30:22Z</time>
   </trkpt>
   <trkpt lat="51.8704310" lon="39.6574770">
    <time>2017-02-11T08:30:43Z</time>
   </trkpt>
   <trkpt lat="51.8705190" lon="39.6575320">
    <time>2017-02-11T08:30:53Z</time>
   </trkpt>
   <trkpt lat="51.8705820" lon="39.6576100">
    <time>2017-02-11T08:31:01Z</time>
   </trkpt>
   <trkpt lat="51.8707830" lon="39.6578560">
    <time>2017-02-11T08:31:24Z</time>
   </trkpt>
   <trkpt lat="51.8710050" lon="39.6580450">
    <time>2017-02-11T08:31:47Z</time>
   </trkpt>
   <trkpt lat="51.8711130" lon="39.6578900">
    <time>2017-02-11T08:32:02Z</time>
   </trkpt>
   <trkpt lat="51.8721840" lon="39.6584220">
    <time>2017-02-11T08:34:25Z</time>
   </trkpt>
   <trkpt lat="51.8722290" lon="39.6584810">
    <time>2017-02-11T08:34:33Z</time>
   </trkpt>
   <trkpt lat="51.8728230" lon="39.6586320">
    <time>2017-02-11T08:37:11Z</time>
   </trkpt>
   <trkpt lat="51.8728330" lon="39.6585970">
    <time>2017-02-11T08:37:12Z</time>
   </trkpt>
   <trkpt lat="51.8728450" lon="39.6585570">
    <time>2017-02-11T08:37:13Z</time>
   </trkpt>
   <trkpt lat="51.8728600" lon="39.6585170">
    <time>2017-02-11T08:37:14Z</time>
   </trkpt>
   <trkpt lat="51.8728770" lon="39.6584720">
    <time>2017-02-11T08:37:15Z</time>
   </trkpt>
   <trkpt lat="51.8731470" lon="39.6575680">
    <time>2017-02-11T08:37:28Z</time>
   </trkpt>
   <trkpt lat="51.8735240" lon="39.6560830">
    <time>2017-02-11T08:37:46Z</time>
   </trkpt>
   <trkpt lat="51.8738120" lon="39.6542900">
    <time>2017-02-11T08:38:07Z</time>
   </trkpt>
   <trkpt lat="51.8741070" lon="39.6524080">
    <time>2017-02-11T08:38:29Z</time>
   </trkpt>
   <trkpt lat="51.8744100" lon="39.6506260">
    <time>2017-02-11T08:38:50Z</time>
   </trkpt>
   <trkpt lat="51.8746840" lon="39.6492290">
    <time>2017-02-11T08:39:07Z</time>
   </trkpt>
   <trkpt lat="51.8746970" lon="39.6491450">
    <time>2017-02-11T08:39:08Z</time>
   </trkpt>
   <trkpt lat="51.8748580" lon="39.6483560">
    <time>2017-02-11T08:39:18Z</time>
   </trkpt>
   <trkpt lat="51.8748750" lon="39.6482800">
    <time>2017-02-11T08:39:19Z</time>
   </trkpt>
   <trkpt lat="51.8748910" lon="39.6482030">
    <time>2017-02-11T08:39:20Z</time>
   </trkpt>
   <trkpt lat="51.8749050" lon="39.6481260">
    <time>2017-02-11T08:39:21Z</time>
   </trkpt>
   <trkpt lat="51.8749190" lon="39.6480570">
    <time>2017-02-11T08:39:22Z</time>
   </trkpt>
   <trkpt lat="51.8749230" lon="39.6479810">
    <time>2017-02-11T08:39:23Z</time>
   </trkpt>
   <trkpt lat="51.8749270" lon="39.6479030">
    <time>2017-02-11T08:39:24Z</time>
   </trkpt>
   <trkpt lat="51.8749290" lon="39.6478260">
    <time>2017-02-11T08:39:25Z</time>
   </trkpt>
   <trkpt lat="51.8749310" lon="39.6477480">
    <time>2017-02-11T08:39:26Z</time>
   </trkpt>
   <trkpt lat="51.8749270" lon="39.6476700">
    <time>2017-02-11T08:39:27Z</time>
   </trkpt>
   <trkpt lat="51.8749190" lon="39.6475910">
    <time>2017-02-11T08:39:28Z</time>
   </trkpt>
   <trkpt lat="51.8749130" lon="39.6475120">
    <time>2017-02-11T08:39:29Z</time>
   </trkpt>
   <trkpt lat="51.8749080" lon="39.6474300">
    <time>2017-02-11T08:39:30Z</time>
   </trkpt>
   <trkpt lat="51.8747320" lon="39.6462030">
    <time>2017-02-11T08:39:45Z</time>
   </trkpt>
   <trkpt lat="51.8746730" lon="39.6457920">
    <time>2017-02-11T08:39:50Z</time>
   </trkpt>
   <trkpt lat="51.8746640" lon="39.6457120">
    <time>2017-02-11T08:39:51Z</time>
   </trkpt>
   <trkpt lat="51.8746490" lon="39.6456300">
    <time>2017-02-11T08:39:52Z</time>
   </trkpt>
   <trkpt lat="51.8744180" lon="39.6443640">
    <time>2017-02-11T08:40:08Z</time>
   </trkpt>
   <trkpt lat="51.8741740" lon="39.6430040">
    <time>2017-02-11T08:40:25Z</time>
   </trkpt>
   <trkpt lat="51.8740090" lon="39.6419040">
    <time>2017-02-11T08:40:39Z</time>
   </trkpt>
   <trkpt lat="51.8739850" lon="39.6417410">
    <time>2017-02-11T08:40:41Z</time>
   </trkpt>
   <trkpt lat="51.8739620" lon="39.6415710">
    <time>2017-02-11T08:40:43Z</time>
   </trkpt>
   <trkpt lat="51.8737170" lon="39.6401650">
    <time>2017-02-11T08:40:59Z</time>
   </trkpt>
   <trkpt lat="51.8736500" lon="39.6396820">
    <time>2017-02-11T08:41:05Z</time>
   </trkpt>
   <trkpt lat="51.8734860" lon="39.6388390">
    <time>2017-02-11T08:41:15Z</time>
   </trkpt>
   <trkpt lat="51.8732900" lon="39.6382730">
    <time>2017-02-11T08:41:26Z</time>
   </trkpt>
   <trkpt lat="51.8732890" lon="39.6382700">
    <time>2017-02-11T08:41:29Z</time>
   </trkpt>
   <trkpt lat="51.8732060" lon="39.6381150">
    <time>2017-02-11T08:42:08Z</time>
   </trkpt>
   <trkpt lat="51.8731900" lon="39.6380830">
    <time>2017-02-11T08:42:09Z</time>
   </trkpt>
   <trkpt lat="51.8731730" lon="39.6380470">
    <time>2017-02-11T08:42:10Z</time>
   </trkpt>
   <trkpt lat="51.8731590" lon="39.6380040">
    <time>2017-02-11T08:42:11Z</time>
   </trkpt>
   <trkpt lat="51.8731420" lon="39.6379570">
    <time>2017-02-11T08:42:12Z</time>
   </trkpt>
   <trkpt lat="51.8731280" lon="39.6379090">
    <time>2017-02-11T08:42:13Z</time>
   </trkpt>
   <trkpt lat="51.8731110" lon="39.6378570">
    <time>2017-02-11T08:42:14Z</time>
   </trkpt>
   <trkpt lat="51.8730910" lon="39.6378050">
    <time>2017-02-11T08:42:15Z</time>
   </trkpt>
   <trkpt lat="51.8726950" lon="39.6370380">
    <time>2017-02-11T08:42:29Z</time>
   </trkpt>
   <trkpt lat="51.8720580" lon="39.6362460">
    <time>2017-02-11T08:42:44Z</time>
   </trkpt>
   <trkpt lat="51.8717700" lon="39.6358810">
    <time>2017-02-11T08:42:51Z</time>
   </trkpt>
   <trkpt lat="51.8717280" lon="39.6358240">
    <time>2017-02-11T08:42:52Z</time>
   </trkpt>
   <trkpt lat="51.8710760" lon="39.6348200">
    <time>2017-02-11T08:43:09Z</time>
   </trkpt>
   <trkpt lat="51.8707660" lon="39.6339650">
    <time>2017-02-11T08:43:22Z</time>
   </trkpt>
   <trkpt lat="51.8706900" lon="39.6336820">
    <time>2017-02-11T08:43:26Z</time>
   </trkpt>
   <trkpt lat="51.8705570" lon="39.6329720">
    <time>2017-02-11T08:43:36Z</time>
   </trkpt>
   <trkpt lat="51.8704460" lon="39.6322370">
    <time>2017-02-11T08:43:46Z</time>
   </trkpt>
   <trkpt lat="51.8704570" lon="39.6308380">
    <time>2017-02-11T08:44:04Z</time>
   </trkpt>
   <trkpt lat="51.8706980" lon="39.6293910">
    <time>2017-02-11T08:44:23Z</time>
   </trkpt>
   <trkpt lat="51.8708740" lon="39.6284000">
    <time>2017-02-11T08:44:36Z</time>
   </trkpt>
   <trkpt lat="51.8711230" lon="39.6270630">
    <time>2017-02-11T08:44:54Z</time>
   </trkpt>
   <trkpt lat="51.8713020" lon="39.6261520">
    <time>2017-02-11T08:45:06Z</time>
   </trkpt>
   <trkpt lat="51.8713170" lon="39.6260770">
    <time>2017-02-11T08:45:07Z</time>
   </trkpt>
   <trkpt lat="51.8713290" lon="39.6260050">
    <time>2017-02-11T08:45:08Z</time>
   </trkpt>
   <trkpt lat="51.8713400" lon="39.6259300">
    <time>2017-02-11T08:45:09Z</time>
   </trkpt>
   <trkpt lat="51.8713550" lon="39.6258510">
    <time>2017-02-11T08:45:10Z</time>
   </trkpt>
   <trkpt lat="51.8713670" lon="39.6257730">
    <time>2017-02-11T08:45:11Z</time>
   </trkpt>
   <trkpt lat="51.8714780" lon="39.6252270">
    <time>2017-02-11T08:45:18Z</time>
   </trkpt>
   <trkpt lat="51.8714900" lon="39.6251520">
    <time>2017-02-11T08:45:19Z</time>
   </trkpt>
   <trkpt lat="51.8715100" lon="39.6250760">
    <time>2017-02-11T08:45:20Z</time>
   </trkpt>
   <trkpt lat="51.8715660" lon="39.6248530">
    <time>2017-02-11T08:45:23Z</time>
   </trkpt>
   <trkpt lat="51.8715830" lon="39.6247770">
    <time>2017-02-11T08:45:24Z</time>
   </trkpt>
   <trkpt lat="51.8716020" lon="39.6247050">
    <time>2017-02-11T08:45:25Z</time>
   </trkpt>
   <trkpt lat="51.8716360" lon="39.6245540">
    <time>2017-02-11T08:45:27Z</time>
   </trkpt>
   <trkpt lat="51.8718180" lon="39.6236080">
    <time>2017-02-11T08:45:39Z</time>
   </trkpt>
   <trkpt lat="51.8719510" lon="39.6229530">
    <time>2017-02-11T08:45:47Z</time>
   </trkpt>
   <trkpt lat="51.8720400" lon="39.6223710">
    <time>2017-02-11T08:45:54Z</time>
   </trkpt>
   <trkpt lat="51.8720560" lon="39.6222890">
    <time>2017-02-11T08:45:55Z</time>
   </trkpt>
   <trkpt lat="51.8722960" lon="39.6210410">
    <time>2017-02-11T08:46:10Z</time>
   </trkpt>
   <trkpt lat="51.8725580" lon="39.6197240">
    <time>2017-02-11T08:46:26Z</time>
   </trkpt>
   <trkpt lat="51.8728540" lon="39.6181460">
    <time>2017-02-11T08:46:45Z</time>
   </trkpt>
   <trkpt lat="51.8731720" lon="39.6165620">
    <time>2017-02-11T08:47:03Z</time>
   </trkpt>
   <trkpt lat="51.8736760" lon="39.6139190">
    <time>2017-02-11T08:47:31Z</time>
   </trkpt>
   <trkpt lat="51.8740840" lon="39.6118190">
    <time>2017-02-11T08:47:54Z</time>
   </trkpt>
   <trkpt lat="51.8744650" lon="39.6098000">
    <time>2017-02-11T08:48:16Z</time>
   </trkpt>
   <trkpt lat="51.8748740" lon="39.6076620">
    <time>2017-02-11T08:48:40Z</time>
   </trkpt>
   <trkpt lat="51.8751760" lon="39.6060990">
    <time>2017-02-11T08:48:58Z</time>
   </trkpt>
   <trkpt lat="51.8755600" lon="39.6040810">
    <time>2017-02-11T08:49:21Z</time>
   </trkpt>
   <trkpt lat="51.8759330" lon="39.6020960">
    <time>2017-02-11T08:49:44Z</time>
   </trkpt>
   <trkpt lat="51.8763290" lon="39.6000330">
    <time>2017-02-11T08:50:08Z</time>
   </trkpt>
   <trkpt lat="51.8766190" lon="39.5980010">
    <time>2017-02-11T08:50:31Z</time>
   </trkpt>
   <trkpt lat="51.8766290" lon="39.5979100">
    <time>2017-02-11T08:50:32Z</time>
   </trkpt>
   <trkpt lat="51.8769730" lon="39.5959070">
    <time>2017-02-11T08:50:53Z</time>
   </trkpt>
   <trkpt lat="51.8773140" lon="39.5941050">
    <time>2017-02-11T08:51:13Z</time>
   </trkpt>
   <trkpt lat="51.8776340" lon="39.5923080">
    <time>2017-02-11T08:51:34Z</time>
   </trkpt>
   <trkpt lat="51.8779210" lon="39.5907230">
    <time>2017-02-11T08:51:55Z</time>
   </trkpt>
   <trkpt lat="51.8780690" lon="39.5898060">
    <time>2017-02-11T08:52:13Z</time>
   </trkpt>
   <trkpt lat="51.8781970" lon="39.5893430">
    <time>2017-02-11T08:52:25Z</time>
   </trkpt>
   <trkpt lat="51.8782130" lon="39.5893390">
    <time>2017-02-11T08:52:26Z</time>
   </trkpt>
   <trkpt lat="51.8782300" lon="39.5893380">
    <time>2017-02-11T08:52:27Z</time>
   </trkpt>
   <trkpt lat="51.8782500" lon="39.5893210">
    <time>2017-02-11T08:52:29Z</time>
   </trkpt>
   <trkpt lat="51.8782930" lon="39.5890250">
    <time>2017-02-11T08:52:40Z</time>
   </trkpt>
   <trkpt lat="51.8783850" lon="39.5887900">
    <time>2017-02-11T08:52:49Z</time>
   </trkpt>
   <trkpt lat="51.8783880" lon="39.5887580">
    <time>2017-02-11T08:52:50Z</time>
   </trkpt>
   <trkpt lat="51.8783910" lon="39.5887240">
    <time>2017-02-11T08:52:51Z</time>
   </trkpt>
   <trkpt lat="51.8783970" lon="39.5886880">
    <time>2017-02-11T08:52:52Z</time>
   </trkpt>
   <trkpt lat="51.8784090" lon="39.5886470">
    <time>2017-02-11T08:52:53Z</time>
   </trkpt>
   <trkpt lat="51.8784250" lon="39.5886050">
    <time>2017-02-11T08:52:54Z</time>
   </trkpt>
   <trkpt lat="51.8784420" lon="39.5885600">
    <time>2017-02-11T08:52:55Z</time>
   </trkpt>
   <trkpt lat="51.8784570" lon="39.5885100">
    <time>2017-02-11T08:52:56Z</time>
   </trkpt>
   <trkpt lat="51.8784690" lon="39.5884570">
    <time>2017-02-11T08:52:57Z</time>
   </trkpt>
   <trkpt lat="51.8784820" lon="39.5884050">
    <time>2017-02-11T08:52:58Z</time>
   </trkpt>
   <trkpt lat="51.8784950" lon="39.5883530">
    <time>2017-02-11T08:52:59Z</time>
   </trkpt>
   <trkpt lat="51.8785040" lon="39.5882980">
    <time>2017-02-11T08:53:00Z</time>
   </trkpt>
   <trkpt lat="51.8785110" lon="39.5882410">
    <time>2017-02-11T08:53:01Z</time>
   </trkpt>
   <trkpt lat="51.8786120" lon="39.5873950">
    <time>2017-02-11T08:53:16Z</time>
   </trkpt>
   <trkpt lat="51.8788640" lon="39.5860180">
    <time>2017-02-11T08:53:37Z</time>
   </trkpt>
   <trkpt lat="51.8791860" lon="39.5842970">
    <time>2017-02-11T08:54:01Z</time>
   </trkpt>
   <trkpt lat="51.8795220" lon="39.5825990">
    <time>2017-02-11T08:54:25Z</time>
   </trkpt>
   <trkpt lat="51.8795410" lon="39.5824750">
    <time>2017-02-11T08:54:27Z</time>
   </trkpt>
   <trkpt lat="51.8797960" lon="39.5811030">
    <time>2017-02-11T08:54:46Z</time>
   </trkpt>
   <trkpt lat="51.8800770" lon="39.5795490">
    <time>2017-02-11T08:55:06Z</time>
   </trkpt>
   <trkpt lat="51.8803580" lon="39.5780580">
    <time>2017-02-11T08:55:27Z</time>
   </trkpt>
   <trkpt lat="51.8806490" lon="39.5765850">
    <time>2017-02-11T08:55:45Z</time>
   </trkpt>
   <trkpt lat="51.8809690" lon="39.5749610">
    <time>2017-02-11T08:56:06Z</time>
   </trkpt>
   <trkpt lat="51.8812760" lon="39.5737010">
    <time>2017-02-11T08:56:23Z</time>
   </trkpt>
   <trkpt lat="51.8815540" lon="39.5722140">
    <time>2017-02-11T08:56:42Z</time>
   </trkpt>
   <trkpt lat="51.8815880" lon="39.5720510">
    <time>2017-02-11T08:56:44Z</time>
   </trkpt>
   <trkpt lat="51.8816580" lon="39.5715800">
    <time>2017-02-11T08:56:50Z</time>
   </trkpt>
   <trkpt lat="51.8816740" lon="39.5715110">
    <time>2017-02-11T08:56:51Z</time>
   </trkpt>
   <trkpt lat="51.8816970" lon="39.5713680">
    <time>2017-02-11T08:56:53Z</time>
   </trkpt>
   <trkpt lat="51.8817350" lon="39.5710710">
    <time>2017-02-11T08:56:57Z</time>
   </trkpt>
   <trkpt lat="51.8817370" lon="39.5709930">
    <time>2017-02-11T08:56:58Z</time>
   </trkpt>
   <trkpt lat="51.8817390" lon="39.5708180">
    <time>2017-02-11T08:57:00Z</time>
   </trkpt>
   <trkpt lat="51.8817620" lon="39.5706360">
    <time>2017-02-11T08:57:02Z</time>
   </trkpt>
   <trkpt lat="51.8817840" lon="39.5705470">
    <time>2017-02-11T08:57:03Z</time>
   </trkpt>
   <trkpt lat="51.8818330" lon="39.5703860">
    <time>2017-02-11T08:57:05Z</time>
   </trkpt>
   <trkpt lat="51.8819190" lon="39.5701660">
    <time>2017-02-11T08:57:08Z</time>
   </trkpt>
   <trkpt lat="51.8819390" lon="39.5700800">
    <time>2017-02-11T08:57:09Z</time>
   </trkpt>
   <trkpt lat="51.8820410" lon="39.5695720">
    <time>2017-02-11T08:57:15Z</time>
   </trkpt>
   <trkpt lat="51.8820600" lon="39.5694920">
    <time>2017-02-11T08:57:16Z</time>
   </trkpt>
   <trkpt lat="51.8822180" lon="39.5685710">
    <time>2017-02-11T08:57:27Z</time>
   </trkpt>
   <trkpt lat="51.8822440" lon="39.5684080">
    <time>2017-02-11T08:57:29Z</time>
   </trkpt>
   <trkpt lat="51.8822650" lon="39.5682540">
    <time>2017-02-11T08:57:31Z</time>
   </trkpt>
   <trkpt lat="51.8822820" lon="39.5681810">
    <time>2017-02-11T08:57:32Z</time>
   </trkpt>
   <trkpt lat="51.8822990" lon="39.5681030">
    <time>2017-02-11T08:57:33Z</time>
   </trkpt>
   <trkpt lat="51.8824250" lon="39.5675470">
    <time>2017-02-11T08:57:40Z</time>
   </trkpt>
   <trkpt lat="51.8825280" lon="39.5670020">
    <time>2017-02-11T08:57:47Z</time>
   </trkpt>
   <trkpt lat="51.8825420" lon="39.5669240">
    <time>2017-02-11T08:57:48Z</time>
   </trkpt>
   <trkpt lat="51.8825520" lon="39.5668410">
    <time>2017-02-11T08:57:49Z</time>
   </trkpt>
   <trkpt lat="51.8825920" lon="39.5663570">
    <time>2017-02-11T08:57:55Z</time>
   </trkpt>
   <trkpt lat="51.8826080" lon="39.5662790">
    <time>2017-02-11T08:57:56Z</time>
   </trkpt>
   <trkpt lat="51.8827900" lon="39.5653100">
    <time>2017-02-11T08:58:08Z</time>
   </trkpt>
   <trkpt lat="51.8830100" lon="39.5642750">
    <time>2017-02-11T08:58:21Z</time>
   </trkpt>
   <trkpt lat="51.8831320" lon="39.5636720">
    <time>2017-02-11T08:58:31Z</time>
   </trkpt>
   <trkpt lat="51.8831330" lon="39.5636730">
    <time>2017-02-11T08:58:33Z</time>
   </trkpt>
   <trkpt lat="51.8830520" lon="39.5635580">
    <time>2017-02-11T08:59:07Z</time>
   </trkpt>
   <trkpt lat="51.8826420" lon="39.5633690">
    <time>2017-02-11T08:59:19Z</time>
   </trkpt>
   <trkpt lat="51.8818270" lon="39.5630020">
    <time>2017-02-11T08:59:36Z</time>
   </trkpt>
   <trkpt lat="51.8810550" lon="39.5626430">
    <time>2017-02-11T08:59:51Z</time>
   </trkpt>
   <trkpt lat="51.8803990" lon="39.5623200">
    <time>2017-02-11T09:00:04Z</time>
   </trkpt>
   <trkpt lat="51.8798100" lon="39.5620090">
    <time>2017-02-11T09:00:17Z</time>
   </trkpt>
   <trkpt lat="51.8796280" lon="39.5619230">
    <time>2017-02-11T09:00:21Z</time>
   </trkpt>
   <trkpt lat="51.8791000" lon="39.5613580">
    <time>2017-02-11T09:00:36Z</time>
   </trkpt>
   <trkpt lat="51.8790480" lon="39.5611180">
    <time>2017-02-11T09:00:40Z</time>
   </trkpt>
   <trkpt lat="51.8789870" lon="39.5606810">
    <time>2017-02-11T09:00:47Z</time>
   </trkpt>
   <trkpt lat="51.8789400" lon="39.5597460">
    <time>2017-02-11T09:01:01Z</time>
   </trkpt>
   <trkpt lat="51.8791010" lon="39.5587640">
    <time>2017-02-11T09:01:14Z</time>
   </trkpt>
   <trkpt lat="51.8792780" lon="39.5576920">
    <time>2017-02-11T09:01:28Z</time>
   </trkpt>
   <trkpt lat="51.8793250" lon="39.5574860">
    <time>2017-02-11T09:01:31Z</time>
   </trkpt>
   <trkpt lat="51.8794350" lon="39.5568370">
    <time>2017-02-11T09:01:40Z</time>
   </trkpt>
   <trkpt lat="51.8794520" lon="39.5566920">
    <time>2017-02-11T09:01:42Z</time>
   </trkpt>
   <trkpt lat="51.8795880" lon="39.5558830">
    <time>2017-02-11T09:01:54Z</time>
   </trkpt>
   <trkpt lat="51.8794540" lon="39.5552090">
    <time>2017-02-11T09:02:05Z</time>
   </trkpt>
   <trkpt lat="51.8794300" lon="39.5550790">
    <time>2017-02-11T09:02:07Z</time>
   </trkpt>
   <trkpt lat="51.8794250" lon="39.5547950">
    <time>2017-02-11T09:02:11Z</time>
   </trkpt>
   <trkpt lat="51.8794230" lon="39.5539350">
    <time>2017-02-11T09:02:24Z</time>
   </trkpt>
   <trkpt lat="51.8793980" lon="39.5529190">
    <time>2017-02-11T09:02:39Z</time>
   </trkpt>
   <trkpt lat="51.8793660" lon="39.5520910">
    <time>2017-02-11T09:02:51Z</time>
   </trkpt>
   <trkpt lat="51.8793620" lon="39.5511800">
    <time>2017-02-11T09:03:06Z</time>
   </trkpt>
   <trkpt lat="51.8792780" lon="39.5507210">
    <time>2017-02-11T09:03:13Z</time>
   </trkpt>
   <trkpt lat="51.8792450" lon="39.5498780">
    <time>2017-02-11T09:03:26Z</time>
   </trkpt>
   <trkpt lat="51.8792280" lon="39.5492080">
    <time>2017-02-11T09:03:37Z</time>
   </trkpt>
   <trkpt lat="51.8791780" lon="39.5483220">
    <time>2017-02-11T09:03:50Z</time>
   </trkpt>
   <trkpt lat="51.8791560" lon="39.5477960">
    <time>2017-02-11T09:04:00Z</time>
   </trkpt>
   <trkpt lat="51.8792720" lon="39.5471820">
    <time>2017-02-11T09:04:11Z</time>
   </trkpt>
   <trkpt lat="51.8791040" lon="39.5466250">
    <time>2017-02-11T09:04:22Z</time>
   </trkpt>
   <trkpt lat="51.8786310" lon="39.5461630">
    <time>2017-02-11T09:04:36Z</time>
   </trkpt>
   <trkpt lat="51.8781830" lon="39.5457470">
    <time>2017-02-11T09:04:48Z</time>
   </trkpt>
   <trkpt lat="51.8777840" lon="39.5452930">
    <time>2017-02-11T09:05:01Z</time>
   </trkpt>
   <trkpt lat="51.8774230" lon="39.5446020">
    <time>2017-02-11T09:05:14Z</time>
   </trkpt>
   <trkpt lat="51.8771840" lon="39.5440980">
    <time>2017-02-11T09:05:23Z</time>
   </trkpt>
   <trkpt lat="51.8769980" lon="39.5434910">
    <time>2017-02-11T09:05:32Z</time>
   </trkpt>
   <trkpt lat="51.8767930" lon="39.5429930">
    <time>2017-02-11T09:05:40Z</time>
   </trkpt>
   <trkpt lat="51.8765790" lon="39.5420750">
    <time>2017-02-11T09:05:53Z</time>
   </trkpt>
   <trkpt lat="51.8765700" lon="39.5420170">
    <time>2017-02-11T09:05:54Z</time>
   </trkpt>
   <trkpt lat="51.8764590" lon="39.5413230">
    <time>2017-02-11T09:06:04Z</time>
   </trkpt>
   <trkpt lat="51.8762590" lon="39.5404700">
    <time>2017-02-11T09:06:15Z</time>
   </trkpt>
   <trkpt lat="51.8762320" lon="39.5396000">
    <time>2017-02-11T09:06:28Z</time>
   </trkpt>
   <trkpt lat="51.8762300" lon="39.5389880">
    <time>2017-02-11T09:06:35Z</time>
   </trkpt>
   <trkpt lat="51.8761910" lon="39.5381790">
    <time>2017-02-11T09:06:44Z</time>
   </trkpt>
   <trkpt lat="51.8759900" lon="39.5372350">
    <time>2017-02-11T09:06:55Z</time>
   </trkpt>
   <trkpt lat="51.8759150" lon="39.5370480">
    <time>2017-02-11T09:06:58Z</time>
   </trkpt>
   <trkpt lat="51.8758500" lon="39.5369390">
    <time>2017-02-11T09:07:00Z</time>
   </trkpt>
   <trkpt lat="51.8756820" lon="39.5367410">
    <time>2017-02-11T09:07:04Z</time>
   </trkpt>
   <trkpt lat="51.8755810" lon="39.5366620">
    <time>2017-02-11T09:07:06Z</time>
   </trkpt>
   <trkpt lat="51.8752220" lon="39.5364040">
    <time>2017-02-11T09:07:16Z</time>
   </trkpt>
   <trkpt lat="51.8747470" lon="39.5361610">
    <time>2017-02-11T09:07:30Z</time>
   </trkpt>
   <trkpt lat="51.8743300" lon="39.5360120">
    <time>2017-02-11T09:07:42Z</time>
   </trkpt>
   <trkpt lat="51.8738880" lon="39.5357100">
    <time>2017-02-11T09:07:56Z</time>
   </trkpt>
   <trkpt lat="51.8738430" lon="39.5356740">
    <time>2017-02-11T09:07:57Z</time>
   </trkpt>
   <trkpt lat="51.8736050" lon="39.5352910">
    <time>2017-02-11T09:08:06Z</time>
   </trkpt>
   <trkpt lat="51.8736560" lon="39.5346560">
    <time>2017-02-11T09:08:16Z</time>
   </trkpt>
   <trkpt lat="51.8737040" lon="39.5340440">
    <time>2017-02-11T09:08:25Z</time>
   </trkpt>
   <trkpt lat="51.8739790" lon="39.5327470">
    <time>2017-02-11T09:08:46Z</time>
   </trkpt>
   <trkpt lat="51.8741350" lon="39.5317610">
    <time>2017-02-11T09:09:03Z</time>
   </trkpt>
   <trkpt lat="51.8743270" lon="39.5308030">
    <time>2017-02-11T09:09:19Z</time>
   </trkpt>
   <trkpt lat="51.8745570" lon="39.5295970">
    <time>2017-02-11T09:09:38Z</time>
   </trkpt>
   <trkpt lat="51.8746310" lon="39.5286960">
    <time>2017-02-11T09:09:53Z</time>
   </trkpt>
   <trkpt lat="51.8743260" lon="39.5278570">
    <time>2017-02-11T09:10:08Z</time>
   </trkpt>
   <trkpt lat="51.8741370" lon="39.5271480">
    <time>2017-02-11T09:10:21Z</time>
   </trkpt>
   <trkpt lat="51.8739760" lon="39.5269090">
    <time>2017-02-11T09:10:27Z</time>
   </trkpt>
   <trkpt lat="51.8734850" lon="39.5265780">
    <time>2017-02-11T09:10:41Z</time>
   </trkpt>
   <trkpt lat="51.8728470" lon="39.5260170">
    <time>2017-02-11T09:10:57Z</time>
   </trkpt>
   <trkpt lat="51.8721270" lon="39.5254560">
    <time>2017-02-11T09:11:16Z</time>
   </trkpt>
   <trkpt lat="51.8714020" lon="39.5252370">
    <time>2017-02-11T09:11:35Z</time>
   </trkpt>
   <trkpt lat="51.8706600" lon="39.5248200">
    <time>2017-02-11T09:11:55Z</time>
   </trkpt>
   <trkpt lat="51.8705370" lon="39.5247820">
    <time>2017-02-11T09:11:58Z</time>
   </trkpt>
   <trkpt lat="51.8699780" lon="39.5244790">
    <time>2017-02-11T09:12:13Z</time>
   </trkpt>
   <trkpt lat="51.8692930" lon="39.5241720">
    <time>2017-02-11T09:12:31Z</time>
   </trkpt>
   <trkpt lat="51.8685190" lon="39.5237030">
    <time>2017-02-11T09:12:52Z</time>
   </trkpt>
   <trkpt lat="51.8677770" lon="39.5234390">
    <time>2017-02-11T09:13:11Z</time>
   </trkpt>
   <trkpt lat="51.8671860" lon="39.5231480">
    <time>2017-02-11T09:13:26Z</time>
   </trkpt>
   <trkpt lat="51.8666960" lon="39.5226100">
    <time>2017-02-11T09:13:42Z</time>
   </trkpt>
   <trkpt lat="51.8663110" lon="39.5222540">
    <time>2017-02-11T09:13:55Z</time>
   </trkpt>
   <trkpt lat="51.8656030" lon="39.5219810">
    <time>2017-02-11T09:14:14Z</time>
   </trkpt>
   <trkpt lat="51.8649250" lon="39.5216550">
    <time>2017-02-11T09:14:32Z</time>
   </trkpt>
   <trkpt lat="51.8642710" lon="39.5213500">
    <time>2017-02-11T09:14:50Z</time>
   </trkpt>
   <trkpt lat="51.8636360" lon="39.5211210">
    <time>2017-02-11T09:15:07Z</time>
   </trkpt>
   <trkpt lat="51.8629970" lon="39.5208540">
    <time>2017-02-11T09:15:25Z</time>
   </trkpt>
   <trkpt lat="51.8623720" lon="39.5204580">
    <time>2017-02-11T09:15:44Z</time>
   </trkpt>
   <trkpt lat="51.8617510" lon="39.5200110">
    <time>2017-02-11T09:16:03Z</time>
   </trkpt>
   <trkpt lat="51.8610690" lon="39.5196650">
    <time>2017-02-11T09:16:25Z</time>
   </trkpt>
   <trkpt lat="51.8610320" lon="39.5196340">
    <time>2017-02-11T09:16:31Z</time>
   </trkpt>
   <trkpt lat="51.8609930" lon="39.5196160">
    <time>2017-02-11T09:17:19Z</time>
   </trkpt>
   <trkpt lat="51.8604620" lon="39.5193430">
    <time>2017-02-11T09:17:37Z</time>
   </trkpt>
   <trkpt lat="51.8596950" lon="39.5190280">
    <time>2017-02-11T09:18:01Z</time>
   </trkpt>
   <trkpt lat="51.8590240" lon="39.5187290">
    <time>2017-02-11T09:18:22Z</time>
   </trkpt>
   <trkpt lat="51.8584500" lon="39.5184760">
    <time>2017-02-11T09:18:39Z</time>
   </trkpt>
   <trkpt lat="51.8577930" lon="39.5181410">
    <time>2017-02-11T09:18:57Z</time>
   </trkpt>
   <trkpt lat="51.8574610" lon="39.5179590">
    <time>2017-02-11T09:19:09Z</time>
   </trkpt>
   <trkpt lat="51.8574540" lon="39.5179550">
    <time>2017-02-11T09:19:12Z</time>
   </trkpt>
   <trkpt lat="51.8574090" lon="39.5179320">
    <time>2017-02-11T09:19:16Z</time>
   </trkpt>
   <trkpt lat="51.8569400" lon="39.5176370">
    <time>2017-02-11T09:19:34Z</time>
   </trkpt>
   <trkpt lat="51.8562370" lon="39.5172860">
    <time>2017-02-11T09:19:54Z</time>
   </trkpt>
   <trkpt lat="51.8554690" lon="39.5168890">
    <time>2017-02-11T09:20:16Z</time>
   </trkpt>
   <trkpt lat="51.8548380" lon="39.5166010">
    <time>2017-02-11T09:20:36Z</time>
   </trkpt>
   <trkpt lat="51.8542790" lon="39.5162750">
    <time>2017-02-11T09:20:51Z</time>
   </trkpt>
   <trkpt lat="51.8536120" lon="39.5159440">
    <time>2017-02-11T09:21:11Z</time>
   </trkpt>
   <trkpt lat="51.8529980" lon="39.5156470">
    <time>2017-02-11T09:21:29Z</time>
   </trkpt>
   <trkpt lat="51.8522520" lon="39.5152830">
    <time>2017-02-11T09:21:51Z</time>
   </trkpt>
   <trkpt lat="51.8520140" lon="39.5151750">
    <time>2017-02-11T09:21:56Z</time>
   </trkpt>
   <trkpt lat="51.8514810" lon="39.5149250">
    <time>2017-02-11T09:22:12Z</time>
   </trkpt>
   <trkpt lat="51.8507770" lon="39.5145640">
    <time>2017-02-11T09:22:33Z</time>
   </trkpt>
   <trkpt lat="51.8502600" lon="39.5142900">
    <time>2017-02-11T09:22:49Z</time>
   </trkpt>
   <trkpt lat="51.8495150" lon="39.5139330">
    <time>2017-02-11T09:23:11Z</time>
   </trkpt>
   <trkpt lat="51.8487420" lon="39.5135370">
    <time>2017-02-11T09:23:33Z</time>
   </trkpt>
   <trkpt lat="51.8482880" lon="39.5133030">
    <time>2017-02-11T09:23:47Z</time>
   </trkpt>
   <trkpt lat="51.8477140" lon="39.5129940">
    <time>2017-02-11T09:24:06Z</time>
   </trkpt>
   <trkpt lat="51.8476700" lon="39.5129580">
    <time>2017-02-11T09:24:16Z</time>
   </trkpt>
   <trkpt lat="51.8476510" lon="39.5128810">
    <time>2017-02-11T09:25:18Z</time>
   </trkpt>
   <trkpt lat="51.8476360" lon="39.5128230">
    <time>2017-02-11T09:25:20Z</time>
   </trkpt>
   <trkpt lat="51.8476310" lon="39.5127890">
    <time>2017-02-11T09:25:21Z</time>
   </trkpt>
   <trkpt lat="51.8476280" lon="39.5127520">
    <time>2017-02-11T09:25:22Z</time>
   </trkpt>
   <trkpt lat="51.8476280" lon="39.5127140">
    <time>2017-02-11T09:25:23Z</time>
   </trkpt>
   <trkpt lat="51.8476290" lon="39.5126720">
    <time>2017-02-11T09:25:24Z</time>
   </trkpt>
   <trkpt lat="51.8477760" lon="39.5119900">
    <time>2017-02-11T09:25:38Z</time>
   </trkpt>
   <trkpt lat="51.8479000" lon="39.5113690">
    <time>2017-02-11T09:25:52Z</time>
   </trkpt>
   <trkpt lat="51.8480270" lon="39.5107390">
    <time>2017-02-11T09:26:04Z</time>
   </trkpt>
   <trkpt lat="51.8481460" lon="39.5100950">
    <time>2017-02-11T09:26:15Z</time>
   </trkpt>
   <trkpt lat="51.8482710" lon="39.5094260">
    <time>2017-02-11T09:26:27Z</time>
   </trkpt>
   <trkpt lat="51.8483350" lon="39.5085850">
    <time>2017-02-11T09:26:40Z</time>
   </trkpt>
   <trkpt lat="51.8485360" lon="39.5077960">
    <time>2017-02-11T09:26:54Z</time>
   </trkpt>
   <trkpt lat="51.8487840" lon="39.5069900">
    <time>2017-02-11T09:27:07Z</time>
   </trkpt>
   <trkpt lat="51.8487800" lon="39.5061660">
    <time>2017-02-11T09:27:20Z</time>
   </trkpt>
   <trkpt lat="51.8486860" lon="39.5053450">
    <time>2017-02-11T09:27:33Z</time>
   </trkpt>
   <trkpt lat="51.8488630" lon="39.5042140">
    <time>2017-02-11T09:27:51Z</time>
   </trkpt>
   <trkpt lat="51.8492250" lon="39.5035430">
    <time>2017-02-11T09:28:05Z</time>
   </trkpt>
   <trkpt lat="51.8495150" lon="39.5028370">
    <time>2017-02-11T09:28:19Z</time>
   </trkpt>
   <trkpt lat="51.8496920" lon="39.5020120">
    <time>2017-02-11T09:28:32Z</time>
   </trkpt>
   <trkpt lat="51.8498380" lon="39.5011730">
    <time>2017-02-11T09:28:45Z</time>
   </trkpt>
   <trkpt lat="51.8500100" lon="39.5001640">
    <time>2017-02-11T09:29:01Z</time>
   </trkpt>
   <trkpt lat="51.8501890" lon="39.4993170">
    <time>2017-02-11T09:29:15Z</time>
   </trkpt>
   <trkpt lat="51.8503280" lon="39.4984300">
    <time>2017-02-11T09:29:31Z</time>
   </trkpt>
   <trkpt lat="51.8504590" lon="39.4977520">
    <time>2017-02-11T09:29:44Z</time>
   </trkpt>
   <trkpt lat="51.8505740" lon="39.4971810">
    <time>2017-02-11T09:29:56Z</time>
   </trkpt>
   <trkpt lat="51.8506410" lon="39.4968600">
    <time>2017-02-11T09:30:07Z</time>
   </trkpt>
   <trkpt lat="51.8507480" lon="39.4964290">
    <time>2017-02-11T09:30:21Z</time>
   </trkpt>
   <trkpt lat="51.8508960" lon="39.4957560">
    <time>2017-02-11T09:30:32Z</time>
   </trkpt>
   <trkpt lat="51.8510320" lon="39.4949970">
    <time>2017-02-11T09:30:44Z</time>
   </trkpt>
   <trkpt lat="51.8511800" lon="39.4941910">
    <time>2017-02-11T09:30:58Z</time>
   </trkpt>
   <trkpt lat="51.8513910" lon="39.4931550">
    <time>2017-02-11T09:31:14Z</time>
   </trkpt>
   <trkpt lat="51.8515330" lon="39.4925150">
    <time>2017-02-11T09:31:26Z</time>
   </trkpt>
   <trkpt lat="51.8516660" lon="39.4918390">
    <time>2017-02-11T09:31:39Z</time>
   </trkpt>
   <trkpt lat="51.8518050" lon="39.4911080">
    <time>2017-02-11T09:31:51Z</time>
   </trkpt>
   <trkpt lat="51.8519750" lon="39.4902340">
    <time>2017-02-11T09:32:05Z</time>
   </trkpt>
   <trkpt lat="51.8521150" lon="39.4895530">
    <time>2017-02-11T09:32:17Z</time>
   </trkpt>
   <trkpt lat="51.8522230" lon="39.4888120">
    <time>2017-02-11T09:32:29Z</time>
   </trkpt>
   <trkpt lat="51.8523810" lon="39.4880320">
    <time>2017-02-11T09:32:42Z</time>
   </trkpt>
   <trkpt lat="51.8525480" lon="39.4872860">
    <time>2017-02-11T09:32:55Z</time>
   </trkpt>
   <trkpt lat="51.8527120" lon="39.4864900">
    <time>2017-02-11T09:33:08Z</time>
   </trkpt>
   <trkpt lat="51.8528220" lon="39.4859570">
    <time>2017-02-11T09:33:19Z</time>
   </trkpt>
   <trkpt lat="51.8529940" lon="39.4851390">
    <time>2017-02-11T09:33:32Z</time>
   </trkpt>
   <trkpt lat="51.8531020" lon="39.4845900">
    <time>2017-02-11T09:33:43Z</time>
   </trkpt>
   <trkpt lat="51.8531280" lon="39.4835830">
    <time>2017-02-11T09:34:00Z</time>
   </trkpt>
   <trkpt lat="51.8527060" lon="39.4832850">
    <time>2017-02-11T09:34:13Z</time>
   </trkpt>
   <trkpt lat="51.8522310" lon="39.4830610">
    <time>2017-02-11T09:34:27Z</time>
   </trkpt>
   <trkpt lat="51.8520630" lon="39.4827460">
    <time>2017-02-11T09:34:39Z</time>
   </trkpt>
   <trkpt lat="51.8520030" lon="39.4821670">
    <time>2017-02-11T09:34:50Z</time>
   </trkpt>
   <trkpt lat="51.8519830" lon="39.4814960">
    <time>2017-02-11T09:35:00Z</time>
   </trkpt>
   <trkpt lat="51.8520640" lon="39.4810660">
    <time>2017-02-11T09:35:06Z</time>
   </trkpt>
   <trkpt lat="51.8520840" lon="39.4809940">
    <time>2017-02-11T09:35:07Z</time>
   </trkpt>
   <trkpt lat="51.8521020" lon="39.4809100">
    <time>2017-02-11T09:35:08Z</time>
   </trkpt>
   <trkpt lat="51.8521620" lon="39.4806700">
    <time>2017-02-11T09:35:11Z</time>
   </trkpt>
   <trkpt lat="51.8521890" lon="39.4805940">
    <time>2017-02-11T09:35:12Z</time>
   </trkpt>
   <trkpt lat="51.8522940" lon="39.4801440">
    <time>2017-02-11T09:35:18Z</time>
   </trkpt>
   <trkpt lat="51.8523570" lon="39.4794230">
    <time>2017-02-11T09:35:29Z</time>
   </trkpt>
   <trkpt lat="51.8524020" lon="39.4782020">
    <time>2017-02-11T09:35:45Z</time>
   </trkpt>
   <trkpt lat="51.8526970" lon="39.4769760">
    <time>2017-02-11T09:36:05Z</time>
   </trkpt>
   <trkpt lat="51.8532060" lon="39.4757790">
    <time>2017-02-11T09:36:26Z</time>
   </trkpt>
   <trkpt lat="51.8535970" lon="39.4750190">
    <time>2017-02-11T09:36:40Z</time>
   </trkpt>
   <trkpt lat="51.8538260" lon="39.4741740">
    <time>2017-02-11T09:36:54Z</time>
   </trkpt>
   <trkpt lat="51.8538660" lon="39.4734190">
    <time>2017-02-11T09:37:05Z</time>
   </trkpt>
   <trkpt lat="51.8538800" lon="39.4723870">
    <time>2017-02-11T09:37:19Z</time>
   </trkpt>
   <trkpt lat="51.8537560" lon="39.4715740">
    <time>2017-02-11T09:37:31Z</time>
   </trkpt>
   <trkpt lat="51.8537400" lon="39.4715080">
    <time>2017-02-11T09:37:32Z</time>
   </trkpt>
   <trkpt lat="51.8537290" lon="39.4714450">
    <time>2017-02-11T09:37:33Z</time>
   </trkpt>
   <trkpt lat="51.8537190" lon="39.4713800">
    <time>2017-02-11T09:37:34Z</time>
   </trkpt>
   <trkpt lat="51.8537130" lon="39.4713120">
    <time>2017-02-11T09:37:35Z</time>
   </trkpt>
   <trkpt lat="51.8537000" lon="39.4712430">
    <time>2017-02-11T09:37:36Z</time>
   </trkpt>
   <trkpt lat="51.8536900" lon="39.4711710">
    <time>2017-02-11T09:37:37Z</time>
   </trkpt>
   <trkpt lat="51.8536860" lon="39.4711000">
    <time>2017-02-11T09:37:38Z</time>
   </trkpt>
   <trkpt lat="51.8536610" lon="39.4701960">
    <time>2017-02-11T09:37:51Z</time>
   </trkpt>
   <trkpt lat="51.8537340" lon="39.4691830">
    <time>2017-02-11T09:38:04Z</time>
   </trkpt>
   <trkpt lat="51.8537450" lon="39.4690930">
    <time>2017-02-11T09:38:05Z</time>
   </trkpt>
   <trkpt lat="51.8538310" lon="39.4680650">
    <time>2017-02-11T09:38:18Z</time>
   </trkpt>
   <trkpt lat="51.8537660" lon="39.4669790">
    <time>2017-02-11T09:38:33Z</time>
   </trkpt>
   <trkpt lat="51.8537350" lon="39.4661240">
    <time>2017-02-11T09:38:47Z</time>
   </trkpt>
   <trkpt lat="51.8538400" lon="39.4652800">
    <time>2017-02-11T09:39:00Z</time>
   </trkpt>
   <trkpt lat="51.8540380" lon="39.4645960">
    <time>2017-02-11T09:39:12Z</time>
   </trkpt>
   <trkpt lat="51.8542200" lon="39.4634820">
    <time>2017-02-11T09:39:29Z</time>
   </trkpt>
   <trkpt lat="51.8541350" lon="39.4625530">
    <time>2017-02-11T09:39:45Z</time>
   </trkpt>
   <trkpt lat="51.8539560" lon="39.4616210">
    <time>2017-02-11T09:40:00Z</time>
   </trkpt>
   <trkpt lat="51.8538040" lon="39.4604860">
    <time>2017-02-11T09:40:17Z</time>
   </trkpt>
   <trkpt lat="51.8539320" lon="39.4599740">
    <time>2017-02-11T09:40:28Z</time>
   </trkpt>
   <trkpt lat="51.8541010" lon="39.4592060">
    <time>2017-02-11T09:40:43Z</time>
   </trkpt>
   <trkpt lat="51.8540640" lon="39.4585660">
    <time>2017-02-11T09:40:56Z</time>
   </trkpt>
   <trkpt lat="51.8540530" lon="39.4585170">
    <time>2017-02-11T09:41:01Z</time>
   </trkpt>
   <trkpt lat="51.8539330" lon="39.4582740">
    <time>2017-02-11T10:00:32Z</time>
   </trkpt>
   <trkpt lat="51.8539180" lon="39.4582300">
    <time>2017-02-11T10:00:33Z</time>
   </trkpt>
   <trkpt lat="51.8537920" lon="39.4577910">
    <time>2017-02-11T10:00:39Z</time>
   </trkpt>
   <trkpt lat="51.8537760" lon="39.4577080">
    <time>2017-02-11T10:00:40Z</time>
   </trkpt>
   <trkpt lat="51.8537570" lon="39.4575420">
    <time>2017-02-11T10:00:42Z</time>
   </trkpt>
   <trkpt lat="51.8537520" lon="39.4573950">
    <time>2017-02-11T10:00:44Z</time>
   </trkpt>
   <trkpt lat="51.8537560" lon="39.4573260">
    <time>2017-02-11T10:00:45Z</time>
   </trkpt>
   <trkpt lat="51.8537850" lon="39.4571350">
    <time>2017-02-11T10:00:48Z</time>
   </trkpt>
   <trkpt lat="51.8538060" lon="39.4570700">
    <time>2017-02-11T10:00:49Z</time>
   </trkpt>
   <trkpt lat="51.8538310" lon="39.4570070">
    <time>2017-02-11T10:00:50Z</time>
   </trkpt>
   <trkpt lat="51.8538550" lon="39.4569410">
    <time>2017-02-11T10:00:51Z</time>
   </trkpt>
   <trkpt lat="51.8538750" lon="39.4568750">
    <time>2017-02-11T10:00:52Z</time>
   </trkpt>
   <trkpt lat="51.8540510" lon="39.4563100">
    <time>2017-02-11T10:01:03Z</time>
   </trkpt>
   <trkpt lat="51.8541090" lon="39.4559890">
    <time>2017-02-11T10:01:15Z</time>
   </trkpt>
   <trkpt lat="51.8542290" lon="39.4553240">
    <time>2017-02-11T10:01:28Z</time>
   </trkpt>
   <trkpt lat="51.8544020" lon="39.4545100">
    <time>2017-02-11T10:01:40Z</time>
   </trkpt>
   <trkpt lat="51.8544170" lon="39.4544260">
    <time>2017-02-11T10:01:41Z</time>
   </trkpt>
   <trkpt lat="51.8544400" lon="39.4542480">
    <time>2017-02-11T10:01:43Z</time>
   </trkpt>
   <trkpt lat="51.8545860" lon="39.4535410">
    <time>2017-02-11T10:01:55Z</time>
   </trkpt>
   <trkpt lat="51.8548540" lon="39.4529800">
    <time>2017-02-11T10:02:07Z</time>
   </trkpt>
   <trkpt lat="51.8551840" lon="39.4524190">
    <time>2017-02-11T10:02:21Z</time>
   </trkpt>
   <trkpt lat="51.8551890" lon="39.4522850">
    <time>2017-02-11T10:02:25Z</time>
   </trkpt>
   <trkpt lat="51.8551770" lon="39.4522570">
    <time>2017-02-11T10:02:26Z</time>
   </trkpt>
   <trkpt lat="51.8551610" lon="39.4522300">
    <time>2017-02-11T10:02:27Z</time>
   </trkpt>
   <trkpt lat="51.8551410" lon="39.4522050">
    <time>2017-02-11T10:02:28Z</time>
   </trkpt>
   <trkpt lat="51.8551180" lon="39.4521810">
    <time>2017-02-11T10:02:29Z</time>
   </trkpt>
   <trkpt lat="51.8550920" lon="39.4521540">
    <time>2017-02-11T10:02:30Z</time>
   </trkpt>
   <trkpt lat="51.8550630" lon="39.4521200">
    <time>2017-02-11T10:02:31Z</time>
   </trkpt>
   <trkpt lat="51.8550380" lon="39.4520780">
    <time>2017-02-11T10:02:32Z</time>
   </trkpt>
   <trkpt lat="51.8550200" lon="39.4520280">
    <time>2017-02-11T10:02:33Z</time>
   </trkpt>
   <trkpt lat="51.8550090" lon="39.4519700">
    <time>2017-02-11T10:02:34Z</time>
   </trkpt>
   <trkpt lat="51.8550070" lon="39.4519070">
    <time>2017-02-11T10:02:35Z</time>
   </trkpt>
   <trkpt lat="51.8550110" lon="39.4518440">
    <time>2017-02-11T10:02:36Z</time>
   </trkpt>
   <trkpt lat="51.8550210" lon="39.4517720">
    <time>2017-02-11T10:02:37Z</time>
   </trkpt>
   <trkpt lat="51.8550710" lon="39.4515740">
    <time>2017-02-11T10:02:40Z</time>
   </trkpt>
   <trkpt lat="51.8552260" lon="39.4513490">
    <time>2017-02-11T10:02:45Z</time>
   </trkpt>
   <trkpt lat="51.8555440" lon="39.4509760">
    <time>2017-02-11T10:02:58Z</time>
   </trkpt>
   <trkpt lat="51.8555930" lon="39.4500970">
    <time>2017-02-11T10:03:10Z</time>
   </trkpt>
   <trkpt lat="51.8556130" lon="39.4498040">
    <time>2017-02-11T10:03:14Z</time>
   </trkpt>
   <trkpt lat="51.8556150" lon="39.4488040">
    <time>2017-02-11T10:03:26Z</time>
   </trkpt>
   <trkpt lat="51.8556560" lon="39.4477000">
    <time>2017-02-11T10:03:40Z</time>
   </trkpt>
   <trkpt lat="51.8556620" lon="39.4476330">
    <time>2017-02-11T10:03:41Z</time>
   </trkpt>
   <trkpt lat="51.8556880" lon="39.4470340">
    <time>2017-02-11T10:03:48Z</time>
   </trkpt>
   <trkpt lat="51.8556940" lon="39.4463280">
    <time>2017-02-11T10:03:56Z</time>
   </trkpt>
   <trkpt lat="51.8557090" lon="39.4456040">
    <time>2017-02-11T10:04:06Z</time>
   </trkpt>
   <trkpt lat="51.8556910" lon="39.4449910">
    <time>2017-02-11T10:04:14Z</time>
   </trkpt>
   <trkpt lat="51.8557240" lon="39.4438010">
    <time>2017-02-11T10:04:28Z</time>
   </trkpt>
   <trkpt lat="51.8557240" lon="39.4436520">
    <time>2017-02-11T10:04:30Z</time>
   </trkpt>
   <trkpt lat="51.8557120" lon="39.4432620">
    <time>2017-02-11T10:04:35Z</time>
   </trkpt>
   <trkpt lat="51.8557370" lon="39.4423850">
    <time>2017-02-11T10:04:47Z</time>
   </trkpt>
   <trkpt lat="51.8557460" lon="39.4415170">
    <time>2017-02-11T10:04:58Z</time>
   </trkpt>
   <trkpt lat="51.8557530" lon="39.4408830">
    <time>2017-02-11T10:05:06Z</time>
   </trkpt>
   <trkpt lat="51.8557770" lon="39.4403650">
    <time>2017-02-11T10:05:12Z</time>
   </trkpt>
   <trkpt lat="51.8557930" lon="39.4399490">
    <time>2017-02-11T10:05:17Z</time>
   </trkpt>
   <trkpt lat="51.8558010" lon="39.4396890">
    <time>2017-02-11T10:05:20Z</time>
   </trkpt>
   <trkpt lat="51.8557990" lon="39.4389080">
    <time>2017-02-11T10:05:30Z</time>
   </trkpt>
   <trkpt lat="51.8557880" lon="39.4380270">
    <time>2017-02-11T10:05:43Z</time>
   </trkpt>
   <trkpt lat="51.8557950" lon="39.4373320">
    <time>2017-02-11T10:05:55Z</time>
   </trkpt>
   <trkpt lat="51.8558010" lon="39.4366100">
    <time>2017-02-11T10:06:05Z</time>
   </trkpt>
   <trkpt lat="51.8558350" lon="39.4358550">
    <time>2017-02-11T10:06:16Z</time>
   </trkpt>
   <trkpt lat="51.8558700" lon="39.4351190">
    <time>2017-02-11T10:06:27Z</time>
   </trkpt>
   <trkpt lat="51.8558760" lon="39.4342550">
    <time>2017-02-11T10:06:39Z</time>
   </trkpt>
   <trkpt lat="51.8558870" lon="39.4334570">
    <time>2017-02-11T10:06:50Z</time>
   </trkpt>
   <trkpt lat="51.8559040" lon="39.4325690">
    <time>2017-02-11T10:07:02Z</time>
   </trkpt>
   <trkpt lat="51.8558770" lon="39.4319280">
    <time>2017-02-11T10:07:11Z</time>
   </trkpt>
   <trkpt lat="51.8554010" lon="39.4312990">
    <time>2017-02-11T10:07:24Z</time>
   </trkpt>
   <trkpt lat="51.8548410" lon="39.4307080">
    <time>2017-02-11T10:07:35Z</time>
   </trkpt>
   <trkpt lat="51.8540680" lon="39.4300800">
    <time>2017-02-11T10:07:51Z</time>
   </trkpt>
   <trkpt lat="51.8539350" lon="39.4299790">
    <time>2017-02-11T10:07:54Z</time>
   </trkpt>
   <trkpt lat="51.8537710" lon="39.4298700">
    <time>2017-02-11T10:07:58Z</time>
   </trkpt>
   <trkpt lat="51.8530550" lon="39.4295920">
    <time>2017-02-11T10:08:11Z</time>
   </trkpt>
   <trkpt lat="51.8527870" lon="39.4295020">
    <time>2017-02-11T10:08:16Z</time>
   </trkpt>
   <trkpt lat="51.8519950" lon="39.4291650">
    <time>2017-02-11T10:08:32Z</time>
   </trkpt>
   <trkpt lat="51.8516570" lon="39.4290920">
    <time>2017-02-11T10:08:42Z</time>
   </trkpt>
   <trkpt lat="51.8513170" lon="39.4289550">
    <time>2017-02-11T10:08:50Z</time>
   </trkpt>
   <trkpt lat="51.8507310" lon="39.4287610">
    <time>2017-02-11T10:09:02Z</time>
   </trkpt>
   <trkpt lat="51.8501470" lon="39.4285270">
    <time>2017-02-11T10:09:15Z</time>
   </trkpt>
   <trkpt lat="51.8497030" lon="39.4283490">
    <time>2017-02-11T10:09:25Z</time>
   </trkpt>
   <trkpt lat="51.8491860" lon="39.4281180">
    <time>2017-02-11T10:09:37Z</time>
   </trkpt>
   <trkpt lat="51.8486550" lon="39.4279220">
    <time>2017-02-11T10:09:49Z</time>
   </trkpt>
   <trkpt lat="51.8481170" lon="39.4276650">
    <time>2017-02-11T10:10:03Z</time>
   </trkpt>
   <trkpt lat="51.8476600" lon="39.4274580">
    <time>2017-02-11T10:10:14Z</time>
   </trkpt>
   <trkpt lat="51.8471320" lon="39.4271830">
    <time>2017-02-11T10:10:27Z</time>
   </trkpt>
   <trkpt lat="51.8466340" lon="39.4268810">
    <time>2017-02-11T10:10:39Z</time>
   </trkpt>
   <trkpt lat="51.8465210" lon="39.4263630">
    <time>2017-02-11T10:10:49Z</time>
   </trkpt>
   <trkpt lat="51.8465070" lon="39.4261330">
    <time>2017-02-11T10:10:52Z</time>
   </trkpt>
   <trkpt lat="51.8464920" lon="39.4254560">
    <time>2017-02-11T10:11:01Z</time>
   </trkpt>
   <trkpt lat="51.8464940" lon="39.4252910">
    <time>2017-02-11T10:11:03Z</time>
   </trkpt>
   <trkpt lat="51.8465000" lon="39.4244110">
    <time>2017-02-11T10:11:14Z</time>
   </trkpt>
   <trkpt lat="51.8464990" lon="39.4242470">
    <time>2017-02-11T10:11:16Z</time>
   </trkpt>
   <trkpt lat="51.8465040" lon="39.4240560">
    <time>2017-02-11T10:11:18Z</time>
   </trkpt>
   <trkpt lat="51.8464950" lon="39.4237410">
    <time>2017-02-11T10:11:22Z</time>
   </trkpt>
   <trkpt lat="51.8465080" lon="39.4230880">
    <time>2017-02-11T10:11:31Z</time>
   </trkpt>
   <trkpt lat="51.8465030" lon="39.4222720">
    <time>2017-02-11T10:11:42Z</time>
   </trkpt>
   <trkpt lat="51.8464730" lon="39.4215510">
    <time>2017-02-11T10:11:53Z</time>
   </trkpt>
   <trkpt lat="51.8464740" lon="39.4206590">
    <time>2017-02-11T10:12:05Z</time>
   </trkpt>
   <trkpt lat="51.8464880" lon="39.4200850">
    <time>2017-02-11T10:12:13Z</time>
   </trkpt>
   <trkpt lat="51.8464990" lon="39.4194350">
    <time>2017-02-11T10:12:24Z</time>
   </trkpt>
   <trkpt lat="51.8464950" lon="39.4186870">
    <time>2017-02-11T10:12:36Z</time>
   </trkpt>
   <trkpt lat="51.8464680" lon="39.4181620">
    <time>2017-02-11T10:12:45Z</time>
   </trkpt>
   <trkpt lat="51.8465280" lon="39.4174490">
    <time>2017-02-11T10:12:55Z</time>
   </trkpt>
   <trkpt lat="51.8465320" lon="39.4167930">
    <time>2017-02-11T10:13:05Z</time>
   </trkpt>
   <trkpt lat="51.8465590" lon="39.4158770">
    <time>2017-02-11T10:13:16Z</time>
   </trkpt>
   <trkpt lat="51.8465570" lon="39.4158190">
    <time>2017-02-11T10:13:17Z</time>
   </trkpt>
   <trkpt lat="51.8465500" lon="39.4150460">
    <time>2017-02-11T10:13:28Z</time>
   </trkpt>
   <trkpt lat="51.8465590" lon="39.4144220">
    <time>2017-02-11T10:13:41Z</time>
   </trkpt>
   <trkpt lat="51.8465490" lon="39.4143700">
    <time>2017-02-11T10:13:44Z</time>
   </trkpt>
   <trkpt lat="51.8466010" lon="39.4140460">
    <time>2017-02-11T10:15:22Z</time>
   </trkpt>
   <trkpt lat="51.8465740" lon="39.4138190">
    <time>2017-02-11T10:15:26Z</time>
   </trkpt>
   <trkpt lat="51.8466040" lon="39.4126900">
    <time>2017-02-11T10:15:39Z</time>
   </trkpt>
   <trkpt lat="51.8466060" lon="39.4125040">
    <time>2017-02-11T10:15:41Z</time>
   </trkpt>
   <trkpt lat="51.8465860" lon="39.4122170">
    <time>2017-02-11T10:15:44Z</time>
   </trkpt>
   <trkpt lat="51.8465500" lon="39.4118270">
    <time>2017-02-11T10:15:49Z</time>
   </trkpt>
   <trkpt lat="51.8466220" lon="39.4110710">
    <time>2017-02-11T10:16:01Z</time>
   </trkpt>
   <trkpt lat="51.8466090" lon="39.4103090">
    <time>2017-02-11T10:16:13Z</time>
   </trkpt>
   <trkpt lat="51.8466000" lon="39.4097720">
    <time>2017-02-11T10:16:23Z</time>
   </trkpt>
   <trkpt lat="51.8466410" lon="39.4091280">
    <time>2017-02-11T10:16:33Z</time>
   </trkpt>
   <trkpt lat="51.8466820" lon="39.4083870">
    <time>2017-02-11T10:16:45Z</time>
   </trkpt>
   <trkpt lat="51.8467030" lon="39.4077850">
    <time>2017-02-11T10:16:55Z</time>
   </trkpt>
   <trkpt lat="51.8467180" lon="39.4071140">
    <time>2017-02-11T10:17:06Z</time>
   </trkpt>
   <trkpt lat="51.8467110" lon="39.4069020">
    <time>2017-02-11T10:17:10Z</time>
   </trkpt>
   <trkpt lat="51.8467010" lon="39.4062220">
    <time>2017-02-11T10:17:20Z</time>
   </trkpt>
   <trkpt lat="51.8467320" lon="39.4057310">
    <time>2017-02-11T10:17:28Z</time>
   </trkpt>
   <trkpt lat="51.8466980" lon="39.4049870">
    <time>2017-02-11T10:17:40Z</time>
   </trkpt>
   <trkpt lat="51.8467150" lon="39.4043630">
    <time>2017-02-11T10:17:49Z</time>
   </trkpt>
   <trkpt lat="51.8467240" lon="39.4042910">
    <time>2017-02-11T10:17:50Z</time>
   </trkpt>
   <trkpt lat="51.8467460" lon="39.4036700">
    <time>2017-02-11T10:17:57Z</time>
   </trkpt>
   <trkpt lat="51.8467500" lon="39.4035810">
    <time>2017-02-11T10:17:58Z</time>
   </trkpt>
   <trkpt lat="51.8467510" lon="39.4027850">
    <time>2017-02-11T10:18:08Z</time>
   </trkpt>
   <trkpt lat="51.8467110" lon="39.4020750">
    <time>2017-02-11T10:18:18Z</time>
   </trkpt>
   <trkpt lat="51.8466110" lon="39.4014870">
    <time>2017-02-11T10:18:28Z</time>
   </trkpt>
   <trkpt lat="51.8467090" lon="39.4011230">
    <time>2017-02-11T10:18:36Z</time>
   </trkpt>
   <trkpt lat="51.8468110" lon="39.4003840">
    <time>2017-02-11T10:18:49Z</time>
   </trkpt>
   <trkpt lat="51.8468020" lon="39.3999760">
    <time>2017-02-11T10:18:56Z</time>
   </trkpt>
   <trkpt lat="51.8468000" lon="39.3996800">
    <time>2017-02-11T10:19:01Z</time>
   </trkpt>
   <trkpt lat="51.8468210" lon="39.3991550">
    <time>2017-02-11T10:19:07Z</time>
   </trkpt>
   <trkpt lat="51.8468390" lon="39.3983310">
    <time>2017-02-11T10:19:18Z</time>
   </trkpt>
   <trkpt lat="51.8468620" lon="39.3975660">
    <time>2017-02-11T10:19:29Z</time>
   </trkpt>
   <trkpt lat="51.8468870" lon="39.3968740">
    <time>2017-02-11T10:19:38Z</time>
   </trkpt>
   <trkpt lat="51.8468880" lon="39.3964430">
    <time>2017-02-11T10:19:43Z</time>
   </trkpt>
   <trkpt lat="51.8469020" lon="39.3960560">
    <time>2017-02-11T10:19:47Z</time>
   </trkpt>
   <trkpt lat="51.8468990" lon="39.3958140">
    <time>2017-02-11T10:19:50Z</time>
   </trkpt>
   <trkpt lat="51.8469140" lon="39.3950580">
    <time>2017-02-11T10:20:01Z</time>
   </trkpt>
   <trkpt lat="51.8469290" lon="39.3943230">
    <time>2017-02-11T10:20:11Z</time>
   </trkpt>
   <trkpt lat="51.8469310" lon="39.3937820">
    <time>2017-02-11T10:20:20Z</time>
   </trkpt>
   <trkpt lat="51.8469380" lon="39.3937290">
    <time>2017-02-11T10:20:21Z</time>
   </trkpt>
   <trkpt lat="51.8469530" lon="39.3931360">
    <time>2017-02-11T10:20:31Z</time>
   </trkpt>
   <trkpt lat="51.8468940" lon="39.3928750">
    <time>2017-02-11T10:20:37Z</time>
   </trkpt>
   <trkpt lat="51.8468740" lon="39.3928510">
    <time>2017-02-11T10:20:38Z</time>
   </trkpt>
   <trkpt lat="51.8468510" lon="39.3928270">
    <time>2017-02-11T10:20:39Z</time>
   </trkpt>
   <trkpt lat="51.8468280" lon="39.3928090">
    <time>2017-02-11T10:20:40Z</time>
   </trkpt>
   <trkpt lat="51.8468020" lon="39.3927880">
    <time>2017-02-11T10:20:41Z</time>
   </trkpt>
   <trkpt lat="51.8467690" lon="39.3927700">
    <time>2017-02-11T10:20:42Z</time>
   </trkpt>
   <trkpt lat="51.8467290" lon="39.3927500">
    <time>2017-02-11T10:20:43Z</time>
   </trkpt>
   <trkpt lat="51.8466890" lon="39.3927210">
    <time>2017-02-11T10:20:44Z</time>
   </trkpt>
   <trkpt lat="51.8463810" lon="39.3925760">
    <time>2017-02-11T10:20:51Z</time>
   </trkpt>
   <trkpt lat="51.8463380" lon="39.3925650">
    <time>2017-02-11T10:20:52Z</time>
   </trkpt>
   <trkpt lat="51.8463060" lon="39.3925520">
    <time>2017-02-11T10:20:53Z</time>
   </trkpt>
   <trkpt lat="51.8462700" lon="39.3925510">
    <time>2017-02-11T10:20:54Z</time>
   </trkpt>
   <trkpt lat="51.8462360" lon="39.3925550">
    <time>2017-02-11T10:20:55Z</time>
   </trkpt>
   <trkpt lat="51.8462060" lon="39.3925640">
    <time>2017-02-11T10:20:56Z</time>
   </trkpt>
   <trkpt lat="51.8461790" lon="39.3925740">
    <time>2017-02-11T10:20:57Z</time>
   </trkpt>
   <trkpt lat="51.8457520" lon="39.3926650">
    <time>2017-02-11T10:21:10Z</time>
   </trkpt>
   <trkpt lat="51.8452090" lon="39.3926940">
    <time>2017-02-11T10:21:23Z</time>
   </trkpt>
   <trkpt lat="51.8448840" lon="39.3928200">
    <time>2017-02-11T10:21:32Z</time>
   </trkpt>
   <trkpt lat="51.8445490" lon="39.3929340">
    <time>2017-02-11T10:21:42Z</time>
   </trkpt>
   <trkpt lat="51.8442290" lon="39.3930140">
    <time>2017-02-11T10:21:51Z</time>
   </trkpt>
   <trkpt lat="51.8438100" lon="39.3930610">
    <time>2017-02-11T10:22:01Z</time>
   </trkpt>
   <trkpt lat="51.8433130" lon="39.3929730">
    <time>2017-02-11T10:22:12Z</time>
   </trkpt>
   <trkpt lat="51.8431940" lon="39.3929230">
    <time>2017-02-11T10:22:14Z</time>
   </trkpt>
   <trkpt lat="51.8431290" lon="39.3928970">
    <time>2017-02-11T10:22:15Z</time>
   </trkpt>
   <trkpt lat="51.8430630" lon="39.3928650">
    <time>2017-02-11T10:22:16Z</time>
   </trkpt>
   <trkpt lat="51.8429430" lon="39.3928030">
    <time>2017-02-11T10:22:18Z</time>
   </trkpt>
   <trkpt lat="51.8428710" lon="39.3927820">
    <time>2017-02-11T10:22:19Z</time>
   </trkpt>
   <trkpt lat="51.8427540" lon="39.3927310">
    <time>2017-02-11T10:22:21Z</time>
   </trkpt>
   <trkpt lat="51.8422120" lon="39.3924180">
    <time>2017-02-11T10:22:32Z</time>
   </trkpt>
   <trkpt lat="51.8421640" lon="39.3923670">
    <time>2017-02-11T10:22:33Z</time>
   </trkpt>
   <trkpt lat="51.8420050" lon="39.3921540">
    <time>2017-02-11T10:22:37Z</time>
   </trkpt>
   <trkpt lat="51.8419640" lon="39.3921070">
    <time>2017-02-11T10:22:38Z</time>
   </trkpt>
   <trkpt lat="51.8419230" lon="39.3920610">
    <time>2017-02-11T10:22:39Z</time>
   </trkpt>
   <trkpt lat="51.8418790" lon="39.3920150">
    <time>2017-02-11T10:22:40Z</time>
   </trkpt>
   <trkpt lat="51.8418430" lon="39.3919710">
    <time>2017-02-11T10:22:41Z</time>
   </trkpt>
   <trkpt lat="51.8418070" lon="39.3919300">
    <time>2017-02-11T10:22:42Z</time>
   </trkpt>
   <trkpt lat="51.8417750" lon="39.3918900">
    <time>2017-02-11T10:22:43Z</time>
   </trkpt>
   <trkpt lat="51.8417440" lon="39.3918460">
    <time>2017-02-11T10:22:44Z</time>
   </trkpt>
   <trkpt lat="51.8415490" lon="39.3916340">
    <time>2017-02-11T10:22:49Z</time>
   </trkpt>
   <trkpt lat="51.8415080" lon="39.3915900">
    <time>2017-02-11T10:22:50Z</time>
   </trkpt>
   <trkpt lat="51.8414730" lon="39.3915440">
    <time>2017-02-11T10:22:51Z</time>
   </trkpt>
   <trkpt lat="51.8414360" lon="39.3915040">
    <time>2017-02-11T10:22:52Z</time>
   </trkpt>
   <trkpt lat="51.8414020" lon="39.3914640">
    <time>2017-02-11T10:22:53Z</time>
   </trkpt>
   <trkpt lat="51.8413650" lon="39.3914290">
    <time>2017-02-11T10:22:54Z</time>
   </trkpt>
   <trkpt lat="51.8413190" lon="39.3913990">
    <time>2017-02-11T10:22:55Z</time>
   </trkpt>
   <trkpt lat="51.8412730" lon="39.3913730">
    <time>2017-02-11T10:22:56Z</time>
   </trkpt>
   <trkpt lat="51.8412260" lon="39.3913540">
    <time>2017-02-11T10:22:57Z</time>
   </trkpt>
   <trkpt lat="51.8411880" lon="39.3913360">
    <time>2017-02-11T10:22:58Z</time>
   </trkpt>
   <trkpt lat="51.8411500" lon="39.3913260">
    <time>2017-02-11T10:22:59Z</time>
   </trkpt>
   <trkpt lat="51.8411140" lon="39.3913200">
    <time>2017-02-11T10:23:00Z</time>
   </trkpt>
   <trkpt lat="51.8407850" lon="39.3914120">
    <time>2017-02-11T10:23:09Z</time>
   </trkpt>
   <trkpt lat="51.8403600" lon="39.3916140">
    <time>2017-02-11T10:23:21Z</time>
   </trkpt>
   <trkpt lat="51.8398720" lon="39.3917490">
    <time>2017-02-11T10:23:31Z</time>
   </trkpt>
   <trkpt lat="51.8395380" lon="39.3918790">
    <time>2017-02-11T10:23:37Z</time>
   </trkpt>
   <trkpt lat="51.8394890" lon="39.3919010">
    <time>2017-02-11T10:23:38Z</time>
   </trkpt>
   <trkpt lat="51.8390700" lon="39.3922340">
    <time>2017-02-11T10:23:48Z</time>
   </trkpt>
   <trkpt lat="51.8386730" lon="39.3925510">
    <time>2017-02-11T10:23:59Z</time>
   </trkpt>
   <trkpt lat="51.8382090" lon="39.3925840">
    <time>2017-02-11T10:24:08Z</time>
   </trkpt>
   <trkpt lat="51.8375470" lon="39.3923900">
    <time>2017-02-11T10:24:19Z</time>
   </trkpt>
   <trkpt lat="51.8372130" lon="39.3921700">
    <time>2017-02-11T10:24:25Z</time>
   </trkpt>
   <trkpt lat="51.8370520" lon="39.3920840">
    <time>2017-02-11T10:24:28Z</time>
   </trkpt>
   <trkpt lat="51.8369900" lon="39.3920710">
    <time>2017-02-11T10:24:29Z</time>
   </trkpt>
   <trkpt lat="51.8369290" lon="39.3920580">
    <time>2017-02-11T10:24:30Z</time>
   </trkpt>
   <trkpt lat="51.8366890" lon="39.3920150">
    <time>2017-02-11T10:24:35Z</time>
   </trkpt>
   <trkpt lat="51.8365280" lon="39.3920080">
    <time>2017-02-11T10:24:38Z</time>
   </trkpt>
   <trkpt lat="51.8364740" lon="39.3920110">
    <time>2017-02-11T10:24:39Z</time>
   </trkpt>
   <trkpt lat="51.8361570" lon="39.3921200">
    <time>2017-02-11T10:24:47Z</time>
   </trkpt>
   <trkpt lat="51.8357650" lon="39.3926050">
    <time>2017-02-11T10:24:58Z</time>
   </trkpt>
   <trkpt lat="51.8357010" lon="39.3927440">
    <time>2017-02-11T10:25:00Z</time>
   </trkpt>
   <trkpt lat="51.8356210" lon="39.3929440">
    <time>2017-02-11T10:25:03Z</time>
   </trkpt>
   <trkpt lat="51.8355970" lon="39.3930190">
    <time>2017-02-11T10:25:04Z</time>
   </trkpt>
   <trkpt lat="51.8355470" lon="39.3931670">
    <time>2017-02-11T10:25:06Z</time>
   </trkpt>
   <trkpt lat="51.8354490" lon="39.3933550">
    <time>2017-02-11T10:25:09Z</time>
   </trkpt>
   <trkpt lat="51.8353310" lon="39.3935390">
    <time>2017-02-11T10:25:12Z</time>
   </trkpt>
   <trkpt lat="51.8349170" lon="39.3940230">
    <time>2017-02-11T10:25:21Z</time>
   </trkpt>
   <trkpt lat="51.8348500" lon="39.3940880">
    <time>2017-02-11T10:25:22Z</time>
   </trkpt>
   <trkpt lat="51.8346280" lon="39.3943320">
    <time>2017-02-11T10:25:26Z</time>
   </trkpt>
   <trkpt lat="51.8345870" lon="39.3944140">
    <time>2017-02-11T10:25:27Z</time>
   </trkpt>
   <trkpt lat="51.8345450" lon="39.3945040">
    <time>2017-02-11T10:25:28Z</time>
   </trkpt>
   <trkpt lat="51.8344660" lon="39.3946990">
    <time>2017-02-11T10:25:30Z</time>
   </trkpt>
   <trkpt lat="51.8344340" lon="39.3948060">
    <time>2017-02-11T10:25:31Z</time>
   </trkpt>
   <trkpt lat="51.8344070" lon="39.3949130">
    <time>2017-02-11T10:25:32Z</time>
   </trkpt>
   <trkpt lat="51.8343040" lon="39.3954330">
    <time>2017-02-11T10:25:37Z</time>
   </trkpt>
   <trkpt lat="51.8342960" lon="39.3954990">
    <time>2017-02-11T10:25:38Z</time>
   </trkpt>
   <trkpt lat="51.8343250" lon="39.3958980">
    <time>2017-02-11T10:25:44Z</time>
   </trkpt>
   <trkpt lat="51.8343760" lon="39.3962050">
    <time>2017-02-11T10:25:48Z</time>
   </trkpt>
   <trkpt lat="51.8344160" lon="39.3963530">
    <time>2017-02-11T10:25:50Z</time>
   </trkpt>
   <trkpt lat="51.8344500" lon="39.3964220">
    <time>2017-02-11T10:25:51Z</time>
   </trkpt>
   <trkpt lat="51.8344850" lon="39.3964970">
    <time>2017-02-11T10:25:52Z</time>
   </trkpt>
   <trkpt lat="51.8345220" lon="39.3965580">
    <time>2017-02-11T10:25:53Z</time>
   </trkpt>
   <trkpt lat="51.8345570" lon="39.3966250">
    <time>2017-02-11T10:25:54Z</time>
   </trkpt>
   <trkpt lat="51.8345970" lon="39.3966940">
    <time>2017-02-11T10:25:55Z</time>
   </trkpt>
   <trkpt lat="51.8346260" lon="39.3967670">
    <time>2017-02-11T10:25:56Z</time>
   </trkpt>
   <trkpt lat="51.8346490" lon="39.3968350">
    <time>2017-02-11T10:25:57Z</time>
   </trkpt>
   <trkpt lat="51.8346660" lon="39.3969040">
    <time>2017-02-11T10:25:58Z</time>
   </trkpt>
   <trkpt lat="51.8348050" lon="39.3975570">
    <time>2017-02-11T10:26:08Z</time>
   </trkpt>
   <trkpt lat="51.8348350" lon="39.3983280">
    <time>2017-02-11T10:26:19Z</time>
   </trkpt>
   <trkpt lat="51.8346100" lon="39.3989720">
    <time>2017-02-11T10:26:31Z</time>
   </trkpt>
   <trkpt lat="51.8342790" lon="39.3992130">
    <time>2017-02-11T10:26:41Z</time>
   </trkpt>
   <trkpt lat="51.8339770" lon="39.3990950">
    <time>2017-02-11T10:26:47Z</time>
   </trkpt>
   <trkpt lat="51.8339340" lon="39.3990920">
    <time>2017-02-11T10:26:48Z</time>
   </trkpt>
   <trkpt lat="51.8338580" lon="39.3991050">
    <time>2017-02-11T10:26:55Z</time>
   </trkpt>
   <trkpt lat="51.8337670" lon="39.3991830">
    <time>2017-02-11T10:27:08Z</time>
   </trkpt>
   <trkpt lat="51.8337340" lon="39.3991920">
    <time>2017-02-11T10:27:09Z</time>
   </trkpt>
   <trkpt lat="51.8336980" lon="39.3992030">
    <time>2017-02-11T10:27:10Z</time>
   </trkpt>
   <trkpt lat="51.8336650" lon="39.3992090">
    <time>2017-02-11T10:27:11Z</time>
   </trkpt>
   <trkpt lat="51.8336310" lon="39.3992180">
    <time>2017-02-11T10:27:12Z</time>
   </trkpt>
   <trkpt lat="51.8336030" lon="39.3992340">
    <time>2017-02-11T10:27:13Z</time>
   </trkpt>
   <trkpt lat="51.8335730" lon="39.3992500">
    <time>2017-02-11T10:27:14Z</time>
   </trkpt>
   <trkpt lat="51.8335370" lon="39.3992700">
    <time>2017-02-11T10:27:15Z</time>
   </trkpt>
   <trkpt lat="51.8335040" lon="39.3992880">
    <time>2017-02-11T10:27:16Z</time>
   </trkpt>
   <trkpt lat="51.8331670" lon="39.3997290">
    <time>2017-02-11T10:27:28Z</time>
   </trkpt>
   <trkpt lat="51.8328610" lon="39.4003040">
    <time>2017-02-11T10:27:41Z</time>
   </trkpt>
   <trkpt lat="51.8324530" lon="39.4007540">
    <time>2017-02-11T10:27:53Z</time>
   </trkpt>
   <trkpt lat="51.8320320" lon="39.4009660">
    <time>2017-02-11T10:28:05Z</time>
   </trkpt>
   <trkpt lat="51.8315550" lon="39.4012000">
    <time>2017-02-11T10:28:18Z</time>
   </trkpt>
   <trkpt lat="51.8310330" lon="39.4015130">
    <time>2017-02-11T10:28:30Z</time>
   </trkpt>
   <trkpt lat="51.8306800" lon="39.4016470">
    <time>2017-02-11T10:28:39Z</time>
   </trkpt>
   <trkpt lat="51.8302280" lon="39.4017880">
    <time>2017-02-11T10:28:50Z</time>
   </trkpt>
   <trkpt lat="51.8302140" lon="39.4017850">
    <time>2017-02-11T10:28:55Z</time>
   </trkpt>
   <trkpt lat="51.8300940" lon="39.4018070">
    <time>2017-02-11T10:29:13Z</time>
   </trkpt>
   <trkpt lat="51.8296060" lon="39.4020300">
    <time>2017-02-11T10:29:25Z</time>
   </trkpt>
   <trkpt lat="51.8292820" lon="39.4024460">
    <time>2017-02-11T10:29:37Z</time>
   </trkpt>
   <trkpt lat="51.8290180" lon="39.4031000">
    <time>2017-02-11T10:29:51Z</time>
   </trkpt>
   <trkpt lat="51.8288000" lon="39.4036850">
    <time>2017-02-11T10:30:04Z</time>
   </trkpt>
   <trkpt lat="51.8284800" lon="39.4040420">
    <time>2017-02-11T10:30:14Z</time>
   </trkpt>
   <trkpt lat="51.8281790" lon="39.4041180">
    <time>2017-02-11T10:30:23Z</time>
   </trkpt>
   <trkpt lat="51.8277250" lon="39.4041530">
    <time>2017-02-11T10:30:35Z</time>
   </trkpt>
   <trkpt lat="51.8273820" lon="39.4043820">
    <time>2017-02-11T10:30:46Z</time>
   </trkpt>
   <trkpt lat="51.8270720" lon="39.4047390">
    <time>2017-02-11T10:30:57Z</time>
   </trkpt>
   <trkpt lat="51.8267320" lon="39.4051340">
    <time>2017-02-11T10:31:09Z</time>
   </trkpt>
   <trkpt lat="51.8263770" lon="39.4053080">
    <time>2017-02-11T10:31:18Z</time>
   </trkpt>
   <trkpt lat="51.8258760" lon="39.4054790">
    <time>2017-02-11T10:31:29Z</time>
   </trkpt>
   <trkpt lat="51.8254440" lon="39.4055930">
    <time>2017-02-11T10:31:41Z</time>
   </trkpt>
   <trkpt lat="51.8251000" lon="39.4057010">
    <time>2017-02-11T10:31:48Z</time>
   </trkpt>
   <trkpt lat="51.8250450" lon="39.4057110">
    <time>2017-02-11T10:31:49Z</time>
   </trkpt>
   <trkpt lat="51.8249900" lon="39.4057100">
    <time>2017-02-11T10:31:50Z</time>
   </trkpt>
   <trkpt lat="51.8248770" lon="39.4057010">
    <time>2017-02-11T10:31:52Z</time>
   </trkpt>
   <trkpt lat="51.8247020" lon="39.4056730">
    <time>2017-02-11T10:31:55Z</time>
   </trkpt>
   <trkpt lat="51.8244600" lon="39.4056540">
    <time>2017-02-11T10:32:00Z</time>
   </trkpt>
   <trkpt lat="51.8239610" lon="39.4055490">
    <time>2017-02-11T10:32:12Z</time>
   </trkpt>
   <trkpt lat="51.8233280" lon="39.4053980">
    <time>2017-02-11T10:32:26Z</time>
   </trkpt>
   <trkpt lat="51.8232810" lon="39.4053860">
    <time>2017-02-11T10:32:27Z</time>
   </trkpt>
   <trkpt lat="51.8227390" lon="39.4054390">
    <time>2017-02-11T10:32:40Z</time>
   </trkpt>
   <trkpt lat="51.8223240" lon="39.4055990">
    <time>2017-02-11T10:32:52Z</time>
   </trkpt>
   <trkpt lat="51.8222640" lon="39.4056490">
    <time>2017-02-11T10:32:54Z</time>
   </trkpt>
   <trkpt lat="51.8222370" lon="39.4056780">
    <time>2017-02-11T10:32:55Z</time>
   </trkpt>
   <trkpt lat="51.8222100" lon="39.4057130">
    <time>2017-02-11T10:32:56Z</time>
   </trkpt>
   <trkpt lat="51.8221830" lon="39.4057510">
    <time>2017-02-11T10:32:57Z</time>
   </trkpt>
   <trkpt lat="51.8221460" lon="39.4057950">
    <time>2017-02-11T10:32:58Z</time>
   </trkpt>
   <trkpt lat="51.8219090" lon="39.4063720">
    <time>2017-02-11T10:33:10Z</time>
   </trkpt>
   <trkpt lat="51.8217100" lon="39.4070590">
    <time>2017-02-11T10:33:23Z</time>
   </trkpt>
   <trkpt lat="51.8217190" lon="39.4078350">
    <time>2017-02-11T10:33:37Z</time>
   </trkpt>
   <trkpt lat="51.8216960" lon="39.4086000">
    <time>2017-02-11T10:33:50Z</time>
   </trkpt>
   <trkpt lat="51.8216300" lon="39.4092440">
    <time>2017-02-11T10:34:00Z</time>
   </trkpt>
   <trkpt lat="51.8214930" lon="39.4097150">
    <time>2017-02-11T10:34:10Z</time>
   </trkpt>
   <trkpt lat="51.8214570" lon="39.4097750">
    <time>2017-02-11T10:34:12Z</time>
   </trkpt>
   <trkpt lat="51.8211970" lon="39.4099190">
    <time>2017-02-11T10:34:22Z</time>
   </trkpt>
   <trkpt lat="51.8207450" lon="39.4100370">
    <time>2017-02-11T10:34:34Z</time>
   </trkpt>
   <trkpt lat="51.8202760" lon="39.4101980">
    <time>2017-02-11T10:34:46Z</time>
   </trkpt>
   <trkpt lat="51.8198570" lon="39.4104760">
    <time>2017-02-11T10:34:58Z</time>
   </trkpt>
   <trkpt lat="51.8195850" lon="39.4107360">
    <time>2017-02-11T10:35:07Z</time>
   </trkpt>
   <trkpt lat="51.8192350" lon="39.4109610">
    <time>2017-02-11T10:35:18Z</time>
   </trkpt>
   <trkpt lat="51.8189320" lon="39.4111570">
    <time>2017-02-11T10:35:27Z</time>
   </trkpt>
   <trkpt lat="51.8185530" lon="39.4112560">
    <time>2017-02-11T10:35:37Z</time>
   </trkpt>
   <trkpt lat="51.8185160" lon="39.4112510">
    <time>2017-02-11T10:35:38Z</time>
   </trkpt>
   <trkpt lat="51.8184700" lon="39.4112520">
    <time>2017-02-11T10:35:39Z</time>
   </trkpt>
   <trkpt lat="51.8184250" lon="39.4112370">
    <time>2017-02-11T10:35:40Z</time>
   </trkpt>
   <trkpt lat="51.8183030" lon="39.4112160">
    <time>2017-02-11T10:35:42Z</time>
   </trkpt>
   <trkpt lat="51.8182450" lon="39.4111940">
    <time>2017-02-11T10:35:43Z</time>
   </trkpt>
   <trkpt lat="51.8181830" lon="39.4111730">
    <time>2017-02-11T10:35:44Z</time>
   </trkpt>
   <trkpt lat="51.8181260" lon="39.4111520">
    <time>2017-02-11T10:35:45Z</time>
   </trkpt>
   <trkpt lat="51.8180650" lon="39.4111320">
    <time>2017-02-11T10:35:46Z</time>
   </trkpt>
   <trkpt lat="51.8180070" lon="39.4111100">
    <time>2017-02-11T10:35:47Z</time>
   </trkpt>
   <trkpt lat="51.8178360" lon="39.4110490">
    <time>2017-02-11T10:35:50Z</time>
   </trkpt>
   <trkpt lat="51.8172330" lon="39.4108020">
    <time>2017-02-11T10:36:02Z</time>
   </trkpt>
   <trkpt lat="51.8167960" lon="39.4107250">
    <time>2017-02-11T10:36:12Z</time>
   </trkpt>
   <trkpt lat="51.8164920" lon="39.4107170">
    <time>2017-02-11T10:36:18Z</time>
   </trkpt>
   <trkpt lat="51.8164500" lon="39.4107270">
    <time>2017-02-11T10:36:19Z</time>
   </trkpt>
   <trkpt lat="51.8164150" lon="39.4107290">
    <time>2017-02-11T10:36:20Z</time>
   </trkpt>
   <trkpt lat="51.8163780" lon="39.4107320">
    <time>2017-02-11T10:36:21Z</time>
   </trkpt>
   <trkpt lat="51.8163400" lon="39.4107360">
    <time>2017-02-11T10:36:22Z</time>
   </trkpt>
   <trkpt lat="51.8158000" lon="39.4109340">
    <time>2017-02-11T10:36:32Z</time>
   </trkpt>
   <trkpt lat="51.8157380" lon="39.4109570">
    <time>2017-02-11T10:36:33Z</time>
   </trkpt>
   <trkpt lat="51.8156840" lon="39.4109730">
    <time>2017-02-11T10:36:34Z</time>
   </trkpt>
   <trkpt lat="51.8151190" lon="39.4111720">
    <time>2017-02-11T10:36:44Z</time>
   </trkpt>
   <trkpt lat="51.8143290" lon="39.4116280">
    <time>2017-02-11T10:37:00Z</time>
   </trkpt>
   <trkpt lat="51.8137940" lon="39.4119270">
    <time>2017-02-11T10:37:13Z</time>
   </trkpt>
   <trkpt lat="51.8131890" lon="39.4122800">
    <time>2017-02-11T10:37:27Z</time>
   </trkpt>
   <trkpt lat="51.8122170" lon="39.4126880">
    <time>2017-02-11T10:37:47Z</time>
   </trkpt>
   <trkpt lat="51.8120400" lon="39.4127620">
    <time>2017-02-11T10:37:56Z</time>
   </trkpt>
   <trkpt lat="51.8119610" lon="39.4127480">
    <time>2017-02-11T10:40:05Z</time>
   </trkpt>
   <trkpt lat="51.8119400" lon="39.4127630">
    <time>2017-02-11T10:40:06Z</time>
   </trkpt>
   <trkpt lat="51.8119150" lon="39.4127800">
    <time>2017-02-11T10:40:07Z</time>
   </trkpt>
   <trkpt lat="51.8113270" lon="39.4130750">
    <time>2017-02-11T10:40:23Z</time>
   </trkpt>
   <trkpt lat="51.8106530" lon="39.4135750">
    <time>2017-02-11T10:40:42Z</time>
   </trkpt>
   <trkpt lat="51.8104500" lon="39.4137210">
    <time>2017-02-11T10:40:51Z</time>
   </trkpt>
   <trkpt lat="51.8104520" lon="39.4137490">
    <time>2017-02-11T10:40:52Z</time>
   </trkpt>
   <trkpt lat="51.8104580" lon="39.4137790">
    <time>2017-02-11T10:40:53Z</time>
   </trkpt>
   <trkpt lat="51.8104670" lon="39.4138090">
    <time>2017-02-11T10:40:54Z</time>
   </trkpt>
   <trkpt lat="51.8104760" lon="39.4138410">
    <time>2017-02-11T10:40:55Z</time>
   </trkpt>
   <trkpt lat="51.8104820" lon="39.4138770">
    <time>2017-02-11T10:40:56Z</time>
   </trkpt>
   <trkpt lat="51.8104860" lon="39.4139040">
    <time>2017-02-11T10:40:57Z</time>
   </trkpt>
   <trkpt lat="51.8104770" lon="39.4139470">
    <time>2017-02-11T10:41:04Z</time>
   </trkpt>
   <trkpt lat="51.8104900" lon="39.4137600">
    <time>2017-02-11T10:52:09Z</time>
   </trkpt>
   <trkpt lat="51.8104800" lon="39.4137370">
    <time>2017-02-11T10:52:10Z</time>
   </trkpt>
   <trkpt lat="51.8104700" lon="39.4137080">
    <time>2017-02-11T10:52:11Z</time>
   </trkpt>
   <trkpt lat="51.8104410" lon="39.4136630">
    <time>2017-02-11T10:52:13Z</time>
   </trkpt>
   <trkpt lat="51.8104180" lon="39.4136480">
    <time>2017-02-11T10:52:14Z</time>
   </trkpt>
   <trkpt lat="51.8103910" lon="39.4136400">
    <time>2017-02-11T10:52:15Z</time>
   </trkpt>
   <trkpt lat="51.8103600" lon="39.4136410">
    <time>2017-02-11T10:52:16Z</time>
   </trkpt>
   <trkpt lat="51.8103270" lon="39.4136530">
    <time>2017-02-11T10:52:17Z</time>
   </trkpt>
   <trkpt lat="51.8102930" lon="39.4136660">
    <time>2017-02-11T10:52:18Z</time>
   </trkpt>
   <trkpt lat="51.8097820" lon="39.4137640">
    <time>2017-02-11T10:52:32Z</time>
   </trkpt>
   <trkpt lat="51.8097050" lon="39.4136240">
    <time>2017-02-11T10:52:35Z</time>
   </trkpt>
   <trkpt lat="51.8096870" lon="39.4135600">
    <time>2017-02-11T10:52:36Z</time>
   </trkpt>
   <trkpt lat="51.8096270" lon="39.4132740">
    <time>2017-02-11T10:52:40Z</time>
   </trkpt>
   <trkpt lat="51.8096030" lon="39.4132070">
    <time>2017-02-11T10:52:41Z</time>
   </trkpt>
   <trkpt lat="51.8095780" lon="39.4131460">
    <time>2017-02-11T10:52:42Z</time>
   </trkpt>
   <trkpt lat="51.8095480" lon="39.4130900">
    <time>2017-02-11T10:52:43Z</time>
   </trkpt>
   <trkpt lat="51.8095160" lon="39.4130410">
    <time>2017-02-11T10:52:44Z</time>
   </trkpt>
   <trkpt lat="51.8094820" lon="39.4130000">
    <time>2017-02-11T10:52:45Z</time>
   </trkpt>
   <trkpt lat="51.8094460" lon="39.4129660">
    <time>2017-02-11T10:52:46Z</time>
   </trkpt>
   <trkpt lat="51.8094080" lon="39.4129380">
    <time>2017-02-11T10:52:47Z</time>
   </trkpt>
   <trkpt lat="51.8093700" lon="39.4129110">
    <time>2017-02-11T10:52:48Z</time>
   </trkpt>
   <trkpt lat="51.8085820" lon="39.4126340">
    <time>2017-02-11T10:53:07Z</time>
   </trkpt>
   <trkpt lat="51.8078310" lon="39.4125080">
    <time>2017-02-11T10:53:25Z</time>
   </trkpt>
   <trkpt lat="51.8071890" lon="39.4121130">
    <time>2017-02-11T10:53:41Z</time>
   </trkpt>
   <trkpt lat="51.8064170" lon="39.4118090">
    <time>2017-02-11T10:53:55Z</time>
   </trkpt>
   <trkpt lat="51.8059820" lon="39.4116830">
    <time>2017-02-11T10:54:03Z</time>
   </trkpt>
   <trkpt lat="51.8059400" lon="39.4116530">
    <time>2017-02-11T10:54:04Z</time>
   </trkpt>
   <trkpt lat="51.8052560" lon="39.4113090">
    <time>2017-02-11T10:54:16Z</time>
   </trkpt>
   <trkpt lat="51.8047180" lon="39.4111480">
    <time>2017-02-11T10:54:26Z</time>
   </trkpt>
   <trkpt lat="51.8045260" lon="39.4110850">
    <time>2017-02-11T10:54:30Z</time>
   </trkpt>
   <trkpt lat="51.8044770" lon="39.4110780">
    <time>2017-02-11T10:54:31Z</time>
   </trkpt>
   <trkpt lat="51.8039860" lon="39.4109570">
    <time>2017-02-11T10:54:42Z</time>
   </trkpt>
   <trkpt lat="51.8034810" lon="39.4108330">
    <time>2017-02-11T10:54:55Z</time>
   </trkpt>
   <trkpt lat="51.8028470" lon="39.4106940">
    <time>2017-02-11T10:55:06Z</time>
   </trkpt>
   <trkpt lat="51.8021670" lon="39.4105050">
    <time>2017-02-11T10:55:18Z</time>
   </trkpt>
   <trkpt lat="51.8015930" lon="39.4103320">
    <time>2017-02-11T10:55:30Z</time>
   </trkpt>
   <trkpt lat="51.8010710" lon="39.4102070">
    <time>2017-02-11T10:55:44Z</time>
   </trkpt>
   <trkpt lat="51.8003410" lon="39.4100190">
    <time>2017-02-11T10:56:00Z</time>
   </trkpt>
   <trkpt lat="51.7997820" lon="39.4098430">
    <time>2017-02-11T10:56:13Z</time>
   </trkpt>
   <trkpt lat="51.7995320" lon="39.4097710">
    <time>2017-02-11T10:56:19Z</time>
   </trkpt>
   <trkpt lat="51.7994340" lon="39.4097520">
    <time>2017-02-11T10:56:21Z</time>
   </trkpt>
   <trkpt lat="51.7989710" lon="39.4096340">
    <time>2017-02-11T10:56:31Z</time>
   </trkpt>
   <trkpt lat="51.7989190" lon="39.4096150">
    <time>2017-02-11T10:56:32Z</time>
   </trkpt>
   <trkpt lat="51.7988640" lon="39.4095990">
    <time>2017-02-11T10:56:33Z</time>
   </trkpt>
   <trkpt lat="51.7982720" lon="39.4094440">
    <time>2017-02-11T10:56:44Z</time>
   </trkpt>
   <trkpt lat="51.7981180" lon="39.4094020">
    <time>2017-02-11T10:56:47Z</time>
   </trkpt>
   <trkpt lat="51.7974710" lon="39.4092210">
    <time>2017-02-11T10:56:59Z</time>
   </trkpt>
   <trkpt lat="51.7968920" lon="39.4090420">
    <time>2017-02-11T10:57:12Z</time>
   </trkpt>
   <trkpt lat="51.7963760" lon="39.4089240">
    <time>2017-02-11T10:57:23Z</time>
   </trkpt>
   <trkpt lat="51.7957020" lon="39.4087510">
    <time>2017-02-11T10:57:37Z</time>
   </trkpt>
   <trkpt lat="51.7951750" lon="39.4086040">
    <time>2017-02-11T10:57:48Z</time>
   </trkpt>
   <trkpt lat="51.7949550" lon="39.4085350">
    <time>2017-02-11T10:57:53Z</time>
   </trkpt>
   <trkpt lat="51.7945420" lon="39.4084470">
    <time>2017-02-11T10:58:02Z</time>
   </trkpt>
   <trkpt lat="51.7941960" lon="39.4083750">
    <time>2017-02-11T10:58:09Z</time>
   </trkpt>
   <trkpt lat="51.7941490" lon="39.4083630">
    <time>2017-02-11T10:58:10Z</time>
   </trkpt>
   <trkpt lat="51.7940020" lon="39.4083260">
    <time>2017-02-11T10:58:13Z</time>
   </trkpt>
   <trkpt lat="51.7939580" lon="39.4083060">
    <time>2017-02-11T10:58:14Z</time>
   </trkpt>
   <trkpt lat="51.7939060" lon="39.4082950">
    <time>2017-02-11T10:58:15Z</time>
   </trkpt>
   <trkpt lat="51.7938520" lon="39.4082790">
    <time>2017-02-11T10:58:16Z</time>
   </trkpt>
   <trkpt lat="51.7938060" lon="39.4082690">
    <time>2017-02-11T10:58:17Z</time>
   </trkpt>
   <trkpt lat="51.7937610" lon="39.4082580">
    <time>2017-02-11T10:58:18Z</time>
   </trkpt>
   <trkpt lat="51.7937100" lon="39.4082460">
    <time>2017-02-11T10:58:19Z</time>
   </trkpt>
   <trkpt lat="51.7930640" lon="39.4080640">
    <time>2017-02-11T10:58:33Z</time>
   </trkpt>
   <trkpt lat="51.7924260" lon="39.4079070">
    <time>2017-02-11T10:58:46Z</time>
   </trkpt>
   <trkpt lat="51.7917800" lon="39.4077370">
    <time>2017-02-11T10:58:59Z</time>
   </trkpt>
   <trkpt lat="51.7911500" lon="39.4075330">
    <time>2017-02-11T10:59:12Z</time>
   </trkpt>
   <trkpt lat="51.7905280" lon="39.4074060">
    <time>2017-02-11T10:59:24Z</time>
   </trkpt>
   <trkpt lat="51.7899020" lon="39.4072320">
    <time>2017-02-11T10:59:37Z</time>
   </trkpt>
   <trkpt lat="51.7892490" lon="39.4070480">
    <time>2017-02-11T10:59:51Z</time>
   </trkpt>
   <trkpt lat="51.7885720" lon="39.4069020">
    <time>2017-02-11T11:00:05Z</time>
   </trkpt>
   <trkpt lat="51.7879100" lon="39.4067150">
    <time>2017-02-11T11:00:19Z</time>
   </trkpt>
   <trkpt lat="51.7873690" lon="39.4065720">
    <time>2017-02-11T11:00:30Z</time>
   </trkpt>
   <trkpt lat="51.7872230" lon="39.4065290">
    <time>2017-02-11T11:00:33Z</time>
   </trkpt>
   <trkpt lat="51.7871720" lon="39.4065170">
    <time>2017-02-11T11:00:34Z</time>
   </trkpt>
   <trkpt lat="51.7871260" lon="39.4064990">
    <time>2017-02-11T11:00:35Z</time>
   </trkpt>
   <trkpt lat="51.7870820" lon="39.4064840">
    <time>2017-02-11T11:00:36Z</time>
   </trkpt>
   <trkpt lat="51.7870360" lon="39.4064730">
    <time>2017-02-11T11:00:37Z</time>
   </trkpt>
   <trkpt lat="51.7869890" lon="39.4064650">
    <time>2017-02-11T11:00:38Z</time>
   </trkpt>
   <trkpt lat="51.7869440" lon="39.4064550">
    <time>2017-02-11T11:00:39Z</time>
   </trkpt>
   <trkpt lat="51.7864490" lon="39.4063300">
    <time>2017-02-11T11:00:50Z</time>
   </trkpt>
   <trkpt lat="51.7858120" lon="39.4061590">
    <time>2017-02-11T11:01:03Z</time>
   </trkpt>
   <trkpt lat="51.7852030" lon="39.4059730">
    <time>2017-02-11T11:01:16Z</time>
   </trkpt>
   <trkpt lat="51.7846250" lon="39.4058540">
    <time>2017-02-11T11:01:28Z</time>
   </trkpt>
   <trkpt lat="51.7840490" lon="39.4057020">
    <time>2017-02-11T11:01:41Z</time>
   </trkpt>
   <trkpt lat="51.7834040" lon="39.4055290">
    <time>2017-02-11T11:01:55Z</time>
   </trkpt>
   <trkpt lat="51.7828250" lon="39.4053720">
    <time>2017-02-11T11:02:08Z</time>
   </trkpt>
   <trkpt lat="51.7821440" lon="39.4052190">
    <time>2017-02-11T11:02:23Z</time>
   </trkpt>
   <trkpt lat="51.7815210" lon="39.4050630">
    <time>2017-02-11T11:02:39Z</time>
   </trkpt>
   <trkpt lat="51.7813860" lon="39.4050470">
    <time>2017-02-11T11:02:46Z</time>
   </trkpt>
   <trkpt lat="51.7813740" lon="39.4050500">
    <time>2017-02-11T11:02:47Z</time>
   </trkpt>
   <trkpt lat="51.7813610" lon="39.4050530">
    <time>2017-02-11T11:02:48Z</time>
   </trkpt>
   <trkpt lat="51.7811850" lon="39.4051110">
    <time>2017-02-11T11:03:01Z</time>
   </trkpt>
   <trkpt lat="51.7809670" lon="39.4055450">
    <time>2017-02-11T11:03:14Z</time>
   </trkpt>
   <trkpt lat="51.7806630" lon="39.4062350">
    <time>2017-02-11T11:03:30Z</time>
   </trkpt>
   <trkpt lat="51.7804420" lon="39.4068990">
    <time>2017-02-11T11:03:43Z</time>
   </trkpt>
   <trkpt lat="51.7802500" lon="39.4075660">
    <time>2017-02-11T11:03:59Z</time>
   </trkpt>
   <trkpt lat="51.7801550" lon="39.4079490">
    <time>2017-02-11T11:04:09Z</time>
   </trkpt>
   <trkpt lat="51.7800510" lon="39.4085710">
    <time>2017-02-11T11:04:22Z</time>
   </trkpt>
   <trkpt lat="51.7799860" lon="39.4091170">
    <time>2017-02-11T11:04:33Z</time>
   </trkpt>
   <trkpt lat="51.7799250" lon="39.4100570">
    <time>2017-02-11T11:04:49Z</time>
   </trkpt>
   <trkpt lat="51.7798650" lon="39.4107380">
    <time>2017-02-11T11:05:02Z</time>
   </trkpt>
   <trkpt lat="51.7797880" lon="39.4113870">
    <time>2017-02-11T11:05:14Z</time>
   </trkpt>
   <trkpt lat="51.7797420" lon="39.4119620">
    <time>2017-02-11T11:05:26Z</time>
   </trkpt>
   <trkpt lat="51.7796890" lon="39.4125050">
    <time>2017-02-11T11:05:37Z</time>
   </trkpt>
   <trkpt lat="51.7796250" lon="39.4131580">
    <time>2017-02-11T11:05:49Z</time>
   </trkpt>
   <trkpt lat="51.7795820" lon="39.4137230">
    <time>2017-02-11T11:05:59Z</time>
   </trkpt>
   <trkpt lat="51.7794860" lon="39.4145210">
    <time>2017-02-11T11:06:12Z</time>
   </trkpt>
   <trkpt lat="51.7793760" lon="39.4152170">
    <time>2017-02-11T11:06:23Z</time>
   </trkpt>
   <trkpt lat="51.7793070" lon="39.4158470">
    <time>2017-02-11T11:06:33Z</time>
   </trkpt>
   <trkpt lat="51.7792400" lon="39.4166290">
    <time>2017-02-11T11:06:45Z</time>
   </trkpt>
   <trkpt lat="51.7791800" lon="39.4173260">
    <time>2017-02-11T11:06:57Z</time>
   </trkpt>
   <trkpt lat="51.7791290" lon="39.4178250">
    <time>2017-02-11T11:07:06Z</time>
   </trkpt>
   <trkpt lat="51.7791030" lon="39.4180820">
    <time>2017-02-11T11:07:10Z</time>
   </trkpt>
   <trkpt lat="51.7790980" lon="39.4181520">
    <time>2017-02-11T11:07:11Z</time>
   </trkpt>
   <trkpt lat="51.7790750" lon="39.4185590">
    <time>2017-02-11T11:07:17Z</time>
   </trkpt>
   <trkpt lat="51.7790680" lon="39.4186170">
    <time>2017-02-11T11:07:18Z</time>
   </trkpt>
   <trkpt lat="51.7789740" lon="39.4191990">
    <time>2017-02-11T11:07:28Z</time>
   </trkpt>
   <trkpt lat="51.7789140" lon="39.4200170">
    <time>2017-02-11T11:07:40Z</time>
   </trkpt>
   <trkpt lat="51.7788400" lon="39.4207490">
    <time>2017-02-11T11:07:51Z</time>
   </trkpt>
   <trkpt lat="51.7788040" lon="39.4214860">
    <time>2017-02-11T11:08:02Z</time>
   </trkpt>
   <trkpt lat="51.7787490" lon="39.4221950">
    <time>2017-02-11T11:08:13Z</time>
   </trkpt>
   <trkpt lat="51.7786780" lon="39.4228000">
    <time>2017-02-11T11:08:22Z</time>
   </trkpt>
   <trkpt lat="51.7785950" lon="39.4235540">
    <time>2017-02-11T11:08:34Z</time>
   </trkpt>
   <trkpt lat="51.7785180" lon="39.4242240">
    <time>2017-02-11T11:08:46Z</time>
   </trkpt>
   <trkpt lat="51.7782260" lon="39.4243580">
    <time>2017-02-11T11:08:58Z</time>
   </trkpt>
   <trkpt lat="51.7778750" lon="39.4243760">
    <time>2017-02-11T11:09:09Z</time>
   </trkpt>
   <trkpt lat="51.7775040" lon="39.4243820">
    <time>2017-02-11T11:09:19Z</time>
   </trkpt>
   <trkpt lat="51.7769350" lon="39.4243770">
    <time>2017-02-11T11:09:32Z</time>
   </trkpt>
   <trkpt lat="51.7764170" lon="39.4243750">
    <time>2017-02-11T11:09:44Z</time>
   </trkpt>
   <trkpt lat="51.7758900" lon="39.4243370">
    <time>2017-02-11T11:09:56Z</time>
   </trkpt>
   <trkpt lat="51.7755130" lon="39.4243060">
    <time>2017-02-11T11:10:04Z</time>
   </trkpt>
   <trkpt lat="51.7750840" lon="39.4243230">
    <time>2017-02-11T11:10:15Z</time>
   </trkpt>
   <trkpt lat="51.7747170" lon="39.4242890">
    <time>2017-02-11T11:10:24Z</time>
   </trkpt>
   <trkpt lat="51.7742030" lon="39.4242790">
    <time>2017-02-11T11:10:35Z</time>
   </trkpt>
   <trkpt lat="51.7737500" lon="39.4242610">
    <time>2017-02-11T11:10:48Z</time>
   </trkpt>
   <trkpt lat="51.7734030" lon="39.4242650">
    <time>2017-02-11T11:10:57Z</time>
   </trkpt>
   <trkpt lat="51.7728420" lon="39.4242170">
    <time>2017-02-11T11:11:11Z</time>
   </trkpt>
   <trkpt lat="51.7723770" lon="39.4242100">
    <time>2017-02-11T11:11:23Z</time>
   </trkpt>
   <trkpt lat="51.7720390" lon="39.4242350">
    <time>2017-02-11T11:11:33Z</time>
   </trkpt>
   <trkpt lat="51.7715370" lon="39.4242120">
    <time>2017-02-11T11:11:46Z</time>
   </trkpt>
   <trkpt lat="51.7711380" lon="39.4241390">
    <time>2017-02-11T11:11:56Z</time>
   </trkpt>
   <trkpt lat="51.7707010" lon="39.4241440">
    <time>2017-02-11T11:12:07Z</time>
   </trkpt>
   <trkpt lat="51.7702550" lon="39.4241600">
    <time>2017-02-11T11:12:18Z</time>
   </trkpt>
   <trkpt lat="51.7697780" lon="39.4241080">
    <time>2017-02-11T11:12:30Z</time>
   </trkpt>
   <trkpt lat="51.7694910" lon="39.4241020">
    <time>2017-02-11T11:12:39Z</time>
   </trkpt>
   <trkpt lat="51.7689890" lon="39.4240840">
    <time>2017-02-11T11:12:50Z</time>
   </trkpt>
   <trkpt lat="51.7685070" lon="39.4240700">
    <time>2017-02-11T11:13:00Z</time>
   </trkpt>
   <trkpt lat="51.7679530" lon="39.4240730">
    <time>2017-02-11T11:13:12Z</time>
   </trkpt>
   <trkpt lat="51.7674590" lon="39.4240620">
    <time>2017-02-11T11:13:25Z</time>
   </trkpt>
   <trkpt lat="51.7669160" lon="39.4240310">
    <time>2017-02-11T11:13:38Z</time>
   </trkpt>
   <trkpt lat="51.7664880" lon="39.4240220">
    <time>2017-02-11T11:13:48Z</time>
   </trkpt>
   <trkpt lat="51.7661290" lon="39.4239940">
    <time>2017-02-11T11:13:56Z</time>
   </trkpt>
   <trkpt lat="51.7655490" lon="39.4239600">
    <time>2017-02-11T11:14:09Z</time>
   </trkpt>
   <trkpt lat="51.7649720" lon="39.4239560">
    <time>2017-02-11T11:14:21Z</time>
   </trkpt>
   <trkpt lat="51.7642820" lon="39.4239600">
    <time>2017-02-11T11:14:36Z</time>
   </trkpt>
   <trkpt lat="51.7637530" lon="39.4239390">
    <time>2017-02-11T11:14:47Z</time>
   </trkpt>
   <trkpt lat="51.7631680" lon="39.4239160">
    <time>2017-02-11T11:15:00Z</time>
   </trkpt>
   <trkpt lat="51.7625910" lon="39.4239000">
    <time>2017-02-11T11:15:12Z</time>
   </trkpt>
   <trkpt lat="51.7625410" lon="39.4238960">
    <time>2017-02-11T11:15:13Z</time>
   </trkpt>
   <trkpt lat="51.7620760" lon="39.4238600">
    <time>2017-02-11T11:15:24Z</time>
   </trkpt>
   <trkpt lat="51.7615300" lon="39.4238440">
    <time>2017-02-11T11:15:36Z</time>
   </trkpt>
   <trkpt lat="51.7609420" lon="39.4238210">
    <time>2017-02-11T11:15:49Z</time>
   </trkpt>
   <trkpt lat="51.7605300" lon="39.4237700">
    <time>2017-02-11T11:15:58Z</time>
   </trkpt>
   <trkpt lat="51.7599630" lon="39.4237540">
    <time>2017-02-11T11:16:10Z</time>
   </trkpt>
   <trkpt lat="51.7598680" lon="39.4237620">
    <time>2017-02-11T11:16:12Z</time>
   </trkpt>
   <trkpt lat="51.7595980" lon="39.4241210">
    <time>2017-02-11T11:16:21Z</time>
   </trkpt>
   <trkpt lat="51.7594690" lon="39.4244910">
    <time>2017-02-11T11:16:27Z</time>
   </trkpt>
   <trkpt lat="51.7594310" lon="39.4246290">
    <time>2017-02-11T11:16:29Z</time>
   </trkpt>
   <trkpt lat="51.7593020" lon="39.4250370">
    <time>2017-02-11T11:16:35Z</time>
   </trkpt>
   <trkpt lat="51.7591730" lon="39.4253990">
    <time>2017-02-11T11:16:41Z</time>
   </trkpt>
   <trkpt lat="51.7589320" lon="39.4260560">
    <time>2017-02-11T11:16:55Z</time>
   </trkpt>
   <trkpt lat="51.7585110" lon="39.4261610">
    <time>2017-02-11T11:17:08Z</time>
   </trkpt>
   <trkpt lat="51.7579150" lon="39.4262780">
    <time>2017-02-11T11:17:24Z</time>
   </trkpt>
   <trkpt lat="51.7573860" lon="39.4263010">
    <time>2017-02-11T11:17:39Z</time>
   </trkpt>
   <trkpt lat="51.7573510" lon="39.4263110">
    <time>2017-02-11T11:17:40Z</time>
   </trkpt>
   <trkpt lat="51.7572630" lon="39.4265740">
    <time>2017-02-11T11:17:46Z</time>
   </trkpt>
   <trkpt lat="51.7571880" lon="39.4273870">
    <time>2017-02-11T11:18:00Z</time>
   </trkpt>
   <trkpt lat="51.7570710" lon="39.4285320">
    <time>2017-02-11T11:18:18Z</time>
   </trkpt>
   <trkpt lat="51.7568910" lon="39.4295510">
    <time>2017-02-11T11:18:34Z</time>
   </trkpt>
   <trkpt lat="51.7568640" lon="39.4298730">
    <time>2017-02-11T11:18:39Z</time>
   </trkpt>
   <trkpt lat="51.7567130" lon="39.4306770">
    <time>2017-02-11T11:18:52Z</time>
   </trkpt>
   <trkpt lat="51.7564830" lon="39.4320110">
    <time>2017-02-11T11:19:14Z</time>
   </trkpt>
   <trkpt lat="51.7562480" lon="39.4321180">
    <time>2017-02-11T11:19:24Z</time>
   </trkpt>
   <trkpt lat="51.7558280" lon="39.4319020">
    <time>2017-02-11T11:19:39Z</time>
   </trkpt>
   <trkpt lat="51.7558570" lon="39.4315110">
    <time>2017-02-11T11:19:48Z</time>
   </trkpt>
   <trkpt lat="51.7561840" lon="39.4302070">
    <time>2017-02-11T11:20:08Z</time>
   </trkpt>
   <trkpt lat="51.7563460" lon="39.4282920">
    <time>2017-02-11T11:20:32Z</time>
   </trkpt>
   <trkpt lat="51.7565280" lon="39.4263750">
    <time>2017-02-11T11:20:55Z</time>
   </trkpt>
   <trkpt lat="51.7566770" lon="39.4245190">
    <time>2017-02-11T11:21:19Z</time>
   </trkpt>
   <trkpt lat="51.7566250" lon="39.4225150">
    <time>2017-02-11T11:21:44Z</time>
   </trkpt>
   <trkpt lat="51.7564160" lon="39.4210810">
    <time>2017-02-11T11:22:02Z</time>
   </trkpt>
   <trkpt lat="51.7563320" lon="39.4191560">
    <time>2017-02-11T11:22:26Z</time>
   </trkpt>
   <trkpt lat="51.7563170" lon="39.4173130">
    <time>2017-02-11T11:22:49Z</time>
   </trkpt>
   <trkpt lat="51.7561080" lon="39.4152930">
    <time>2017-02-11T11:23:13Z</time>
   </trkpt>
   <trkpt lat="51.7556430" lon="39.4130800">
    <time>2017-02-11T11:23:39Z</time>
   </trkpt>
   <trkpt lat="51.7551440" lon="39.4108410">
    <time>2017-02-11T11:24:05Z</time>
   </trkpt>
   <trkpt lat="51.7547290" lon="39.4089230">
    <time>2017-02-11T11:24:27Z</time>
   </trkpt>
   <trkpt lat="51.7544490" lon="39.4070770">
    <time>2017-02-11T11:24:48Z</time>
   </trkpt>
   <trkpt lat="51.7539760" lon="39.4057530">
    <time>2017-02-11T11:25:05Z</time>
   </trkpt>
   <trkpt lat="51.7534960" lon="39.4044550">
    <time>2017-02-11T11:25:22Z</time>
   </trkpt>
   <trkpt lat="51.7529670" lon="39.4031340">
    <time>2017-02-11T11:25:39Z</time>
   </trkpt>
   <trkpt lat="51.7523780" lon="39.4017010">
    <time>2017-02-11T11:25:58Z</time>
   </trkpt>
   <trkpt lat="51.7516940" lon="39.4000450">
    <time>2017-02-11T11:26:22Z</time>
   </trkpt>
   <trkpt lat="51.7512130" lon="39.3987870">
    <time>2017-02-11T11:26:40Z</time>
   </trkpt>
   <trkpt lat="51.7506650" lon="39.3972930">
    <time>2017-02-11T11:27:01Z</time>
   </trkpt>
   <trkpt lat="51.7501430" lon="39.3961480">
    <time>2017-02-11T11:27:18Z</time>
   </trkpt>
   <trkpt lat="51.7496800" lon="39.3951610">
    <time>2017-02-11T11:27:33Z</time>
   </trkpt>
   <trkpt lat="51.7494260" lon="39.3944270">
    <time>2017-02-11T11:27:43Z</time>
   </trkpt>
   <trkpt lat="51.7494160" lon="39.3943450">
    <time>2017-02-11T11:27:44Z</time>
   </trkpt>
   <trkpt lat="51.7494110" lon="39.3942640">
    <time>2017-02-11T11:27:45Z</time>
   </trkpt>
   <trkpt lat="51.7494100" lon="39.3941840">
    <time>2017-02-11T11:27:46Z</time>
   </trkpt>
   <trkpt lat="51.7494150" lon="39.3941050">
    <time>2017-02-11T11:27:47Z</time>
   </trkpt>
   <trkpt lat="51.7494240" lon="39.3940280">
    <time>2017-02-11T11:27:48Z</time>
   </trkpt>
   <trkpt lat="51.7494370" lon="39.3939540">
    <time>2017-02-11T11:27:49Z</time>
   </trkpt>
   <trkpt lat="51.7494520" lon="39.3938800">
    <time>2017-02-11T11:27:50Z</time>
   </trkpt>
   <trkpt lat="51.7495160" lon="39.3934910">
    <time>2017-02-11T11:27:55Z</time>
   </trkpt>
   <trkpt lat="51.7495210" lon="39.3934130">
    <time>2017-02-11T11:27:56Z</time>
   </trkpt>
   <trkpt lat="51.7495190" lon="39.3933390">
    <time>2017-02-11T11:27:57Z</time>
   </trkpt>
   <trkpt lat="51.7495170" lon="39.3932670">
    <time>2017-02-11T11:27:58Z</time>
   </trkpt>
   <trkpt lat="51.7495150" lon="39.3931910">
    <time>2017-02-11T11:27:59Z</time>
   </trkpt>
   <trkpt lat="51.7495070" lon="39.3931140">
    <time>2017-02-11T11:28:00Z</time>
   </trkpt>
   <trkpt lat="51.7494980" lon="39.3930400">
    <time>2017-02-11T11:28:01Z</time>
   </trkpt>
   <trkpt lat="51.7493350" lon="39.3923130">
    <time>2017-02-11T11:28:11Z</time>
   </trkpt>
   <trkpt lat="51.7490700" lon="39.3913500">
    <time>2017-02-11T11:28:25Z</time>
   </trkpt>
   <trkpt lat="51.7490510" lon="39.3912850">
    <time>2017-02-11T11:28:26Z</time>
   </trkpt>
   <trkpt lat="51.7490330" lon="39.3912230">
    <time>2017-02-11T11:28:27Z</time>
   </trkpt>
   <trkpt lat="51.7490150" lon="39.3911610">
    <time>2017-02-11T11:28:28Z</time>
   </trkpt>
   <trkpt lat="51.7487860" lon="39.3902690">
    <time>2017-02-11T11:28:43Z</time>
   </trkpt>
   <trkpt lat="51.7487660" lon="39.3902030">
    <time>2017-02-11T11:28:44Z</time>
   </trkpt>
   <trkpt lat="51.7484330" lon="39.3890280">
    <time>2017-02-11T11:29:01Z</time>
   </trkpt>
   <trkpt lat="51.7482300" lon="39.3882830">
    <time>2017-02-11T11:29:13Z</time>
   </trkpt>
   <trkpt lat="51.7479750" lon="39.3873310">
    <time>2017-02-11T11:29:25Z</time>
   </trkpt>
   <trkpt lat="51.7477210" lon="39.3864050">
    <time>2017-02-11T11:29:38Z</time>
   </trkpt>
   <trkpt lat="51.7474640" lon="39.3854470">
    <time>2017-02-11T11:29:51Z</time>
   </trkpt>
   <trkpt lat="51.7470900" lon="39.3840110">
    <time>2017-02-11T11:30:10Z</time>
   </trkpt>
   <trkpt lat="51.7469590" lon="39.3834890">
    <time>2017-02-11T11:30:17Z</time>
   </trkpt>
   <trkpt lat="51.7466570" lon="39.3824110">
    <time>2017-02-11T11:30:32Z</time>
   </trkpt>
   <trkpt lat="51.7464120" lon="39.3815850">
    <time>2017-02-11T11:30:46Z</time>
   </trkpt>
   <trkpt lat="51.7462010" lon="39.3810170">
    <time>2017-02-11T11:30:57Z</time>
   </trkpt>
   <trkpt lat="51.7459100" lon="39.3801980">
    <time>2017-02-11T11:31:10Z</time>
   </trkpt>
   <trkpt lat="51.7455610" lon="39.3791140">
    <time>2017-02-11T11:31:25Z</time>
   </trkpt>
   <trkpt lat="51.7451310" lon="39.3778020">
    <time>2017-02-11T11:31:43Z</time>
   </trkpt>
   <trkpt lat="51.7446880" lon="39.3765110">
    <time>2017-02-11T11:32:00Z</time>
   </trkpt>
   <trkpt lat="51.7442190" lon="39.3751170">
    <time>2017-02-11T11:32:18Z</time>
   </trkpt>
   <trkpt lat="51.7437880" lon="39.3738450">
    <time>2017-02-11T11:32:35Z</time>
   </trkpt>
   <trkpt lat="51.7433300" lon="39.3723740">
    <time>2017-02-11T11:32:55Z</time>
   </trkpt>
   <trkpt lat="51.7429380" lon="39.3711570">
    <time>2017-02-11T11:33:11Z</time>
   </trkpt>
   <trkpt lat="51.7426500" lon="39.3702690">
    <time>2017-02-11T11:33:23Z</time>
   </trkpt>
   <trkpt lat="51.7422440" lon="39.3690660">
    <time>2017-02-11T11:33:40Z</time>
   </trkpt>
   <trkpt lat="51.7421550" lon="39.3688080">
    <time>2017-02-11T11:33:44Z</time>
   </trkpt>
   <trkpt lat="51.7418380" lon="39.3678690">
    <time>2017-02-11T11:33:59Z</time>
   </trkpt>
   <trkpt lat="51.7416120" lon="39.3665410">
    <time>2017-02-11T11:34:17Z</time>
   </trkpt>
   <trkpt lat="51.7413450" lon="39.3651230">
    <time>2017-02-11T11:34:35Z</time>
   </trkpt>
   <trkpt lat="51.7409790" lon="39.3637810">
    <time>2017-02-11T11:34:52Z</time>
   </trkpt>
   <trkpt lat="51.7406420" lon="39.3625770">
    <time>2017-02-11T11:35:07Z</time>
   </trkpt>
   <trkpt lat="51.7401910" lon="39.3609680">
    <time>2017-02-11T11:35:26Z</time>
   </trkpt>
   <trkpt lat="51.7397910" lon="39.3596240">
    <time>2017-02-11T11:35:43Z</time>
   </trkpt>
   <trkpt lat="51.7393810" lon="39.3581420">
    <time>2017-02-11T11:36:01Z</time>
   </trkpt>
   <trkpt lat="51.7389790" lon="39.3566650">
    <time>2017-02-11T11:36:19Z</time>
   </trkpt>
   <trkpt lat="51.7385510" lon="39.3551600">
    <time>2017-02-11T11:36:38Z</time>
   </trkpt>
   <trkpt lat="51.7384860" lon="39.3549910">
    <time>2017-02-11T11:36:41Z</time>
   </trkpt>
   <trkpt lat="51.7384500" lon="39.3549640">
    <time>2017-02-11T11:36:42Z</time>
   </trkpt>
   <trkpt lat="51.7384080" lon="39.3549580">
    <time>2017-02-11T11:36:43Z</time>
   </trkpt>
   <trkpt lat="51.7383630" lon="39.3549680">
    <time>2017-02-11T11:36:44Z</time>
   </trkpt>
   <trkpt lat="51.7383200" lon="39.3549860">
    <time>2017-02-11T11:36:45Z</time>
   </trkpt>
   <trkpt lat="51.7382770" lon="39.3550060">
    <time>2017-02-11T11:36:46Z</time>
   </trkpt>
   <trkpt lat="51.7382350" lon="39.3550320">
    <time>2017-02-11T11:36:47Z</time>
   </trkpt>
   <trkpt lat="51.7381930" lon="39.3550650">
    <time>2017-02-11T11:36:48Z</time>
   </trkpt>
   <trkpt lat="51.7372070" lon="39.3558970">
    <time>2017-02-11T11:37:11Z</time>
   </trkpt>
   <trkpt lat="51.7363140" lon="39.3566360">
    <time>2017-02-11T11:37:31Z</time>
   </trkpt>
   <trkpt lat="51.7353120" lon="39.3574790">
    <time>2017-02-11T11:37:53Z</time>
   </trkpt>
   <trkpt lat="51.7344480" lon="39.3582150">
    <time>2017-02-11T11:38:11Z</time>
   </trkpt>
   <trkpt lat="51.7337110" lon="39.3589650">
    <time>2017-02-11T11:38:28Z</time>
   </trkpt>
   <trkpt lat="51.7336670" lon="39.3589800">
    <time>2017-02-11T11:38:29Z</time>
   </trkpt>
   <trkpt lat="51.7336230" lon="39.3589770">
    <time>2017-02-11T11:38:30Z</time>
   </trkpt>
   <trkpt lat="51.7335820" lon="39.3589560">
    <time>2017-02-11T11:38:31Z</time>
   </trkpt>
   <trkpt lat="51.7335460" lon="39.3589160">
    <time>2017-02-11T11:38:32Z</time>
   </trkpt>
   <trkpt lat="51.7335150" lon="39.3588650">
    <time>2017-02-11T11:38:33Z</time>
   </trkpt>
   <trkpt lat="51.7334890" lon="39.3588060">
    <time>2017-02-11T11:38:34Z</time>
   </trkpt>
   <trkpt lat="51.7334650" lon="39.3587420">
    <time>2017-02-11T11:38:35Z</time>
   </trkpt>
   <trkpt lat="51.7334440" lon="39.3586740">
    <time>2017-02-11T11:38:36Z</time>
   </trkpt>
   <trkpt lat="51.7334260" lon="39.3586060">
    <time>2017-02-11T11:38:37Z</time>
   </trkpt>
   <trkpt lat="51.7332090" lon="39.3571690">
    <time>2017-02-11T11:38:56Z</time>
   </trkpt>
   <trkpt lat="51.7330450" lon="39.3558220">
    <time>2017-02-11T11:39:13Z</time>
   </trkpt>
   <trkpt lat="51.7329030" lon="39.3546350">
    <time>2017-02-11T11:39:27Z</time>
   </trkpt>
   <trkpt lat="51.7327170" lon="39.3533940">
    <time>2017-02-11T11:39:41Z</time>
   </trkpt>
   <trkpt lat="51.7327070" lon="39.3533100">
    <time>2017-02-11T11:39:42Z</time>
   </trkpt>
   <trkpt lat="51.7326960" lon="39.3532260">
    <time>2017-02-11T11:39:43Z</time>
   </trkpt>
   <trkpt lat="51.7326820" lon="39.3531450">
    <time>2017-02-11T11:39:44Z</time>
   </trkpt>
   <trkpt lat="51.7326670" lon="39.3530650">
    <time>2017-02-11T11:39:45Z</time>
   </trkpt>
   <trkpt lat="51.7324060" lon="39.3515200">
    <time>2017-02-11T11:40:04Z</time>
   </trkpt>
   <trkpt lat="51.7322150" lon="39.3504910">
    <time>2017-02-11T11:40:18Z</time>
   </trkpt>
   <trkpt lat="51.7320470" lon="39.3501330">
    <time>2017-02-11T11:40:25Z</time>
   </trkpt>
   <trkpt lat="51.7320060" lon="39.3500960">
    <time>2017-02-11T11:40:26Z</time>
   </trkpt>
   <trkpt lat="51.7319610" lon="39.3500780">
    <time>2017-02-11T11:40:27Z</time>
   </trkpt>
   <trkpt lat="51.7319140" lon="39.3500720">
    <time>2017-02-11T11:40:28Z</time>
   </trkpt>
   <trkpt lat="51.7318670" lon="39.3500710">
    <time>2017-02-11T11:40:29Z</time>
   </trkpt>
   <trkpt lat="51.7313770" lon="39.3500100">
    <time>2017-02-11T11:40:39Z</time>
   </trkpt>
   <trkpt lat="51.7306620" lon="39.3495560">
    <time>2017-02-11T11:40:55Z</time>
   </trkpt>
   <trkpt lat="51.7305350" lon="39.3494300">
    <time>2017-02-11T11:40:58Z</time>
   </trkpt>
   <trkpt lat="51.7304640" lon="39.3493340">
    <time>2017-02-11T11:41:00Z</time>
   </trkpt>
   <trkpt lat="51.7303320" lon="39.3491290">
    <time>2017-02-11T11:41:04Z</time>
   </trkpt>
   <trkpt lat="51.7298920" lon="39.3482490">
    <time>2017-02-11T11:41:18Z</time>
   </trkpt>
   <trkpt lat="51.7297540" lon="39.3474720">
    <time>2017-02-11T11:41:28Z</time>
   </trkpt>
   <trkpt lat="51.7297060" lon="39.3466310">
    <time>2017-02-11T11:41:38Z</time>
   </trkpt>
   <trkpt lat="51.7297000" lon="39.3465510">
    <time>2017-02-11T11:41:39Z</time>
   </trkpt>
   <trkpt lat="51.7296680" lon="39.3460000">
    <time>2017-02-11T11:41:46Z</time>
   </trkpt>
   <trkpt lat="51.7296640" lon="39.3459250">
    <time>2017-02-11T11:41:47Z</time>
   </trkpt>
   <trkpt lat="51.7296600" lon="39.3458460">
    <time>2017-02-11T11:41:48Z</time>
   </trkpt>
   <trkpt lat="51.7295720" lon="39.3449040">
    <time>2017-02-11T11:41:59Z</time>
   </trkpt>
   <trkpt lat="51.7295660" lon="39.3448190">
    <time>2017-02-11T11:42:00Z</time>
   </trkpt>
   <trkpt lat="51.7295560" lon="39.3447270">
    <time>2017-02-11T11:42:01Z</time>
   </trkpt>
   <trkpt lat="51.7295470" lon="39.3446410">
    <time>2017-02-11T11:42:02Z</time>
   </trkpt>
   <trkpt lat="51.7295400" lon="39.3445560">
    <time>2017-02-11T11:42:03Z</time>
   </trkpt>
   <trkpt lat="51.7295280" lon="39.3443840">
    <time>2017-02-11T11:42:05Z</time>
   </trkpt>
   <trkpt lat="51.7295220" lon="39.3442980">
    <time>2017-02-11T11:42:06Z</time>
   </trkpt>
   <trkpt lat="51.7295100" lon="39.3442110">
    <time>2017-02-11T11:42:07Z</time>
   </trkpt>
   <trkpt lat="51.7295020" lon="39.3441270">
    <time>2017-02-11T11:42:08Z</time>
   </trkpt>
   <trkpt lat="51.7294970" lon="39.3440460">
    <time>2017-02-11T11:42:09Z</time>
   </trkpt>
   <trkpt lat="51.7293890" lon="39.3428460">
    <time>2017-02-11T11:42:23Z</time>
   </trkpt>
   <trkpt lat="51.7293480" lon="39.3420860">
    <time>2017-02-11T11:42:32Z</time>
   </trkpt>
   <trkpt lat="51.7292690" lon="39.3406780">
    <time>2017-02-11T11:42:48Z</time>
   </trkpt>
   <trkpt lat="51.7291400" lon="39.3384490">
    <time>2017-02-11T11:43:12Z</time>
   </trkpt>
   <trkpt lat="51.7291410" lon="39.3375390">
    <time>2017-02-11T11:43:22Z</time>
   </trkpt>
   <trkpt lat="51.7291550" lon="39.3374520">
    <time>2017-02-11T11:43:23Z</time>
   </trkpt>
   <trkpt lat="51.7295050" lon="39.3364660">
    <time>2017-02-11T11:43:37Z</time>
   </trkpt>
   <trkpt lat="51.7297480" lon="39.3357920">
    <time>2017-02-11T11:43:46Z</time>
   </trkpt>
   <trkpt lat="51.7297880" lon="39.3356280">
    <time>2017-02-11T11:43:48Z</time>
   </trkpt>
   <trkpt lat="51.7298680" lon="39.3342130">
    <time>2017-02-11T11:44:06Z</time>
   </trkpt>
   <trkpt lat="51.7297800" lon="39.3325610">
    <time>2017-02-11T11:44:28Z</time>
   </trkpt>
   <trkpt lat="51.7298020" lon="39.3322370">
    <time>2017-02-11T11:44:32Z</time>
   </trkpt>
   <trkpt lat="51.7298150" lon="39.3321580">
    <time>2017-02-11T11:44:33Z</time>
   </trkpt>
   <trkpt lat="51.7300860" lon="39.3308820">
    <time>2017-02-11T11:44:50Z</time>
   </trkpt>
   <trkpt lat="51.7305540" lon="39.3297270">
    <time>2017-02-11T11:45:08Z</time>
   </trkpt>
   <trkpt lat="51.7312110" lon="39.3286220">
    <time>2017-02-11T11:45:28Z</time>
   </trkpt>
   <trkpt lat="51.7312380" lon="39.3285550">
    <time>2017-02-11T11:45:29Z</time>
   </trkpt>
   <trkpt lat="51.7313860" lon="39.3279950">
    <time>2017-02-11T11:45:37Z</time>
   </trkpt>
   <trkpt lat="51.7315150" lon="39.3265730">
    <time>2017-02-11T11:45:56Z</time>
   </trkpt>
   <trkpt lat="51.7316320" lon="39.3250290">
    <time>2017-02-11T11:46:16Z</time>
   </trkpt>
   <trkpt lat="51.7317550" lon="39.3237440">
    <time>2017-02-11T11:46:33Z</time>
   </trkpt>
   <trkpt lat="51.7318730" lon="39.3223430">
    <time>2017-02-11T11:46:51Z</time>
   </trkpt>
   <trkpt lat="51.7319170" lon="39.3210170">
    <time>2017-02-11T11:47:08Z</time>
   </trkpt>
   <trkpt lat="51.7316330" lon="39.3200640">
    <time>2017-02-11T11:47:22Z</time>
   </trkpt>
   <trkpt lat="51.7309490" lon="39.3193560">
    <time>2017-02-11T11:47:39Z</time>
   </trkpt>
   <trkpt lat="51.7301510" lon="39.3191390">
    <time>2017-02-11T11:47:55Z</time>
   </trkpt>
   <trkpt lat="51.7291060" lon="39.3189220">
    <time>2017-02-11T11:48:16Z</time>
   </trkpt>
   <trkpt lat="51.7279080" lon="39.3186580">
    <time>2017-02-11T11:48:40Z</time>
   </trkpt>
   <trkpt lat="51.7269650" lon="39.3184760">
    <time>2017-02-11T11:49:00Z</time>
   </trkpt>
   <trkpt lat="51.7262370" lon="39.3182820">
    <time>2017-02-11T11:49:16Z</time>
   </trkpt>
   <trkpt lat="51.7262010" lon="39.3182430">
    <time>2017-02-11T11:49:17Z</time>
   </trkpt>
   <trkpt lat="51.7261750" lon="39.3181890">
    <time>2017-02-11T11:49:18Z</time>
   </trkpt>
   <trkpt lat="51.7261600" lon="39.3181250">
    <time>2017-02-11T11:49:19Z</time>
   </trkpt>
   <trkpt lat="51.7261550" lon="39.3180550">
    <time>2017-02-11T11:49:20Z</time>
   </trkpt>
   <trkpt lat="51.7261580" lon="39.3179840">
    <time>2017-02-11T11:49:21Z</time>
   </trkpt>
   <trkpt lat="51.7261630" lon="39.3179140">
    <time>2017-02-11T11:49:22Z</time>
   </trkpt>
   <trkpt lat="51.7262910" lon="39.3165910">
    <time>2017-02-11T11:49:42Z</time>
   </trkpt>
   <trkpt lat="51.7264230" lon="39.3152680">
    <time>2017-02-11T11:50:04Z</time>
   </trkpt>
   <trkpt lat="51.7265200" lon="39.3142860">
    <time>2017-02-11T11:50:21Z</time>
   </trkpt>
   <trkpt lat="51.7266370" lon="39.3130570">
    <time>2017-02-11T11:50:42Z</time>
   </trkpt>
   <trkpt lat="51.7267730" lon="39.3116810">
    <time>2017-02-11T11:51:05Z</time>
   </trkpt>
   <trkpt lat="51.7269050" lon="39.3102690">
    <time>2017-02-11T11:51:27Z</time>
   </trkpt>
   <trkpt lat="51.7270660" lon="39.3086250">
    <time>2017-02-11T11:51:50Z</time>
   </trkpt>
   <trkpt lat="51.7272420" lon="39.3068160">
    <time>2017-02-11T11:52:15Z</time>
   </trkpt>
   <trkpt lat="51.7274120" lon="39.3050780">
    <time>2017-02-11T11:52:37Z</time>
   </trkpt>
   <trkpt lat="51.7276140" lon="39.3029790">
    <time>2017-02-11T11:53:02Z</time>
   </trkpt>
   <trkpt lat="51.7278750" lon="39.3001430">
    <time>2017-02-11T11:53:35Z</time>
   </trkpt>
   <trkpt lat="51.7278980" lon="39.2983580">
    <time>2017-02-11T11:53:56Z</time>
   </trkpt>
   <trkpt lat="51.7278200" lon="39.2970290">
    <time>2017-02-11T11:54:12Z</time>
   </trkpt>
   <trkpt lat="51.7277740" lon="39.2968940">
    <time>2017-02-11T11:54:14Z</time>
   </trkpt>
   <trkpt lat="51.7277380" lon="39.2968420">
    <time>2017-02-11T11:54:15Z</time>
   </trkpt>
   <trkpt lat="51.7276960" lon="39.2968040">
    <time>2017-02-11T11:54:16Z</time>
   </trkpt>
   <trkpt lat="51.7276500" lon="39.2967770">
    <time>2017-02-11T11:54:17Z</time>
   </trkpt>
   <trkpt lat="51.7276010" lon="39.2967580">
    <time>2017-02-11T11:54:18Z</time>
   </trkpt>
   <trkpt lat="51.7275500" lon="39.2967420">
    <time>2017-02-11T11:54:19Z</time>
   </trkpt>
   <trkpt lat="51.7265250" lon="39.2964770">
    <time>2017-02-11T11:54:37Z</time>
   </trkpt>
   <trkpt lat="51.7252560" lon="39.2961420">
    <time>2017-02-11T11:54:59Z</time>
   </trkpt>
   <trkpt lat="51.7240040" lon="39.2958050">
    <time>2017-02-11T11:55:22Z</time>
   </trkpt>
   <trkpt lat="51.7235630" lon="39.2956600">
    <time>2017-02-11T11:55:36Z</time>
   </trkpt>
   <trkpt lat="51.7235630" lon="39.2956600">
    <time>2017-02-11T11:55:39Z</time>
   </trkpt>
   <trkpt lat="51.7235320" lon="39.2956910">
    <time>2017-02-11T11:56:02Z</time>
   </trkpt>
   <trkpt lat="51.7235120" lon="39.2956930">
    <time>2017-02-11T11:56:03Z</time>
   </trkpt>
   <trkpt lat="51.7234880" lon="39.2956900">
    <time>2017-02-11T11:56:04Z</time>
   </trkpt>
   <trkpt lat="51.7234620" lon="39.2956860">
    <time>2017-02-11T11:56:05Z</time>
   </trkpt>
   <trkpt lat="51.7229640" lon="39.2955530">
    <time>2017-02-11T11:56:18Z</time>
   </trkpt>
   <trkpt lat="51.7218090" lon="39.2952420">
    <time>2017-02-11T11:56:41Z</time>
   </trkpt>
   <trkpt lat="51.7203900" lon="39.2948780">
    <time>2017-02-11T11:57:08Z</time>
   </trkpt>
   <trkpt lat="51.7191490" lon="39.2945180">
    <time>2017-02-11T11:57:32Z</time>
   </trkpt>
   <trkpt lat="51.7178310" lon="39.2941880">
    <time>2017-02-11T11:57:58Z</time>
   </trkpt>
   <trkpt lat="51.7169290" lon="39.2939470">
    <time>2017-02-11T11:58:16Z</time>
   </trkpt>
   <trkpt lat="51.7160840" lon="39.2937450">
    <time>2017-02-11T11:58:33Z</time>
   </trkpt>
   <trkpt lat="51.7150560" lon="39.2934780">
    <time>2017-02-11T11:58:53Z</time>
   </trkpt>
   <trkpt lat="51.7138730" lon="39.2931800">
    <time>2017-02-11T11:59:16Z</time>
   </trkpt>
   <trkpt lat="51.7129800" lon="39.2929400">
    <time>2017-02-11T11:59:34Z</time>
   </trkpt>
   <trkpt lat="51.7118980" lon="39.2926500">
    <time>2017-02-11T11:59:56Z</time>
   </trkpt>
   <trkpt lat="51.7110920" lon="39.2924500">
    <time>2017-02-11T12:00:13Z</time>
   </trkpt>
   <trkpt lat="51.7099730" lon="39.2921730">
    <time>2017-02-11T12:00:36Z</time>
   </trkpt>
   <trkpt lat="51.7086810" lon="39.2918510">
    <time>2017-02-11T12:01:02Z</time>
   </trkpt>
   <trkpt lat="51.7076280" lon="39.2915710">
    <time>2017-02-11T12:01:23Z</time>
   </trkpt>
   <trkpt lat="51.7066180" lon="39.2913050">
    <time>2017-02-11T12:01:43Z</time>
   </trkpt>
   <trkpt lat="51.7055650" lon="39.2910600">
    <time>2017-02-11T12:02:04Z</time>
   </trkpt>
   <trkpt lat="51.7045300" lon="39.2908110">
    <time>2017-02-11T12:02:25Z</time>
   </trkpt>
   <trkpt lat="51.7036490" lon="39.2905860">
    <time>2017-02-11T12:02:43Z</time>
   </trkpt>
   <trkpt lat="51.7027850" lon="39.2901770">
    <time>2017-02-11T12:03:01Z</time>
   </trkpt>
   <trkpt lat="51.7023380" lon="39.2895090">
    <time>2017-02-11T12:03:13Z</time>
   </trkpt>
   <trkpt lat="51.7022840" lon="39.2893680">
    <time>2017-02-11T12:03:15Z</time>
   </trkpt>
   <trkpt lat="51.7021250" lon="39.2881160">
    <time>2017-02-11T12:03:31Z</time>
   </trkpt>
   <trkpt lat="51.7022670" lon="39.2860450">
    <time>2017-02-11T12:03:56Z</time>
   </trkpt>
   <trkpt lat="51.7024320" lon="39.2839720">
    <time>2017-02-11T12:04:21Z</time>
   </trkpt>
   <trkpt lat="51.7025680" lon="39.2823090">
    <time>2017-02-11T12:04:41Z</time>
   </trkpt>
   <trkpt lat="51.7027410" lon="39.2802480">
    <time>2017-02-11T12:05:05Z</time>
   </trkpt>
   <trkpt lat="51.7028450" lon="39.2789750">
    <time>2017-02-11T12:05:19Z</time>
   </trkpt>
   <trkpt lat="51.7029680" lon="39.2776620">
    <time>2017-02-11T12:05:33Z</time>
   </trkpt>
   <trkpt lat="51.7030150" lon="39.2773180">
    <time>2017-02-11T12:05:37Z</time>
   </trkpt>
   <trkpt lat="51.7030250" lon="39.2772350">
    <time>2017-02-11T12:05:38Z</time>
   </trkpt>
   <trkpt lat="51.7030810" lon="39.2760920">
    <time>2017-02-11T12:05:48Z</time>
   </trkpt>
   <trkpt lat="51.7030890" lon="39.2754320">
    <time>2017-02-11T12:05:54Z</time>
   </trkpt>
   <trkpt lat="51.7030750" lon="39.2753360">
    <time>2017-02-11T12:05:55Z</time>
   </trkpt>
   <trkpt lat="51.7030570" lon="39.2752510">
    <time>2017-02-11T12:05:56Z</time>
   </trkpt>
   <trkpt lat="51.7030320" lon="39.2751770">
    <time>2017-02-11T12:05:57Z</time>
   </trkpt>
   <trkpt lat="51.7030000" lon="39.2751160">
    <time>2017-02-11T12:05:58Z</time>
   </trkpt>
   <trkpt lat="51.7029620" lon="39.2750690">
    <time>2017-02-11T12:05:59Z</time>
   </trkpt>
   <trkpt lat="51.7029180" lon="39.2750330">
    <time>2017-02-11T12:06:00Z</time>
   </trkpt>
   <trkpt lat="51.7028720" lon="39.2750050">
    <time>2017-02-11T12:06:01Z</time>
   </trkpt>
   <trkpt lat="51.7027800" lon="39.2749620">
    <time>2017-02-11T12:06:03Z</time>
   </trkpt>
   <trkpt lat="51.7026870" lon="39.2749290">
    <time>2017-02-11T12:06:05Z</time>
   </trkpt>
   <trkpt lat="51.7017610" lon="39.2745580">
    <time>2017-02-11T12:06:25Z</time>
   </trkpt>
   <trkpt lat="51.7013740" lon="39.2743080">
    <time>2017-02-11T12:06:38Z</time>
   </trkpt>
   <trkpt lat="51.7013750" lon="39.2743080">
    <time>2017-02-11T12:06:39Z</time>
   </trkpt>
   <trkpt lat="51.7013180" lon="39.2742580">
    <time>2017-02-11T12:06:45Z</time>
   </trkpt>
   <trkpt lat="51.7012930" lon="39.2742380">
    <time>2017-02-11T12:06:46Z</time>
   </trkpt>
   <trkpt lat="51.7011660" lon="39.2741290">
    <time>2017-02-11T12:06:51Z</time>
   </trkpt>
   <trkpt lat="51.7011510" lon="39.2740900">
    <time>2017-02-11T12:06:52Z</time>
   </trkpt>
   <trkpt lat="51.7011370" lon="39.2740530">
    <time>2017-02-11T12:06:53Z</time>
   </trkpt>
   <trkpt lat="51.7011210" lon="39.2740210">
    <time>2017-02-11T12:06:54Z</time>
   </trkpt>
   <trkpt lat="51.7011050" lon="39.2739940">
    <time>2017-02-11T12:06:55Z</time>
   </trkpt>
   <trkpt lat="51.7010850" lon="39.2739710">
    <time>2017-02-11T12:06:56Z</time>
   </trkpt>
   <trkpt lat="51.7010630" lon="39.2739510">
    <time>2017-02-11T12:06:57Z</time>
   </trkpt>
   <trkpt lat="51.7010370" lon="39.2739390">
    <time>2017-02-11T12:06:58Z</time>
   </trkpt>
   <trkpt lat="51.7010110" lon="39.2739270">
    <time>2017-02-11T12:06:59Z</time>
   </trkpt>
   <trkpt lat="51.7006790" lon="39.2737480">
    <time>2017-02-11T12:07:12Z</time>
   </trkpt>
   <trkpt lat="51.7003160" lon="39.2734440">
    <time>2017-02-11T12:07:27Z</time>
   </trkpt>
   <trkpt lat="51.6999980" lon="39.2732110">
    <time>2017-02-11T12:07:40Z</time>
   </trkpt>
   <trkpt lat="51.6994410" lon="39.2728740">
    <time>2017-02-11T12:07:58Z</time>
   </trkpt>
   <trkpt lat="51.6989220" lon="39.2725340">
    <time>2017-02-11T12:08:14Z</time>
   </trkpt>
   <trkpt lat="51.6985750" lon="39.2722920">
    <time>2017-02-11T12:08:27Z</time>
   </trkpt>
   <trkpt lat="51.6982500" lon="39.2720980">
    <time>2017-02-11T12:08:40Z</time>
   </trkpt>
   <trkpt lat="51.6977870" lon="39.2717780">
    <time>2017-02-11T12:08:57Z</time>
   </trkpt>
   <trkpt lat="51.6975200" lon="39.2715600">
    <time>2017-02-11T12:09:11Z</time>
   </trkpt>
   <trkpt lat="51.6970320" lon="39.2712290">
    <time>2017-02-11T12:09:26Z</time>
   </trkpt>
   <trkpt lat="51.6965000" lon="39.2708710">
    <time>2017-02-11T12:09:44Z</time>
   </trkpt>
   <trkpt lat="51.6962480" lon="39.2707100">
    <time>2017-02-11T12:09:55Z</time>
   </trkpt>
   <trkpt lat="51.6962450" lon="39.2706890">
    <time>2017-02-11T12:09:56Z</time>
   </trkpt>
   <trkpt lat="51.6962480" lon="39.2706540">
    <time>2017-02-11T12:09:57Z</time>
   </trkpt>
   <trkpt lat="51.6964440" lon="39.2700520">
    <time>2017-02-11T12:10:11Z</time>
   </trkpt>
   <trkpt lat="51.6966250" lon="39.2693310">
    <time>2017-02-11T12:10:26Z</time>
   </trkpt>
   <trkpt lat="51.6966950" lon="39.2687210">
    <time>2017-02-11T12:10:39Z</time>
   </trkpt>
   <trkpt lat="51.6967760" lon="39.2681660">
    <time>2017-02-11T12:10:50Z</time>
   </trkpt>
   <trkpt lat="51.6968640" lon="39.2677510">
    <time>2017-02-11T12:10:59Z</time>
   </trkpt>
   <trkpt lat="51.6968540" lon="39.2677090">
    <time>2017-02-11T12:11:00Z</time>
   </trkpt>
   <trkpt lat="51.6968330" lon="39.2676770">
    <time>2017-02-11T12:11:01Z</time>
   </trkpt>
   <trkpt lat="51.6967820" lon="39.2676320">
    <time>2017-02-11T12:11:03Z</time>
   </trkpt>
   <trkpt lat="51.6967580" lon="39.2676080">
    <time>2017-02-11T12:11:04Z</time>
   </trkpt>
   <trkpt lat="51.6963670" lon="39.2672830">
    <time>2017-02-11T12:11:18Z</time>
   </trkpt>
   <trkpt lat="51.6959420" lon="39.2669660">
    <time>2017-02-11T12:11:32Z</time>
   </trkpt>
   <trkpt lat="51.6956200" lon="39.2667850">
    <time>2017-02-11T12:11:43Z</time>
   </trkpt>
   <trkpt lat="51.6951590" lon="39.2664780">
    <time>2017-02-11T12:11:56Z</time>
   </trkpt>
   <trkpt lat="51.6950680" lon="39.2664000">
    <time>2017-02-11T12:12:00Z</time>
   </trkpt>
   <trkpt lat="51.6950610" lon="39.2663720">
    <time>2017-02-11T12:12:01Z</time>
   </trkpt>
   <trkpt lat="51.6950620" lon="39.2663350">
    <time>2017-02-11T12:12:02Z</time>
   </trkpt>
   <trkpt lat="51.6950910" lon="39.2661520">
    <time>2017-02-11T12:12:07Z</time>
   </trkpt>
   <trkpt lat="51.6950820" lon="39.2661280">
    <time>2017-02-11T12:12:11Z</time>
   </trkpt>
  </trkseg>
 </trk>
</gpx>
